<?xml version="1.0" encoding="UTF-8" standalone="no" ?>
<gpx xmlns="http://www.topografix.com/GPX/1/1" xmlns:xsi="http://www.w3.org/2001/XMLSchema-instance" xsi:schemaLocation="http://www.topografix.com/GPX/1/1 http://www.topografix.com/GPX/1/1/gpx.xsd" version="1.1" creator="VisuGPX - https://www.visugpx.com">
  <metadata>
    <name>ABR</name>
  </metadata>
  <trk>
    <name><![CDATA[Sortie marche dans l'après-midi]]></name>
    <trkseg>
      <trkpt lat="44.79513" lon="6.92654">
        <ele>1560.4</ele>
        <time>2024-12-08T13:07:42Z</time>
      </trkpt>
      <trkpt lat="44.79526" lon="6.92619">
        <ele>1567.9</ele>
        <time>2024-12-08T13:07:48Z</time>
      </trkpt>
      <trkpt lat="44.79527" lon="6.92602">
        <ele>1569.6</ele>
        <time>2024-12-08T13:07:53Z</time>
      </trkpt>
      <trkpt lat="44.79541" lon="6.92579">
        <ele>1573.9</ele>
        <time>2024-12-08T13:07:58Z</time>
      </trkpt>
      <trkpt lat="44.7954" lon="6.92577">
        <ele>1573.9</ele>
        <time>2024-12-08T13:08:03Z</time>
      </trkpt>
      <trkpt lat="44.7955" lon="6.92546">
        <ele>1580.9</ele>
        <time>2024-12-08T13:08:10Z</time>
      </trkpt>
      <trkpt lat="44.79554" lon="6.92528">
        <ele>1585.9</ele>
        <time>2024-12-08T13:08:16Z</time>
      </trkpt>
      <trkpt lat="44.79559" lon="6.92519">
        <ele>1588.5</ele>
        <time>2024-12-08T13:08:21Z</time>
      </trkpt>
      <trkpt lat="44.79566" lon="6.92493">
        <ele>1597.9</ele>
        <time>2024-12-08T13:08:27Z</time>
      </trkpt>
      <trkpt lat="44.79575" lon="6.92458">
        <ele>1608.9</ele>
        <time>2024-12-08T13:08:35Z</time>
      </trkpt>
      <trkpt lat="44.79571" lon="6.92452">
        <ele>1609.1</ele>
        <time>2024-12-08T13:08:38Z</time>
      </trkpt>
      <trkpt lat="44.79592" lon="6.92486">
        <ele>1608.7</ele>
        <time>2024-12-08T13:08:40Z</time>
      </trkpt>
      <trkpt lat="44.79592" lon="6.92486">
        <ele>1608.7</ele>
        <time>2024-12-08T13:08:44Z</time>
      </trkpt>
      <trkpt lat="44.79585" lon="6.92451">
        <ele>1615.3</ele>
        <time>2024-12-08T13:08:48Z</time>
      </trkpt>
      <trkpt lat="44.79586" lon="6.92456">
        <ele>1614.3</ele>
        <time>2024-12-08T13:08:51Z</time>
      </trkpt>
      <trkpt lat="44.79586" lon="6.92468">
        <ele>1612</ele>
        <time>2024-12-08T13:08:57Z</time>
      </trkpt>
      <trkpt lat="44.79582" lon="6.92462">
        <ele>1611.8</ele>
        <time>2024-12-08T13:09:05Z</time>
      </trkpt>
      <trkpt lat="44.79579" lon="6.92465">
        <ele>1609.3</ele>
        <time>2024-12-08T13:09:06Z</time>
      </trkpt>
      <trkpt lat="44.79586" lon="6.92464">
        <ele>1613.3</ele>
        <time>2024-12-08T13:09:13Z</time>
      </trkpt>
      <trkpt lat="44.79586" lon="6.92464">
        <ele>1613.3</ele>
        <time>2024-12-08T13:09:30Z</time>
      </trkpt>
      <trkpt lat="44.79577" lon="6.92513">
        <ele>1596.3</ele>
        <time>2024-12-08T13:09:37Z</time>
      </trkpt>
      <trkpt lat="44.79575" lon="6.92564">
        <ele>1585.5</ele>
        <time>2024-12-08T13:09:44Z</time>
      </trkpt>
      <trkpt lat="44.79579" lon="6.92581">
        <ele>1584.8</ele>
        <time>2024-12-08T13:09:51Z</time>
      </trkpt>
      <trkpt lat="44.79579" lon="6.92583">
        <ele>1584.8</ele>
        <time>2024-12-08T13:09:52Z</time>
      </trkpt>
      <trkpt lat="44.79586" lon="6.92591">
        <ele>1585.2</ele>
        <time>2024-12-08T13:09:59Z</time>
      </trkpt>
      <trkpt lat="44.79594" lon="6.92602">
        <ele>1586</ele>
        <time>2024-12-08T13:10:09Z</time>
      </trkpt>
      <trkpt lat="44.79605" lon="6.92611">
        <ele>1586.8</ele>
        <time>2024-12-08T13:10:18Z</time>
      </trkpt>
      <trkpt lat="44.79614" lon="6.92619">
        <ele>1588.1</ele>
        <time>2024-12-08T13:10:27Z</time>
      </trkpt>
      <trkpt lat="44.79622" lon="6.92628">
        <ele>1589</ele>
        <time>2024-12-08T13:10:35Z</time>
      </trkpt>
      <trkpt lat="44.79631" lon="6.92636">
        <ele>1589.5</ele>
        <time>2024-12-08T13:10:44Z</time>
      </trkpt>
      <trkpt lat="44.79639" lon="6.92642">
        <ele>1589</ele>
        <time>2024-12-08T13:10:52Z</time>
      </trkpt>
      <trkpt lat="44.79645" lon="6.9265">
        <ele>1588.5</ele>
        <time>2024-12-08T13:11:00Z</time>
      </trkpt>
      <trkpt lat="44.7965" lon="6.92657">
        <ele>1589</ele>
        <time>2024-12-08T13:11:08Z</time>
      </trkpt>
      <trkpt lat="44.79669" lon="6.92645">
        <ele>1595.8</ele>
        <time>2024-12-08T13:11:18Z</time>
      </trkpt>
      <trkpt lat="44.79679" lon="6.92655">
        <ele>1595.5</ele>
        <time>2024-12-08T13:11:29Z</time>
      </trkpt>
      <trkpt lat="44.79684" lon="6.9266">
        <ele>1595.3</ele>
        <time>2024-12-08T13:11:37Z</time>
      </trkpt>
      <trkpt lat="44.79688" lon="6.92664">
        <ele>1594.5</ele>
        <time>2024-12-08T13:11:44Z</time>
      </trkpt>
      <trkpt lat="44.79695" lon="6.92671">
        <ele>1593.2</ele>
        <time>2024-12-08T13:11:52Z</time>
      </trkpt>
      <trkpt lat="44.79701" lon="6.92677">
        <ele>1592.8</ele>
        <time>2024-12-08T13:12:01Z</time>
      </trkpt>
      <trkpt lat="44.79707" lon="6.92683">
        <ele>1592.2</ele>
        <time>2024-12-08T13:12:10Z</time>
      </trkpt>
      <trkpt lat="44.79707" lon="6.92683">
        <ele>1592.2</ele>
        <time>2024-12-08T13:12:19Z</time>
      </trkpt>
      <trkpt lat="44.79707" lon="6.92683">
        <ele>1592.3</ele>
        <time>2024-12-08T13:12:26Z</time>
      </trkpt>
      <trkpt lat="44.79728" lon="6.92682">
        <ele>1595.2</ele>
        <time>2024-12-08T13:12:34Z</time>
      </trkpt>
      <trkpt lat="44.79726" lon="6.92701">
        <ele>1590.3</ele>
        <time>2024-12-08T13:12:43Z</time>
      </trkpt>
      <trkpt lat="44.79726" lon="6.92701">
        <ele>1590.3</ele>
        <time>2024-12-08T13:12:50Z</time>
      </trkpt>
      <trkpt lat="44.79726" lon="6.92701">
        <ele>1590.4</ele>
        <time>2024-12-08T13:12:58Z</time>
      </trkpt>
      <trkpt lat="44.79762" lon="6.92681">
        <ele>1602.8</ele>
        <time>2024-12-08T13:13:06Z</time>
      </trkpt>
      <trkpt lat="44.79772" lon="6.92678">
        <ele>1606.6</ele>
        <time>2024-12-08T13:13:16Z</time>
      </trkpt>
      <trkpt lat="44.7978" lon="6.92678">
        <ele>1609.2</ele>
        <time>2024-12-08T13:13:23Z</time>
      </trkpt>
      <trkpt lat="44.7979" lon="6.92678">
        <ele>1611.6</ele>
        <time>2024-12-08T13:13:32Z</time>
      </trkpt>
      <trkpt lat="44.79795" lon="6.92679">
        <ele>1613</ele>
        <time>2024-12-08T13:13:39Z</time>
      </trkpt>
      <trkpt lat="44.79804" lon="6.92679">
        <ele>1615.3</ele>
        <time>2024-12-08T13:13:48Z</time>
      </trkpt>
      <trkpt lat="44.79804" lon="6.92679">
        <ele>1615.3</ele>
        <time>2024-12-08T13:13:56Z</time>
      </trkpt>
      <trkpt lat="44.79809" lon="6.92671">
        <ele>1618</ele>
        <time>2024-12-08T13:14:04Z</time>
      </trkpt>
      <trkpt lat="44.79809" lon="6.92671">
        <ele>1618</ele>
        <time>2024-12-08T13:14:13Z</time>
      </trkpt>
      <trkpt lat="44.79799" lon="6.92663">
        <ele>1618.6</ele>
        <time>2024-12-08T13:14:21Z</time>
      </trkpt>
      <trkpt lat="44.79792" lon="6.92657">
        <ele>1619.1</ele>
        <time>2024-12-08T13:14:29Z</time>
      </trkpt>
      <trkpt lat="44.79783" lon="6.9265">
        <ele>1619.6</ele>
        <time>2024-12-08T13:14:39Z</time>
      </trkpt>
      <trkpt lat="44.79776" lon="6.92644">
        <ele>1620.1</ele>
        <time>2024-12-08T13:14:48Z</time>
      </trkpt>
      <trkpt lat="44.79769" lon="6.92639">
        <ele>1620.5</ele>
        <time>2024-12-08T13:14:57Z</time>
      </trkpt>
      <trkpt lat="44.7976" lon="6.92632">
        <ele>1621.3</ele>
        <time>2024-12-08T13:15:05Z</time>
      </trkpt>
      <trkpt lat="44.79755" lon="6.92627">
        <ele>1621.8</ele>
        <time>2024-12-08T13:15:12Z</time>
      </trkpt>
      <trkpt lat="44.7975" lon="6.92624">
        <ele>1622.2</ele>
        <time>2024-12-08T13:15:20Z</time>
      </trkpt>
      <trkpt lat="44.79744" lon="6.92619">
        <ele>1622.8</ele>
        <time>2024-12-08T13:15:27Z</time>
      </trkpt>
      <trkpt lat="44.79739" lon="6.92615">
        <ele>1623.3</ele>
        <time>2024-12-08T13:15:33Z</time>
      </trkpt>
      <trkpt lat="44.79738" lon="6.92613">
        <ele>1623.4</ele>
        <time>2024-12-08T13:15:39Z</time>
      </trkpt>
      <trkpt lat="44.79728" lon="6.92604">
        <ele>1624.6</ele>
        <time>2024-12-08T13:15:46Z</time>
      </trkpt>
      <trkpt lat="44.79726" lon="6.92603">
        <ele>1624.8</ele>
        <time>2024-12-08T13:15:50Z</time>
      </trkpt>
      <trkpt lat="44.79726" lon="6.92603">
        <ele>1624.8</ele>
        <time>2024-12-08T13:15:51Z</time>
      </trkpt>
      <trkpt lat="44.79725" lon="6.92602">
        <ele>1624.9</ele>
        <time>2024-12-08T13:15:52Z</time>
      </trkpt>
      <trkpt lat="44.79724" lon="6.92601">
        <ele>1625.1</ele>
        <time>2024-12-08T13:15:56Z</time>
      </trkpt>
      <trkpt lat="44.7972" lon="6.92597">
        <ele>1625.6</ele>
        <time>2024-12-08T13:16:01Z</time>
      </trkpt>
      <trkpt lat="44.79713" lon="6.9259">
        <ele>1626.7</ele>
        <time>2024-12-08T13:16:08Z</time>
      </trkpt>
      <trkpt lat="44.79708" lon="6.92586">
        <ele>1627.4</ele>
        <time>2024-12-08T13:16:15Z</time>
      </trkpt>
      <trkpt lat="44.79699" lon="6.92578">
        <ele>1628.8</ele>
        <time>2024-12-08T13:16:21Z</time>
      </trkpt>
      <trkpt lat="44.79695" lon="6.92574">
        <ele>1629.6</ele>
        <time>2024-12-08T13:16:29Z</time>
      </trkpt>
      <trkpt lat="44.79688" lon="6.92567">
        <ele>1630.7</ele>
        <time>2024-12-08T13:16:36Z</time>
      </trkpt>
      <trkpt lat="44.79681" lon="6.92557">
        <ele>1632</ele>
        <time>2024-12-08T13:16:44Z</time>
      </trkpt>
      <trkpt lat="44.79677" lon="6.92551">
        <ele>1632.7</ele>
        <time>2024-12-08T13:16:52Z</time>
      </trkpt>
      <trkpt lat="44.79672" lon="6.92543">
        <ele>1633.7</ele>
        <time>2024-12-08T13:16:59Z</time>
      </trkpt>
      <trkpt lat="44.79669" lon="6.92537">
        <ele>1634.4</ele>
        <time>2024-12-08T13:17:06Z</time>
      </trkpt>
      <trkpt lat="44.79666" lon="6.92531">
        <ele>1635</ele>
        <time>2024-12-08T13:17:12Z</time>
      </trkpt>
      <trkpt lat="44.79662" lon="6.92523">
        <ele>1636</ele>
        <time>2024-12-08T13:17:18Z</time>
      </trkpt>
      <trkpt lat="44.79659" lon="6.92518">
        <ele>1636.7</ele>
        <time>2024-12-08T13:17:24Z</time>
      </trkpt>
      <trkpt lat="44.79657" lon="6.92512">
        <ele>1637.3</ele>
        <time>2024-12-08T13:17:30Z</time>
      </trkpt>
      <trkpt lat="44.79653" lon="6.92505">
        <ele>1638.2</ele>
        <time>2024-12-08T13:17:37Z</time>
      </trkpt>
      <trkpt lat="44.79648" lon="6.92495">
        <ele>1639.5</ele>
        <time>2024-12-08T13:17:45Z</time>
      </trkpt>
      <trkpt lat="44.79644" lon="6.92489">
        <ele>1640.2</ele>
        <time>2024-12-08T13:17:52Z</time>
      </trkpt>
      <trkpt lat="44.7964" lon="6.9248">
        <ele>1641.3</ele>
        <time>2024-12-08T13:18:00Z</time>
      </trkpt>
      <trkpt lat="44.79636" lon="6.92473">
        <ele>1642</ele>
        <time>2024-12-08T13:18:07Z</time>
      </trkpt>
      <trkpt lat="44.79632" lon="6.92466">
        <ele>1642.7</ele>
        <time>2024-12-08T13:18:14Z</time>
      </trkpt>
      <trkpt lat="44.7963" lon="6.92461">
        <ele>1643.2</ele>
        <time>2024-12-08T13:18:20Z</time>
      </trkpt>
      <trkpt lat="44.79628" lon="6.92457">
        <ele>1643.5</ele>
        <time>2024-12-08T13:18:28Z</time>
      </trkpt>
      <trkpt lat="44.79624" lon="6.9245">
        <ele>1644.1</ele>
        <time>2024-12-08T13:18:36Z</time>
      </trkpt>
      <trkpt lat="44.79624" lon="6.9245">
        <ele>1644.1</ele>
        <time>2024-12-08T13:18:53Z</time>
      </trkpt>
      <trkpt lat="44.79624" lon="6.9245">
        <ele>1644.1</ele>
        <time>2024-12-08T13:19:06Z</time>
      </trkpt>
      <trkpt lat="44.79624" lon="6.9245">
        <ele>1644.1</ele>
        <time>2024-12-08T13:19:12Z</time>
      </trkpt>
      <trkpt lat="44.79624" lon="6.9245">
        <ele>1644.1</ele>
        <time>2024-12-08T13:19:27Z</time>
      </trkpt>
      <trkpt lat="44.79624" lon="6.9245">
        <ele>1644.1</ele>
        <time>2024-12-08T13:19:39Z</time>
      </trkpt>
      <trkpt lat="44.7963" lon="6.92462">
        <ele>1644.8</ele>
        <time>2024-12-08T13:19:46Z</time>
      </trkpt>
      <trkpt lat="44.79599" lon="6.92517">
        <ele>1614.7</ele>
        <time>2024-12-08T13:19:52Z</time>
      </trkpt>
      <trkpt lat="44.79599" lon="6.92516">
        <ele>1614.8</ele>
        <time>2024-12-08T13:19:58Z</time>
      </trkpt>
      <trkpt lat="44.79597" lon="6.92508">
        <ele>1614.9</ele>
        <time>2024-12-08T13:20:05Z</time>
      </trkpt>
      <trkpt lat="44.79597" lon="6.92508">
        <ele>1614.9</ele>
        <time>2024-12-08T13:20:12Z</time>
      </trkpt>
      <trkpt lat="44.79596" lon="6.92502">
        <ele>1615</ele>
        <time>2024-12-08T13:20:17Z</time>
      </trkpt>
      <trkpt lat="44.79593" lon="6.92493">
        <ele>1615.3</ele>
        <time>2024-12-08T13:20:24Z</time>
      </trkpt>
      <trkpt lat="44.79593" lon="6.92491">
        <ele>1615.3</ele>
        <time>2024-12-08T13:20:30Z</time>
      </trkpt>
      <trkpt lat="44.79589" lon="6.92482">
        <ele>1616</ele>
        <time>2024-12-08T13:20:35Z</time>
      </trkpt>
      <trkpt lat="44.79586" lon="6.92477">
        <ele>1616.6</ele>
        <time>2024-12-08T13:20:42Z</time>
      </trkpt>
      <trkpt lat="44.79583" lon="6.92472">
        <ele>1617.4</ele>
        <time>2024-12-08T13:20:49Z</time>
      </trkpt>
      <trkpt lat="44.79583" lon="6.92472">
        <ele>1617.4</ele>
        <time>2024-12-08T13:20:56Z</time>
      </trkpt>
      <trkpt lat="44.79576" lon="6.92461">
        <ele>1618.8</ele>
        <time>2024-12-08T13:21:04Z</time>
      </trkpt>
      <trkpt lat="44.79573" lon="6.92456">
        <ele>1619.3</ele>
        <time>2024-12-08T13:21:09Z</time>
      </trkpt>
      <trkpt lat="44.79573" lon="6.92456">
        <ele>1619.3</ele>
        <time>2024-12-08T13:21:17Z</time>
      </trkpt>
      <trkpt lat="44.79565" lon="6.92442">
        <ele>1619.6</ele>
        <time>2024-12-08T13:21:24Z</time>
      </trkpt>
      <trkpt lat="44.79565" lon="6.92442">
        <ele>1619.6</ele>
        <time>2024-12-08T13:21:33Z</time>
      </trkpt>
      <trkpt lat="44.79565" lon="6.92442">
        <ele>1619.6</ele>
        <time>2024-12-08T13:21:41Z</time>
      </trkpt>
      <trkpt lat="44.79565" lon="6.92442">
        <ele>1619.6</ele>
        <time>2024-12-08T13:21:50Z</time>
      </trkpt>
      <trkpt lat="44.79565" lon="6.92442">
        <ele>1619.6</ele>
        <time>2024-12-08T13:21:58Z</time>
      </trkpt>
      <trkpt lat="44.79555" lon="6.92426">
        <ele>1617.3</ele>
        <time>2024-12-08T13:22:04Z</time>
      </trkpt>
      <trkpt lat="44.79555" lon="6.92426">
        <ele>1617.3</ele>
        <time>2024-12-08T13:22:11Z</time>
      </trkpt>
      <trkpt lat="44.79555" lon="6.92426">
        <ele>1617.3</ele>
        <time>2024-12-08T13:22:18Z</time>
      </trkpt>
      <trkpt lat="44.79555" lon="6.92426">
        <ele>1617.3</ele>
        <time>2024-12-08T13:22:25Z</time>
      </trkpt>
      <trkpt lat="44.79555" lon="6.92426">
        <ele>1617.3</ele>
        <time>2024-12-08T13:22:31Z</time>
      </trkpt>
      <trkpt lat="44.79541" lon="6.92393">
        <ele>1623.8</ele>
        <time>2024-12-08T13:22:38Z</time>
      </trkpt>
      <trkpt lat="44.79539" lon="6.9239">
        <ele>1624.5</ele>
        <time>2024-12-08T13:22:44Z</time>
      </trkpt>
      <trkpt lat="44.79536" lon="6.92383">
        <ele>1625.8</ele>
        <time>2024-12-08T13:22:50Z</time>
      </trkpt>
      <trkpt lat="44.79534" lon="6.92377">
        <ele>1626.9</ele>
        <time>2024-12-08T13:22:58Z</time>
      </trkpt>
      <trkpt lat="44.79533" lon="6.92372">
        <ele>1627.6</ele>
        <time>2024-12-08T13:23:05Z</time>
      </trkpt>
      <trkpt lat="44.79534" lon="6.92368">
        <ele>1628.3</ele>
        <time>2024-12-08T13:23:13Z</time>
      </trkpt>
      <trkpt lat="44.79533" lon="6.92362">
        <ele>1629.1</ele>
        <time>2024-12-08T13:23:21Z</time>
      </trkpt>
      <trkpt lat="44.79532" lon="6.92357">
        <ele>1629.9</ele>
        <time>2024-12-08T13:23:28Z</time>
      </trkpt>
      <trkpt lat="44.79533" lon="6.92351">
        <ele>1630.7</ele>
        <time>2024-12-08T13:23:34Z</time>
      </trkpt>
      <trkpt lat="44.79533" lon="6.92346">
        <ele>1631.4</ele>
        <time>2024-12-08T13:23:39Z</time>
      </trkpt>
      <trkpt lat="44.79533" lon="6.92339">
        <ele>1632.2</ele>
        <time>2024-12-08T13:23:45Z</time>
      </trkpt>
      <trkpt lat="44.79533" lon="6.92334">
        <ele>1632.9</ele>
        <time>2024-12-08T13:23:51Z</time>
      </trkpt>
      <trkpt lat="44.79534" lon="6.92329">
        <ele>1633.5</ele>
        <time>2024-12-08T13:23:56Z</time>
      </trkpt>
      <trkpt lat="44.79534" lon="6.92321">
        <ele>1634.4</ele>
        <time>2024-12-08T13:24:04Z</time>
      </trkpt>
      <trkpt lat="44.79533" lon="6.92315">
        <ele>1635</ele>
        <time>2024-12-08T13:24:10Z</time>
      </trkpt>
      <trkpt lat="44.79533" lon="6.92312">
        <ele>1635.3</ele>
        <time>2024-12-08T13:24:15Z</time>
      </trkpt>
      <trkpt lat="44.79533" lon="6.92312">
        <ele>1635.3</ele>
        <time>2024-12-08T13:24:24Z</time>
      </trkpt>
      <trkpt lat="44.79534" lon="6.9231">
        <ele>1635.5</ele>
        <time>2024-12-08T13:24:39Z</time>
      </trkpt>
      <trkpt lat="44.79534" lon="6.92304">
        <ele>1636</ele>
        <time>2024-12-08T13:24:44Z</time>
      </trkpt>
      <trkpt lat="44.79535" lon="6.92297">
        <ele>1636.5</ele>
        <time>2024-12-08T13:24:49Z</time>
      </trkpt>
      <trkpt lat="44.79534" lon="6.92294">
        <ele>1636.7</ele>
        <time>2024-12-08T13:24:50Z</time>
      </trkpt>
      <trkpt lat="44.79533" lon="6.92294">
        <ele>1636.7</ele>
        <time>2024-12-08T13:24:54Z</time>
      </trkpt>
      <trkpt lat="44.79533" lon="6.92293">
        <ele>1636.8</ele>
        <time>2024-12-08T13:25:08Z</time>
      </trkpt>
      <trkpt lat="44.79533" lon="6.92283">
        <ele>1637.3</ele>
        <time>2024-12-08T13:25:15Z</time>
      </trkpt>
      <trkpt lat="44.79533" lon="6.92282">
        <ele>1637.4</ele>
        <time>2024-12-08T13:25:18Z</time>
      </trkpt>
      <trkpt lat="44.79533" lon="6.92282">
        <ele>1637.4</ele>
        <time>2024-12-08T13:25:23Z</time>
      </trkpt>
      <trkpt lat="44.79533" lon="6.92281">
        <ele>1637.5</ele>
        <time>2024-12-08T13:25:26Z</time>
      </trkpt>
      <trkpt lat="44.79532" lon="6.92271">
        <ele>1638</ele>
        <time>2024-12-08T13:25:32Z</time>
      </trkpt>
      <trkpt lat="44.79534" lon="6.92261">
        <ele>1638.6</ele>
        <time>2024-12-08T13:25:40Z</time>
      </trkpt>
      <trkpt lat="44.79534" lon="6.92255">
        <ele>1638.9</ele>
        <time>2024-12-08T13:25:46Z</time>
      </trkpt>
      <trkpt lat="44.79534" lon="6.92251">
        <ele>1639.2</ele>
        <time>2024-12-08T13:25:49Z</time>
      </trkpt>
      <trkpt lat="44.79533" lon="6.92244">
        <ele>1639.6</ele>
        <time>2024-12-08T13:25:55Z</time>
      </trkpt>
      <trkpt lat="44.79534" lon="6.92234">
        <ele>1640.3</ele>
        <time>2024-12-08T13:26:03Z</time>
      </trkpt>
      <trkpt lat="44.79535" lon="6.92226">
        <ele>1640.7</ele>
        <time>2024-12-08T13:26:10Z</time>
      </trkpt>
      <trkpt lat="44.79535" lon="6.92225">
        <ele>1640.8</ele>
        <time>2024-12-08T13:26:17Z</time>
      </trkpt>
      <trkpt lat="44.79535" lon="6.92221">
        <ele>1641</ele>
        <time>2024-12-08T13:26:24Z</time>
      </trkpt>
      <trkpt lat="44.79536" lon="6.92216">
        <ele>1641.2</ele>
        <time>2024-12-08T13:26:26Z</time>
      </trkpt>
      <trkpt lat="44.79537" lon="6.92201">
        <ele>1641.9</ele>
        <time>2024-12-08T13:26:32Z</time>
      </trkpt>
      <trkpt lat="44.79537" lon="6.92187">
        <ele>1642.6</ele>
        <time>2024-12-08T13:26:40Z</time>
      </trkpt>
      <trkpt lat="44.79537" lon="6.92178">
        <ele>1643</ele>
        <time>2024-12-08T13:26:47Z</time>
      </trkpt>
      <trkpt lat="44.79536" lon="6.92177">
        <ele>1643.1</ele>
        <time>2024-12-08T13:26:54Z</time>
      </trkpt>
      <trkpt lat="44.79539" lon="6.92173">
        <ele>1643.2</ele>
        <time>2024-12-08T13:27:02Z</time>
      </trkpt>
      <trkpt lat="44.79541" lon="6.92172">
        <ele>1643.2</ele>
        <time>2024-12-08T13:27:09Z</time>
      </trkpt>
      <trkpt lat="44.79541" lon="6.92177">
        <ele>1643.5</ele>
        <time>2024-12-08T13:27:16Z</time>
      </trkpt>
      <trkpt lat="44.79543" lon="6.92182">
        <ele>1645.2</ele>
        <time>2024-12-08T13:27:22Z</time>
      </trkpt>
      <trkpt lat="44.79547" lon="6.92189">
        <ele>1646.8</ele>
        <time>2024-12-08T13:27:28Z</time>
      </trkpt>
      <trkpt lat="44.79547" lon="6.92191">
        <ele>1647</ele>
        <time>2024-12-08T13:27:29Z</time>
      </trkpt>
      <trkpt lat="44.7955" lon="6.92195">
        <ele>1648.6</ele>
        <time>2024-12-08T13:27:33Z</time>
      </trkpt>
      <trkpt lat="44.79552" lon="6.92203">
        <ele>1650.3</ele>
        <time>2024-12-08T13:27:41Z</time>
      </trkpt>
      <trkpt lat="44.79553" lon="6.92206">
        <ele>1650.5</ele>
        <time>2024-12-08T13:27:47Z</time>
      </trkpt>
      <trkpt lat="44.79554" lon="6.92213">
        <ele>1650.6</ele>
        <time>2024-12-08T13:27:54Z</time>
      </trkpt>
      <trkpt lat="44.79556" lon="6.92221">
        <ele>1652</ele>
        <time>2024-12-08T13:28:02Z</time>
      </trkpt>
      <trkpt lat="44.79556" lon="6.9223">
        <ele>1651.9</ele>
        <time>2024-12-08T13:28:09Z</time>
      </trkpt>
      <trkpt lat="44.79559" lon="6.92234">
        <ele>1653.4</ele>
        <time>2024-12-08T13:28:16Z</time>
      </trkpt>
      <trkpt lat="44.79563" lon="6.92241">
        <ele>1654.8</ele>
        <time>2024-12-08T13:28:24Z</time>
      </trkpt>
      <trkpt lat="44.79567" lon="6.92242">
        <ele>1657.5</ele>
        <time>2024-12-08T13:28:30Z</time>
      </trkpt>
      <trkpt lat="44.79568" lon="6.92246">
        <ele>1657.3</ele>
        <time>2024-12-08T13:28:36Z</time>
      </trkpt>
      <trkpt lat="44.79571" lon="6.92252">
        <ele>1658.4</ele>
        <time>2024-12-08T13:28:43Z</time>
      </trkpt>
      <trkpt lat="44.7957" lon="6.92261">
        <ele>1658.2</ele>
        <time>2024-12-08T13:28:50Z</time>
      </trkpt>
      <trkpt lat="44.79585" lon="6.92267">
        <ele>1659.1</ele>
        <time>2024-12-08T13:28:53Z</time>
      </trkpt>
      <trkpt lat="44.79576" lon="6.92263">
        <ele>1659.7</ele>
        <time>2024-12-08T13:28:55Z</time>
      </trkpt>
      <trkpt lat="44.79579" lon="6.92265">
        <ele>1659.9</ele>
        <time>2024-12-08T13:28:58Z</time>
      </trkpt>
      <trkpt lat="44.7958" lon="6.92265">
        <ele>1660</ele>
        <time>2024-12-08T13:29:01Z</time>
      </trkpt>
      <trkpt lat="44.79585" lon="6.92267">
        <ele>1660.3</ele>
        <time>2024-12-08T13:29:07Z</time>
      </trkpt>
      <trkpt lat="44.79585" lon="6.92267">
        <ele>1660.3</ele>
        <time>2024-12-08T13:29:15Z</time>
      </trkpt>
      <trkpt lat="44.79585" lon="6.92267">
        <ele>1660.3</ele>
        <time>2024-12-08T13:29:20Z</time>
      </trkpt>
      <trkpt lat="44.79585" lon="6.92267">
        <ele>1660.3</ele>
        <time>2024-12-08T13:29:27Z</time>
      </trkpt>
      <trkpt lat="44.79585" lon="6.92267">
        <ele>1660.3</ele>
        <time>2024-12-08T13:29:32Z</time>
      </trkpt>
      <trkpt lat="44.79585" lon="6.92267">
        <ele>1660.3</ele>
        <time>2024-12-08T13:29:38Z</time>
      </trkpt>
      <trkpt lat="44.79585" lon="6.92267">
        <ele>1660.3</ele>
        <time>2024-12-08T13:29:45Z</time>
      </trkpt>
      <trkpt lat="44.79607" lon="6.92234">
        <ele>1666.5</ele>
        <time>2024-12-08T13:29:51Z</time>
      </trkpt>
      <trkpt lat="44.79609" lon="6.9223">
        <ele>1667.3</ele>
        <time>2024-12-08T13:29:58Z</time>
      </trkpt>
      <trkpt lat="44.79613" lon="6.92224">
        <ele>1668.5</ele>
        <time>2024-12-08T13:30:04Z</time>
      </trkpt>
      <trkpt lat="44.79614" lon="6.92217">
        <ele>1669.6</ele>
        <time>2024-12-08T13:30:11Z</time>
      </trkpt>
      <trkpt lat="44.79617" lon="6.9221">
        <ele>1670.8</ele>
        <time>2024-12-08T13:30:17Z</time>
      </trkpt>
      <trkpt lat="44.79618" lon="6.92204">
        <ele>1671.7</ele>
        <time>2024-12-08T13:30:24Z</time>
      </trkpt>
      <trkpt lat="44.79618" lon="6.922">
        <ele>1672.3</ele>
        <time>2024-12-08T13:30:30Z</time>
      </trkpt>
      <trkpt lat="44.7962" lon="6.92197">
        <ele>1673.1</ele>
        <time>2024-12-08T13:30:36Z</time>
      </trkpt>
      <trkpt lat="44.7962" lon="6.92193">
        <ele>1673.7</ele>
        <time>2024-12-08T13:30:42Z</time>
      </trkpt>
      <trkpt lat="44.79618" lon="6.92187">
        <ele>1674.9</ele>
        <time>2024-12-08T13:30:48Z</time>
      </trkpt>
      <trkpt lat="44.79622" lon="6.92184">
        <ele>1676</ele>
        <time>2024-12-08T13:30:51Z</time>
      </trkpt>
      <trkpt lat="44.79624" lon="6.92184">
        <ele>1676.5</ele>
        <time>2024-12-08T13:30:53Z</time>
      </trkpt>
      <trkpt lat="44.79626" lon="6.92186">
        <ele>1677.2</ele>
        <time>2024-12-08T13:30:57Z</time>
      </trkpt>
      <trkpt lat="44.79627" lon="6.92192">
        <ele>1678.2</ele>
        <time>2024-12-08T13:31:02Z</time>
      </trkpt>
      <trkpt lat="44.79629" lon="6.92196">
        <ele>1679.3</ele>
        <time>2024-12-08T13:31:07Z</time>
      </trkpt>
      <trkpt lat="44.79628" lon="6.92202">
        <ele>1680.6</ele>
        <time>2024-12-08T13:31:11Z</time>
      </trkpt>
      <trkpt lat="44.79629" lon="6.92202">
        <ele>1680.6</ele>
        <time>2024-12-08T13:31:12Z</time>
      </trkpt>
      <trkpt lat="44.79628" lon="6.92205">
        <ele>1681.4</ele>
        <time>2024-12-08T13:31:16Z</time>
      </trkpt>
      <trkpt lat="44.7963" lon="6.92208">
        <ele>1682.3</ele>
        <time>2024-12-08T13:31:20Z</time>
      </trkpt>
      <trkpt lat="44.79632" lon="6.92214">
        <ele>1683.6</ele>
        <time>2024-12-08T13:31:26Z</time>
      </trkpt>
      <trkpt lat="44.79634" lon="6.92218">
        <ele>1684.6</ele>
        <time>2024-12-08T13:31:31Z</time>
      </trkpt>
      <trkpt lat="44.79635" lon="6.92217">
        <ele>1685.1</ele>
        <time>2024-12-08T13:31:37Z</time>
      </trkpt>
      <trkpt lat="44.79638" lon="6.92213">
        <ele>1686.4</ele>
        <time>2024-12-08T13:31:42Z</time>
      </trkpt>
      <trkpt lat="44.79642" lon="6.92205">
        <ele>1688.3</ele>
        <time>2024-12-08T13:31:51Z</time>
      </trkpt>
      <trkpt lat="44.79643" lon="6.92201">
        <ele>1689.3</ele>
        <time>2024-12-08T13:31:58Z</time>
      </trkpt>
      <trkpt lat="44.79643" lon="6.92196">
        <ele>1690.4</ele>
        <time>2024-12-08T13:32:03Z</time>
      </trkpt>
      <trkpt lat="44.79645" lon="6.92193">
        <ele>1691.3</ele>
        <time>2024-12-08T13:32:08Z</time>
      </trkpt>
      <trkpt lat="44.79647" lon="6.92198">
        <ele>1692.3</ele>
        <time>2024-12-08T13:32:14Z</time>
      </trkpt>
      <trkpt lat="44.79649" lon="6.922">
        <ele>1693</ele>
        <time>2024-12-08T13:32:18Z</time>
      </trkpt>
      <trkpt lat="44.79651" lon="6.922">
        <ele>1693.7</ele>
        <time>2024-12-08T13:32:21Z</time>
      </trkpt>
      <trkpt lat="44.79652" lon="6.92199">
        <ele>1694.1</ele>
        <time>2024-12-08T13:32:22Z</time>
      </trkpt>
      <trkpt lat="44.79653" lon="6.92195">
        <ele>1694.9</ele>
        <time>2024-12-08T13:32:25Z</time>
      </trkpt>
      <trkpt lat="44.79653" lon="6.92192">
        <ele>1695.6</ele>
        <time>2024-12-08T13:32:32Z</time>
      </trkpt>
      <trkpt lat="44.79651" lon="6.92188">
        <ele>1696.7</ele>
        <time>2024-12-08T13:32:39Z</time>
      </trkpt>
      <trkpt lat="44.79652" lon="6.92183">
        <ele>1697.7</ele>
        <time>2024-12-08T13:32:44Z</time>
      </trkpt>
      <trkpt lat="44.79652" lon="6.92175">
        <ele>1699.3</ele>
        <time>2024-12-08T13:32:51Z</time>
      </trkpt>
      <trkpt lat="44.79652" lon="6.92168">
        <ele>1700.7</ele>
        <time>2024-12-08T13:32:58Z</time>
      </trkpt>
      <trkpt lat="44.79652" lon="6.92163">
        <ele>1701.7</ele>
        <time>2024-12-08T13:33:04Z</time>
      </trkpt>
      <trkpt lat="44.79654" lon="6.92158">
        <ele>1702.8</ele>
        <time>2024-12-08T13:33:11Z</time>
      </trkpt>
      <trkpt lat="44.79657" lon="6.92158">
        <ele>1703.4</ele>
        <time>2024-12-08T13:33:15Z</time>
      </trkpt>
      <trkpt lat="44.79657" lon="6.92162">
        <ele>1704</ele>
        <time>2024-12-08T13:33:20Z</time>
      </trkpt>
      <trkpt lat="44.79658" lon="6.92165">
        <ele>1704.6</ele>
        <time>2024-12-08T13:33:25Z</time>
      </trkpt>
      <trkpt lat="44.79661" lon="6.92164">
        <ele>1705.3</ele>
        <time>2024-12-08T13:33:30Z</time>
      </trkpt>
      <trkpt lat="44.79662" lon="6.92159">
        <ele>1706.1</ele>
        <time>2024-12-08T13:33:35Z</time>
      </trkpt>
      <trkpt lat="44.79663" lon="6.92152">
        <ele>1707.3</ele>
        <time>2024-12-08T13:33:42Z</time>
      </trkpt>
      <trkpt lat="44.79665" lon="6.92143">
        <ele>1708.9</ele>
        <time>2024-12-08T13:33:49Z</time>
      </trkpt>
      <trkpt lat="44.79667" lon="6.92139">
        <ele>1709.8</ele>
        <time>2024-12-08T13:33:55Z</time>
      </trkpt>
      <trkpt lat="44.79671" lon="6.92144">
        <ele>1711</ele>
        <time>2024-12-08T13:34:02Z</time>
      </trkpt>
      <trkpt lat="44.79672" lon="6.92151">
        <ele>1712.3</ele>
        <time>2024-12-08T13:34:09Z</time>
      </trkpt>
      <trkpt lat="44.79674" lon="6.92151">
        <ele>1712.7</ele>
        <time>2024-12-08T13:34:16Z</time>
      </trkpt>
      <trkpt lat="44.79676" lon="6.92145">
        <ele>1714</ele>
        <time>2024-12-08T13:34:21Z</time>
      </trkpt>
      <trkpt lat="44.79678" lon="6.92141">
        <ele>1714.8</ele>
        <time>2024-12-08T13:34:27Z</time>
      </trkpt>
      <trkpt lat="44.79681" lon="6.9214">
        <ele>1715.7</ele>
        <time>2024-12-08T13:34:33Z</time>
      </trkpt>
      <trkpt lat="44.79683" lon="6.92143">
        <ele>1716.5</ele>
        <time>2024-12-08T13:34:39Z</time>
      </trkpt>
      <trkpt lat="44.79685" lon="6.92148">
        <ele>1717.7</ele>
        <time>2024-12-08T13:34:46Z</time>
      </trkpt>
      <trkpt lat="44.79686" lon="6.92144">
        <ele>1718.7</ele>
        <time>2024-12-08T13:34:51Z</time>
      </trkpt>
      <trkpt lat="44.79688" lon="6.92138">
        <ele>1720</ele>
        <time>2024-12-08T13:34:59Z</time>
      </trkpt>
      <trkpt lat="44.79691" lon="6.92136">
        <ele>1721.1</ele>
        <time>2024-12-08T13:35:04Z</time>
      </trkpt>
      <trkpt lat="44.79695" lon="6.92135">
        <ele>1722.4</ele>
        <time>2024-12-08T13:35:11Z</time>
      </trkpt>
      <trkpt lat="44.79696" lon="6.92135">
        <ele>1722.8</ele>
        <time>2024-12-08T13:35:17Z</time>
      </trkpt>
      <trkpt lat="44.79695" lon="6.92134">
        <ele>1723.3</ele>
        <time>2024-12-08T13:35:23Z</time>
      </trkpt>
      <trkpt lat="44.79696" lon="6.92132">
        <ele>1723.8</ele>
        <time>2024-12-08T13:35:28Z</time>
      </trkpt>
      <trkpt lat="44.79698" lon="6.92132">
        <ele>1724.3</ele>
        <time>2024-12-08T13:35:33Z</time>
      </trkpt>
      <trkpt lat="44.79699" lon="6.92132">
        <ele>1724.6</ele>
        <time>2024-12-08T13:35:38Z</time>
      </trkpt>
      <trkpt lat="44.79699" lon="6.92131">
        <ele>1724.8</ele>
        <time>2024-12-08T13:35:43Z</time>
      </trkpt>
      <trkpt lat="44.79699" lon="6.92131">
        <ele>1724.8</ele>
        <time>2024-12-08T13:35:50Z</time>
      </trkpt>
      <trkpt lat="44.79698" lon="6.92131">
        <ele>1725</ele>
        <time>2024-12-08T13:35:55Z</time>
      </trkpt>
      <trkpt lat="44.79699" lon="6.92133">
        <ele>1725.4</ele>
        <time>2024-12-08T13:36:01Z</time>
      </trkpt>
      <trkpt lat="44.79698" lon="6.92135">
        <ele>1725.9</ele>
        <time>2024-12-08T13:36:06Z</time>
      </trkpt>
      <trkpt lat="44.79699" lon="6.92138">
        <ele>1726.6</ele>
        <time>2024-12-08T13:36:10Z</time>
      </trkpt>
      <trkpt lat="44.79699" lon="6.92144">
        <ele>1727.6</ele>
        <time>2024-12-08T13:36:16Z</time>
      </trkpt>
      <trkpt lat="44.79699" lon="6.92148">
        <ele>1728.2</ele>
        <time>2024-12-08T13:36:20Z</time>
      </trkpt>
      <trkpt lat="44.79701" lon="6.92153">
        <ele>1729</ele>
        <time>2024-12-08T13:36:25Z</time>
      </trkpt>
      <trkpt lat="44.79703" lon="6.92154">
        <ele>1729.4</ele>
        <time>2024-12-08T13:36:29Z</time>
      </trkpt>
      <trkpt lat="44.79703" lon="6.92156">
        <ele>1729.6</ele>
        <time>2024-12-08T13:36:35Z</time>
      </trkpt>
      <trkpt lat="44.79704" lon="6.92155">
        <ele>1729.7</ele>
        <time>2024-12-08T13:36:42Z</time>
      </trkpt>
      <trkpt lat="44.79704" lon="6.92155">
        <ele>1729.7</ele>
        <time>2024-12-08T13:36:49Z</time>
      </trkpt>
      <trkpt lat="44.79704" lon="6.92155">
        <ele>1729.7</ele>
        <time>2024-12-08T13:37:01Z</time>
      </trkpt>
      <trkpt lat="44.79704" lon="6.92155">
        <ele>1729.7</ele>
        <time>2024-12-08T13:37:02Z</time>
      </trkpt>
      <trkpt lat="44.79705" lon="6.92147">
        <ele>1730.6</ele>
        <time>2024-12-08T13:37:09Z</time>
      </trkpt>
      <trkpt lat="44.79706" lon="6.92142">
        <ele>1731.2</ele>
        <time>2024-12-08T13:37:15Z</time>
      </trkpt>
      <trkpt lat="44.79709" lon="6.92135">
        <ele>1732.2</ele>
        <time>2024-12-08T13:37:22Z</time>
      </trkpt>
      <trkpt lat="44.79712" lon="6.9213">
        <ele>1733.2</ele>
        <time>2024-12-08T13:37:28Z</time>
      </trkpt>
      <trkpt lat="44.79714" lon="6.92126">
        <ele>1733.9</ele>
        <time>2024-12-08T13:37:34Z</time>
      </trkpt>
      <trkpt lat="44.79718" lon="6.92119">
        <ele>1735.2</ele>
        <time>2024-12-08T13:37:41Z</time>
      </trkpt>
      <trkpt lat="44.7972" lon="6.92116">
        <ele>1735.7</ele>
        <time>2024-12-08T13:37:46Z</time>
      </trkpt>
      <trkpt lat="44.79722" lon="6.92117">
        <ele>1736.3</ele>
        <time>2024-12-08T13:37:51Z</time>
      </trkpt>
      <trkpt lat="44.79722" lon="6.92126">
        <ele>1737.7</ele>
        <time>2024-12-08T13:37:58Z</time>
      </trkpt>
      <trkpt lat="44.79721" lon="6.92128">
        <ele>1738</ele>
        <time>2024-12-08T13:37:59Z</time>
      </trkpt>
      <trkpt lat="44.79722" lon="6.92132">
        <ele>1738.8</ele>
        <time>2024-12-08T13:38:04Z</time>
      </trkpt>
      <trkpt lat="44.79722" lon="6.92138">
        <ele>1739.9</ele>
        <time>2024-12-08T13:38:11Z</time>
      </trkpt>
      <trkpt lat="44.79725" lon="6.92136">
        <ele>1740.7</ele>
        <time>2024-12-08T13:38:16Z</time>
      </trkpt>
      <trkpt lat="44.79727" lon="6.92129">
        <ele>1741.8</ele>
        <time>2024-12-08T13:38:22Z</time>
      </trkpt>
      <trkpt lat="44.79728" lon="6.92134">
        <ele>1742.6</ele>
        <time>2024-12-08T13:38:27Z</time>
      </trkpt>
      <trkpt lat="44.79732" lon="6.92136">
        <ele>1743.3</ele>
        <time>2024-12-08T13:38:32Z</time>
      </trkpt>
      <trkpt lat="44.79734" lon="6.92133">
        <ele>1743.9</ele>
        <time>2024-12-08T13:38:38Z</time>
      </trkpt>
      <trkpt lat="44.79735" lon="6.92131">
        <ele>1744.1</ele>
        <time>2024-12-08T13:38:41Z</time>
      </trkpt>
      <trkpt lat="44.79736" lon="6.92127">
        <ele>1744.7</ele>
        <time>2024-12-08T13:38:47Z</time>
      </trkpt>
      <trkpt lat="44.7974" lon="6.92122">
        <ele>1745.5</ele>
        <time>2024-12-08T13:38:54Z</time>
      </trkpt>
      <trkpt lat="44.79742" lon="6.92119">
        <ele>1746</ele>
        <time>2024-12-08T13:38:59Z</time>
      </trkpt>
      <trkpt lat="44.79744" lon="6.92114">
        <ele>1746.7</ele>
        <time>2024-12-08T13:39:03Z</time>
      </trkpt>
      <trkpt lat="44.79745" lon="6.92112">
        <ele>1746.9</ele>
        <time>2024-12-08T13:39:04Z</time>
      </trkpt>
      <trkpt lat="44.79748" lon="6.9211">
        <ele>1747.4</ele>
        <time>2024-12-08T13:39:08Z</time>
      </trkpt>
      <trkpt lat="44.79751" lon="6.92105">
        <ele>1748.2</ele>
        <time>2024-12-08T13:39:15Z</time>
      </trkpt>
      <trkpt lat="44.79753" lon="6.92102">
        <ele>1748.8</ele>
        <time>2024-12-08T13:39:20Z</time>
      </trkpt>
      <trkpt lat="44.79756" lon="6.92099">
        <ele>1749.4</ele>
        <time>2024-12-08T13:39:24Z</time>
      </trkpt>
      <trkpt lat="44.79759" lon="6.92093">
        <ele>1750.5</ele>
        <time>2024-12-08T13:39:30Z</time>
      </trkpt>
      <trkpt lat="44.79763" lon="6.92094">
        <ele>1751.3</ele>
        <time>2024-12-08T13:39:36Z</time>
      </trkpt>
      <trkpt lat="44.79768" lon="6.92091">
        <ele>1752.7</ele>
        <time>2024-12-08T13:39:42Z</time>
      </trkpt>
      <trkpt lat="44.7977" lon="6.9209">
        <ele>1753.2</ele>
        <time>2024-12-08T13:39:47Z</time>
      </trkpt>
      <trkpt lat="44.79773" lon="6.92087">
        <ele>1754.1</ele>
        <time>2024-12-08T13:39:53Z</time>
      </trkpt>
      <trkpt lat="44.79777" lon="6.92086">
        <ele>1754.9</ele>
        <time>2024-12-08T13:39:59Z</time>
      </trkpt>
      <trkpt lat="44.7978" lon="6.92082">
        <ele>1756</ele>
        <time>2024-12-08T13:40:05Z</time>
      </trkpt>
      <trkpt lat="44.79783" lon="6.92079">
        <ele>1756.8</ele>
        <time>2024-12-08T13:40:10Z</time>
      </trkpt>
      <trkpt lat="44.79789" lon="6.92076">
        <ele>1758.3</ele>
        <time>2024-12-08T13:40:17Z</time>
      </trkpt>
      <trkpt lat="44.79793" lon="6.9207">
        <ele>1759.7</ele>
        <time>2024-12-08T13:40:25Z</time>
      </trkpt>
      <trkpt lat="44.79796" lon="6.92068">
        <ele>1760.6</ele>
        <time>2024-12-08T13:40:32Z</time>
      </trkpt>
      <trkpt lat="44.79798" lon="6.92071">
        <ele>1761.4</ele>
        <time>2024-12-08T13:40:38Z</time>
      </trkpt>
      <trkpt lat="44.79801" lon="6.92072">
        <ele>1762.2</ele>
        <time>2024-12-08T13:40:42Z</time>
      </trkpt>
      <trkpt lat="44.79804" lon="6.92069">
        <ele>1763.2</ele>
        <time>2024-12-08T13:40:48Z</time>
      </trkpt>
      <trkpt lat="44.79807" lon="6.92071">
        <ele>1764</ele>
        <time>2024-12-08T13:40:54Z</time>
      </trkpt>
      <trkpt lat="44.79809" lon="6.92075">
        <ele>1765</ele>
        <time>2024-12-08T13:41:00Z</time>
      </trkpt>
      <trkpt lat="44.79812" lon="6.92073">
        <ele>1765.8</ele>
        <time>2024-12-08T13:41:06Z</time>
      </trkpt>
      <trkpt lat="44.79817" lon="6.92068">
        <ele>1767.4</ele>
        <time>2024-12-08T13:41:12Z</time>
      </trkpt>
      <trkpt lat="44.79819" lon="6.92068">
        <ele>1768.1</ele>
        <time>2024-12-08T13:41:17Z</time>
      </trkpt>
      <trkpt lat="44.79819" lon="6.92075">
        <ele>1769.5</ele>
        <time>2024-12-08T13:41:22Z</time>
      </trkpt>
      <trkpt lat="44.79818" lon="6.92077">
        <ele>1770.2</ele>
        <time>2024-12-08T13:41:27Z</time>
      </trkpt>
      <trkpt lat="44.79818" lon="6.92079">
        <ele>1770.7</ele>
        <time>2024-12-08T13:41:32Z</time>
      </trkpt>
      <trkpt lat="44.79818" lon="6.92083">
        <ele>1771.4</ele>
        <time>2024-12-08T13:41:39Z</time>
      </trkpt>
      <trkpt lat="44.79818" lon="6.92086">
        <ele>1772.1</ele>
        <time>2024-12-08T13:41:45Z</time>
      </trkpt>
      <trkpt lat="44.79819" lon="6.9209">
        <ele>1773.1</ele>
        <time>2024-12-08T13:41:51Z</time>
      </trkpt>
      <trkpt lat="44.7982" lon="6.9209">
        <ele>1773.6</ele>
        <time>2024-12-08T13:41:57Z</time>
      </trkpt>
      <trkpt lat="44.79822" lon="6.9209">
        <ele>1774</ele>
        <time>2024-12-08T13:42:02Z</time>
      </trkpt>
      <trkpt lat="44.79823" lon="6.92088">
        <ele>1774.5</ele>
        <time>2024-12-08T13:42:08Z</time>
      </trkpt>
      <trkpt lat="44.79829" lon="6.92084">
        <ele>1776.1</ele>
        <time>2024-12-08T13:42:15Z</time>
      </trkpt>
      <trkpt lat="44.79832" lon="6.92091">
        <ele>1777.5</ele>
        <time>2024-12-08T13:42:21Z</time>
      </trkpt>
      <trkpt lat="44.79832" lon="6.92095">
        <ele>1778.4</ele>
        <time>2024-12-08T13:42:26Z</time>
      </trkpt>
      <trkpt lat="44.79834" lon="6.92099">
        <ele>1779.3</ele>
        <time>2024-12-08T13:42:32Z</time>
      </trkpt>
      <trkpt lat="44.79837" lon="6.92098">
        <ele>1780.1</ele>
        <time>2024-12-08T13:42:38Z</time>
      </trkpt>
      <trkpt lat="44.79841" lon="6.92094">
        <ele>1781.5</ele>
        <time>2024-12-08T13:42:46Z</time>
      </trkpt>
      <trkpt lat="44.79841" lon="6.92093">
        <ele>1781.8</ele>
        <time>2024-12-08T13:42:51Z</time>
      </trkpt>
      <trkpt lat="44.79844" lon="6.9209">
        <ele>1782.7</ele>
        <time>2024-12-08T13:42:57Z</time>
      </trkpt>
      <trkpt lat="44.79846" lon="6.92085">
        <ele>1783.9</ele>
        <time>2024-12-08T13:43:04Z</time>
      </trkpt>
      <trkpt lat="44.79847" lon="6.92082">
        <ele>1784.5</ele>
        <time>2024-12-08T13:43:10Z</time>
      </trkpt>
      <trkpt lat="44.7985" lon="6.92077">
        <ele>1785.4</ele>
        <time>2024-12-08T13:43:17Z</time>
      </trkpt>
      <trkpt lat="44.79855" lon="6.92077">
        <ele>1786.3</ele>
        <time>2024-12-08T13:43:23Z</time>
      </trkpt>
      <trkpt lat="44.79857" lon="6.92072">
        <ele>1786.9</ele>
        <time>2024-12-08T13:43:28Z</time>
      </trkpt>
      <trkpt lat="44.79859" lon="6.92066">
        <ele>1787.5</ele>
        <time>2024-12-08T13:43:34Z</time>
      </trkpt>
      <trkpt lat="44.7986" lon="6.92063">
        <ele>1787.8</ele>
        <time>2024-12-08T13:43:38Z</time>
      </trkpt>
      <trkpt lat="44.79861" lon="6.92056">
        <ele>1788.3</ele>
        <time>2024-12-08T13:43:45Z</time>
      </trkpt>
      <trkpt lat="44.79863" lon="6.92053">
        <ele>1788.6</ele>
        <time>2024-12-08T13:43:50Z</time>
      </trkpt>
      <trkpt lat="44.79864" lon="6.92046">
        <ele>1789</ele>
        <time>2024-12-08T13:43:57Z</time>
      </trkpt>
      <trkpt lat="44.79866" lon="6.9204">
        <ele>1789.5</ele>
        <time>2024-12-08T13:44:03Z</time>
      </trkpt>
      <trkpt lat="44.7987" lon="6.92033">
        <ele>1790.3</ele>
        <time>2024-12-08T13:44:11Z</time>
      </trkpt>
      <trkpt lat="44.79873" lon="6.92029">
        <ele>1790.8</ele>
        <time>2024-12-08T13:44:16Z</time>
      </trkpt>
      <trkpt lat="44.79884" lon="6.92029">
        <ele>1792.3</ele>
        <time>2024-12-08T13:44:23Z</time>
      </trkpt>
      <trkpt lat="44.79885" lon="6.92022">
        <ele>1793.1</ele>
        <time>2024-12-08T13:44:28Z</time>
      </trkpt>
      <trkpt lat="44.79885" lon="6.92018">
        <ele>1793.7</ele>
        <time>2024-12-08T13:44:34Z</time>
      </trkpt>
      <trkpt lat="44.79886" lon="6.92016">
        <ele>1793.9</ele>
        <time>2024-12-08T13:44:42Z</time>
      </trkpt>
      <trkpt lat="44.79886" lon="6.92016">
        <ele>1793.9</ele>
        <time>2024-12-08T13:44:47Z</time>
      </trkpt>
      <trkpt lat="44.79887" lon="6.92011">
        <ele>1794.7</ele>
        <time>2024-12-08T13:44:52Z</time>
      </trkpt>
      <trkpt lat="44.79887" lon="6.92011">
        <ele>1794.7</ele>
        <time>2024-12-08T13:44:59Z</time>
      </trkpt>
      <trkpt lat="44.79887" lon="6.92011">
        <ele>1794.7</ele>
        <time>2024-12-08T13:45:09Z</time>
      </trkpt>
      <trkpt lat="44.79887" lon="6.92011">
        <ele>1794.7</ele>
        <time>2024-12-08T13:45:19Z</time>
      </trkpt>
      <trkpt lat="44.79887" lon="6.92011">
        <ele>1794.7</ele>
        <time>2024-12-08T13:45:26Z</time>
      </trkpt>
      <trkpt lat="44.79887" lon="6.92011">
        <ele>1794.7</ele>
        <time>2024-12-08T13:45:31Z</time>
      </trkpt>
      <trkpt lat="44.79887" lon="6.92007">
        <ele>1794.3</ele>
        <time>2024-12-08T13:45:37Z</time>
      </trkpt>
      <trkpt lat="44.79887" lon="6.92007">
        <ele>1794.3</ele>
        <time>2024-12-08T13:45:43Z</time>
      </trkpt>
      <trkpt lat="44.79889" lon="6.91999">
        <ele>1793.6</ele>
        <time>2024-12-08T13:45:51Z</time>
      </trkpt>
      <trkpt lat="44.7989" lon="6.91993">
        <ele>1793</ele>
        <time>2024-12-08T13:45:57Z</time>
      </trkpt>
      <trkpt lat="44.79891" lon="6.91986">
        <ele>1792.4</ele>
        <time>2024-12-08T13:46:03Z</time>
      </trkpt>
      <trkpt lat="44.79891" lon="6.91981">
        <ele>1792</ele>
        <time>2024-12-08T13:46:09Z</time>
      </trkpt>
      <trkpt lat="44.79893" lon="6.91973">
        <ele>1791.3</ele>
        <time>2024-12-08T13:46:16Z</time>
      </trkpt>
      <trkpt lat="44.79894" lon="6.91963">
        <ele>1790.5</ele>
        <time>2024-12-08T13:46:23Z</time>
      </trkpt>
      <trkpt lat="44.79894" lon="6.91963">
        <ele>1790.5</ele>
        <time>2024-12-08T13:46:30Z</time>
      </trkpt>
      <trkpt lat="44.79896" lon="6.91951">
        <ele>1789.6</ele>
        <time>2024-12-08T13:46:37Z</time>
      </trkpt>
      <trkpt lat="44.79897" lon="6.91946">
        <ele>1789.2</ele>
        <time>2024-12-08T13:46:43Z</time>
      </trkpt>
      <trkpt lat="44.79897" lon="6.91941">
        <ele>1788.9</ele>
        <time>2024-12-08T13:46:48Z</time>
      </trkpt>
      <trkpt lat="44.79897" lon="6.91938">
        <ele>1788.7</ele>
        <time>2024-12-08T13:46:53Z</time>
      </trkpt>
      <trkpt lat="44.79897" lon="6.9193">
        <ele>1788.2</ele>
        <time>2024-12-08T13:46:59Z</time>
      </trkpt>
      <trkpt lat="44.79898" lon="6.91927">
        <ele>1788</ele>
        <time>2024-12-08T13:47:04Z</time>
      </trkpt>
      <trkpt lat="44.79898" lon="6.91922">
        <ele>1787.7</ele>
        <time>2024-12-08T13:47:09Z</time>
      </trkpt>
      <trkpt lat="44.79898" lon="6.9192">
        <ele>1787.6</ele>
        <time>2024-12-08T13:47:12Z</time>
      </trkpt>
      <trkpt lat="44.79898" lon="6.9192">
        <ele>1787.6</ele>
        <time>2024-12-08T13:47:19Z</time>
      </trkpt>
      <trkpt lat="44.79898" lon="6.9192">
        <ele>1787.6</ele>
        <time>2024-12-08T13:47:25Z</time>
      </trkpt>
      <trkpt lat="44.79898" lon="6.9192">
        <ele>1787.6</ele>
        <time>2024-12-08T13:47:26Z</time>
      </trkpt>
      <trkpt lat="44.79898" lon="6.9192">
        <ele>1787.6</ele>
        <time>2024-12-08T13:47:29Z</time>
      </trkpt>
      <trkpt lat="44.79898" lon="6.9192">
        <ele>1787.6</ele>
        <time>2024-12-08T13:47:34Z</time>
      </trkpt>
      <trkpt lat="44.79902" lon="6.91897">
        <ele>1786.3</ele>
        <time>2024-12-08T13:47:43Z</time>
      </trkpt>
      <trkpt lat="44.79904" lon="6.91889">
        <ele>1785.9</ele>
        <time>2024-12-08T13:47:50Z</time>
      </trkpt>
      <trkpt lat="44.79905" lon="6.91885">
        <ele>1785.6</ele>
        <time>2024-12-08T13:47:57Z</time>
      </trkpt>
      <trkpt lat="44.79907" lon="6.91879">
        <ele>1785.2</ele>
        <time>2024-12-08T13:48:02Z</time>
      </trkpt>
      <trkpt lat="44.79907" lon="6.91879">
        <ele>1785.2</ele>
        <time>2024-12-08T13:48:09Z</time>
      </trkpt>
      <trkpt lat="44.79911" lon="6.91862">
        <ele>1784</ele>
        <time>2024-12-08T13:48:17Z</time>
      </trkpt>
      <trkpt lat="44.79911" lon="6.91862">
        <ele>1784</ele>
        <time>2024-12-08T13:48:23Z</time>
      </trkpt>
      <trkpt lat="44.79911" lon="6.91863">
        <ele>1784.1</ele>
        <time>2024-12-08T13:48:29Z</time>
      </trkpt>
      <trkpt lat="44.79911" lon="6.91863">
        <ele>1784.1</ele>
        <time>2024-12-08T13:48:35Z</time>
      </trkpt>
      <trkpt lat="44.79911" lon="6.91863">
        <ele>1784.1</ele>
        <time>2024-12-08T13:48:41Z</time>
      </trkpt>
      <trkpt lat="44.79907" lon="6.91879">
        <ele>1785.3</ele>
        <time>2024-12-08T13:48:46Z</time>
      </trkpt>
      <trkpt lat="44.79905" lon="6.91884">
        <ele>1785.6</ele>
        <time>2024-12-08T13:48:52Z</time>
      </trkpt>
      <trkpt lat="44.79905" lon="6.91886">
        <ele>1785.7</ele>
        <time>2024-12-08T13:48:58Z</time>
      </trkpt>
      <trkpt lat="44.79903" lon="6.91894">
        <ele>1786.1</ele>
        <time>2024-12-08T13:49:05Z</time>
      </trkpt>
      <trkpt lat="44.79902" lon="6.91896">
        <ele>1786.3</ele>
        <time>2024-12-08T13:49:09Z</time>
      </trkpt>
      <trkpt lat="44.79902" lon="6.91896">
        <ele>1786.4</ele>
        <time>2024-12-08T13:49:15Z</time>
      </trkpt>
      <trkpt lat="44.79902" lon="6.91896">
        <ele>1786.6</ele>
        <time>2024-12-08T13:49:21Z</time>
      </trkpt>
      <trkpt lat="44.79902" lon="6.91896">
        <ele>1786.7</ele>
        <time>2024-12-08T13:49:26Z</time>
      </trkpt>
      <trkpt lat="44.79902" lon="6.91896">
        <ele>1786.8</ele>
        <time>2024-12-08T13:49:34Z</time>
      </trkpt>
      <trkpt lat="44.79966" lon="6.91941">
        <ele>1826.2</ele>
        <time>2024-12-08T13:49:39Z</time>
      </trkpt>
      <trkpt lat="44.79966" lon="6.91945">
        <ele>1826.4</ele>
        <time>2024-12-08T13:49:43Z</time>
      </trkpt>
      <trkpt lat="44.79967" lon="6.91949">
        <ele>1826.9</ele>
        <time>2024-12-08T13:49:49Z</time>
      </trkpt>
      <trkpt lat="44.79968" lon="6.91953">
        <ele>1827.5</ele>
        <time>2024-12-08T13:49:55Z</time>
      </trkpt>
      <trkpt lat="44.79967" lon="6.91953">
        <ele>1827.7</ele>
        <time>2024-12-08T13:50:01Z</time>
      </trkpt>
      <trkpt lat="44.79968" lon="6.91955">
        <ele>1828.3</ele>
        <time>2024-12-08T13:50:15Z</time>
      </trkpt>
      <trkpt lat="44.79968" lon="6.91961">
        <ele>1828.8</ele>
        <time>2024-12-08T13:50:20Z</time>
      </trkpt>
      <trkpt lat="44.79969" lon="6.91968">
        <ele>1831.5</ele>
        <time>2024-12-08T13:50:25Z</time>
      </trkpt>
      <trkpt lat="44.79968" lon="6.91976">
        <ele>1832.4</ele>
        <time>2024-12-08T13:50:31Z</time>
      </trkpt>
      <trkpt lat="44.79969" lon="6.9198">
        <ele>1832.9</ele>
        <time>2024-12-08T13:50:38Z</time>
      </trkpt>
      <trkpt lat="44.79969" lon="6.9198">
        <ele>1833.1</ele>
        <time>2024-12-08T13:50:47Z</time>
      </trkpt>
      <trkpt lat="44.79969" lon="6.9198">
        <ele>1833.2</ele>
        <time>2024-12-08T13:51:03Z</time>
      </trkpt>
      <trkpt lat="44.79971" lon="6.91983">
        <ele>1833.3</ele>
        <time>2024-12-08T13:51:11Z</time>
      </trkpt>
      <trkpt lat="44.7997" lon="6.91986">
        <ele>1833.8</ele>
        <time>2024-12-08T13:51:12Z</time>
      </trkpt>
      <trkpt lat="44.79971" lon="6.9199">
        <ele>1836.1</ele>
        <time>2024-12-08T13:51:15Z</time>
      </trkpt>
      <trkpt lat="44.79972" lon="6.92">
        <ele>1836.8</ele>
        <time>2024-12-08T13:51:22Z</time>
      </trkpt>
      <trkpt lat="44.7997" lon="6.92011">
        <ele>1835.8</ele>
        <time>2024-12-08T13:51:29Z</time>
      </trkpt>
      <trkpt lat="44.79969" lon="6.92027">
        <ele>1836.4</ele>
        <time>2024-12-08T13:51:32Z</time>
      </trkpt>
      <trkpt lat="44.79969" lon="6.92027">
        <ele>1836.4</ele>
        <time>2024-12-08T13:51:35Z</time>
      </trkpt>
      <trkpt lat="44.79969" lon="6.92027">
        <ele>1836.4</ele>
        <time>2024-12-08T13:51:37Z</time>
      </trkpt>
      <trkpt lat="44.7997" lon="6.9203">
        <ele>1836.7</ele>
        <time>2024-12-08T13:51:39Z</time>
      </trkpt>
      <trkpt lat="44.79971" lon="6.92041">
        <ele>1837.7</ele>
        <time>2024-12-08T13:51:44Z</time>
      </trkpt>
      <trkpt lat="44.7997" lon="6.92049">
        <ele>1838.4</ele>
        <time>2024-12-08T13:51:50Z</time>
      </trkpt>
      <trkpt lat="44.79969" lon="6.92052">
        <ele>1838.6</ele>
        <time>2024-12-08T13:51:55Z</time>
      </trkpt>
      <trkpt lat="44.79966" lon="6.92064">
        <ele>1839.5</ele>
        <time>2024-12-08T13:52:01Z</time>
      </trkpt>
      <trkpt lat="44.79963" lon="6.92071">
        <ele>1840</ele>
        <time>2024-12-08T13:52:07Z</time>
      </trkpt>
      <trkpt lat="44.79962" lon="6.92076">
        <ele>1840.4</ele>
        <time>2024-12-08T13:52:10Z</time>
      </trkpt>
      <trkpt lat="44.79961" lon="6.92081">
        <ele>1840.7</ele>
        <time>2024-12-08T13:52:13Z</time>
      </trkpt>
      <trkpt lat="44.79961" lon="6.92081">
        <ele>1840.7</ele>
        <time>2024-12-08T13:52:16Z</time>
      </trkpt>
      <trkpt lat="44.79965" lon="6.92093">
        <ele>1841.8</ele>
        <time>2024-12-08T13:52:20Z</time>
      </trkpt>
      <trkpt lat="44.79968" lon="6.92102">
        <ele>1842.6</ele>
        <time>2024-12-08T13:52:26Z</time>
      </trkpt>
      <trkpt lat="44.79971" lon="6.9211">
        <ele>1843.5</ele>
        <time>2024-12-08T13:52:32Z</time>
      </trkpt>
      <trkpt lat="44.79974" lon="6.92118">
        <ele>1844.3</ele>
        <time>2024-12-08T13:52:38Z</time>
      </trkpt>
      <trkpt lat="44.79977" lon="6.92125">
        <ele>1845.2</ele>
        <time>2024-12-08T13:52:44Z</time>
      </trkpt>
      <trkpt lat="44.79978" lon="6.9213">
        <ele>1845.7</ele>
        <time>2024-12-08T13:52:48Z</time>
      </trkpt>
      <trkpt lat="44.79979" lon="6.92139">
        <ele>1846.6</ele>
        <time>2024-12-08T13:52:54Z</time>
      </trkpt>
      <trkpt lat="44.79981" lon="6.92146">
        <ele>1847.4</ele>
        <time>2024-12-08T13:53:00Z</time>
      </trkpt>
      <trkpt lat="44.79983" lon="6.92153">
        <ele>1848.2</ele>
        <time>2024-12-08T13:53:06Z</time>
      </trkpt>
      <trkpt lat="44.79983" lon="6.92155">
        <ele>1848.4</ele>
        <time>2024-12-08T13:53:07Z</time>
      </trkpt>
      <trkpt lat="44.79985" lon="6.92162">
        <ele>1849.2</ele>
        <time>2024-12-08T13:53:12Z</time>
      </trkpt>
      <trkpt lat="44.79987" lon="6.92173">
        <ele>1850.3</ele>
        <time>2024-12-08T13:53:19Z</time>
      </trkpt>
      <trkpt lat="44.79989" lon="6.92182">
        <ele>1851.3</ele>
        <time>2024-12-08T13:53:26Z</time>
      </trkpt>
      <trkpt lat="44.79991" lon="6.9219">
        <ele>1852.3</ele>
        <time>2024-12-08T13:53:32Z</time>
      </trkpt>
      <trkpt lat="44.79993" lon="6.922">
        <ele>1853.6</ele>
        <time>2024-12-08T13:53:39Z</time>
      </trkpt>
      <trkpt lat="44.79993" lon="6.92202">
        <ele>1853.9</ele>
        <time>2024-12-08T13:53:42Z</time>
      </trkpt>
      <trkpt lat="44.79994" lon="6.92205">
        <ele>1854.3</ele>
        <time>2024-12-08T13:53:44Z</time>
      </trkpt>
      <trkpt lat="44.79997" lon="6.92213">
        <ele>1855.3</ele>
        <time>2024-12-08T13:53:51Z</time>
      </trkpt>
      <trkpt lat="44.79999" lon="6.92219">
        <ele>1856.2</ele>
        <time>2024-12-08T13:53:57Z</time>
      </trkpt>
      <trkpt lat="44.80001" lon="6.92227">
        <ele>1857.2</ele>
        <time>2024-12-08T13:54:03Z</time>
      </trkpt>
      <trkpt lat="44.80005" lon="6.92236">
        <ele>1858.5</ele>
        <time>2024-12-08T13:54:11Z</time>
      </trkpt>
      <trkpt lat="44.80007" lon="6.92243">
        <ele>1859.4</ele>
        <time>2024-12-08T13:54:17Z</time>
      </trkpt>
      <trkpt lat="44.80008" lon="6.92246">
        <ele>1859.7</ele>
        <time>2024-12-08T13:54:24Z</time>
      </trkpt>
      <trkpt lat="44.80008" lon="6.92246">
        <ele>1859.7</ele>
        <time>2024-12-08T13:54:29Z</time>
      </trkpt>
      <trkpt lat="44.80008" lon="6.92259">
        <ele>1861.1</ele>
        <time>2024-12-08T13:54:31Z</time>
      </trkpt>
      <trkpt lat="44.80008" lon="6.92272">
        <ele>1862.6</ele>
        <time>2024-12-08T13:54:39Z</time>
      </trkpt>
      <trkpt lat="44.80008" lon="6.92281">
        <ele>1863.5</ele>
        <time>2024-12-08T13:54:47Z</time>
      </trkpt>
      <trkpt lat="44.80008" lon="6.92282">
        <ele>1863.7</ele>
        <time>2024-12-08T13:54:54Z</time>
      </trkpt>
      <trkpt lat="44.80016" lon="6.92303">
        <ele>1865.9</ele>
        <time>2024-12-08T13:55:01Z</time>
      </trkpt>
      <trkpt lat="44.80019" lon="6.92307">
        <ele>1866.6</ele>
        <time>2024-12-08T13:55:06Z</time>
      </trkpt>
      <trkpt lat="44.80021" lon="6.92308">
        <ele>1866.8</ele>
        <time>2024-12-08T13:55:07Z</time>
      </trkpt>
      <trkpt lat="44.80025" lon="6.92313">
        <ele>1867.6</ele>
        <time>2024-12-08T13:55:13Z</time>
      </trkpt>
      <trkpt lat="44.80031" lon="6.92319">
        <ele>1868.7</ele>
        <time>2024-12-08T13:55:19Z</time>
      </trkpt>
      <trkpt lat="44.80036" lon="6.92324">
        <ele>1869.5</ele>
        <time>2024-12-08T13:55:25Z</time>
      </trkpt>
      <trkpt lat="44.80042" lon="6.92331">
        <ele>1870.8</ele>
        <time>2024-12-08T13:55:32Z</time>
      </trkpt>
      <trkpt lat="44.80046" lon="6.92336">
        <ele>1871.6</ele>
        <time>2024-12-08T13:55:38Z</time>
      </trkpt>
      <trkpt lat="44.8005" lon="6.9234">
        <ele>1872.5</ele>
        <time>2024-12-08T13:55:44Z</time>
      </trkpt>
      <trkpt lat="44.80055" lon="6.92342">
        <ele>1873.4</ele>
        <time>2024-12-08T13:55:50Z</time>
      </trkpt>
      <trkpt lat="44.80058" lon="6.92344">
        <ele>1873.9</ele>
        <time>2024-12-08T13:55:56Z</time>
      </trkpt>
      <trkpt lat="44.80064" lon="6.92346">
        <ele>1875</ele>
        <time>2024-12-08T13:56:02Z</time>
      </trkpt>
      <trkpt lat="44.80068" lon="6.92348">
        <ele>1875.8</ele>
        <time>2024-12-08T13:56:09Z</time>
      </trkpt>
      <trkpt lat="44.80075" lon="6.92351">
        <ele>1877</ele>
        <time>2024-12-08T13:56:15Z</time>
      </trkpt>
      <trkpt lat="44.80078" lon="6.92353">
        <ele>1877.6</ele>
        <time>2024-12-08T13:56:18Z</time>
      </trkpt>
      <trkpt lat="44.80079" lon="6.92353">
        <ele>1877.7</ele>
        <time>2024-12-08T13:56:20Z</time>
      </trkpt>
      <trkpt lat="44.80085" lon="6.92356">
        <ele>1878.8</ele>
        <time>2024-12-08T13:56:27Z</time>
      </trkpt>
      <trkpt lat="44.80088" lon="6.92357">
        <ele>1879.5</ele>
        <time>2024-12-08T13:56:32Z</time>
      </trkpt>
      <trkpt lat="44.80093" lon="6.9236">
        <ele>1880.3</ele>
        <time>2024-12-08T13:56:38Z</time>
      </trkpt>
      <trkpt lat="44.80098" lon="6.9236">
        <ele>1881.1</ele>
        <time>2024-12-08T13:56:43Z</time>
      </trkpt>
      <trkpt lat="44.80102" lon="6.9236">
        <ele>1881.8</ele>
        <time>2024-12-08T13:56:49Z</time>
      </trkpt>
      <trkpt lat="44.80107" lon="6.9236">
        <ele>1882.5</ele>
        <time>2024-12-08T13:56:54Z</time>
      </trkpt>
      <trkpt lat="44.80111" lon="6.92361">
        <ele>1883.2</ele>
        <time>2024-12-08T13:57:02Z</time>
      </trkpt>
      <trkpt lat="44.8012" lon="6.92361">
        <ele>1884.7</ele>
        <time>2024-12-08T13:57:09Z</time>
      </trkpt>
      <trkpt lat="44.80125" lon="6.92361">
        <ele>1885.6</ele>
        <time>2024-12-08T13:57:15Z</time>
      </trkpt>
      <trkpt lat="44.80126" lon="6.92361">
        <ele>1885.7</ele>
        <time>2024-12-08T13:57:21Z</time>
      </trkpt>
      <trkpt lat="44.80132" lon="6.92362">
        <ele>1886.8</ele>
        <time>2024-12-08T13:57:27Z</time>
      </trkpt>
      <trkpt lat="44.80132" lon="6.92362">
        <ele>1886.8</ele>
        <time>2024-12-08T13:57:36Z</time>
      </trkpt>
      <trkpt lat="44.80135" lon="6.92362">
        <ele>1887.3</ele>
        <time>2024-12-08T13:57:42Z</time>
      </trkpt>
      <trkpt lat="44.80135" lon="6.92362">
        <ele>1887.3</ele>
        <time>2024-12-08T13:57:48Z</time>
      </trkpt>
      <trkpt lat="44.80126" lon="6.92361">
        <ele>1888.8</ele>
        <time>2024-12-08T13:57:55Z</time>
      </trkpt>
      <trkpt lat="44.80122" lon="6.92361">
        <ele>1889.5</ele>
        <time>2024-12-08T13:58:00Z</time>
      </trkpt>
      <trkpt lat="44.80118" lon="6.92361">
        <ele>1890.1</ele>
        <time>2024-12-08T13:58:07Z</time>
      </trkpt>
      <trkpt lat="44.80109" lon="6.92361">
        <ele>1891.4</ele>
        <time>2024-12-08T13:58:13Z</time>
      </trkpt>
      <trkpt lat="44.80105" lon="6.9236">
        <ele>1891.9</ele>
        <time>2024-12-08T13:58:18Z</time>
      </trkpt>
      <trkpt lat="44.80101" lon="6.9236">
        <ele>1892.5</ele>
        <time>2024-12-08T13:58:24Z</time>
      </trkpt>
      <trkpt lat="44.80099" lon="6.9236">
        <ele>1892.8</ele>
        <time>2024-12-08T13:58:30Z</time>
      </trkpt>
      <trkpt lat="44.80099" lon="6.9236">
        <ele>1892.8</ele>
        <time>2024-12-08T13:58:32Z</time>
      </trkpt>
      <trkpt lat="44.80096" lon="6.92324">
        <ele>1895.8</ele>
        <time>2024-12-08T13:58:37Z</time>
      </trkpt>
      <trkpt lat="44.80091" lon="6.9232">
        <ele>1896.5</ele>
        <time>2024-12-08T13:58:44Z</time>
      </trkpt>
      <trkpt lat="44.80085" lon="6.92316">
        <ele>1897.3</ele>
        <time>2024-12-08T13:58:51Z</time>
      </trkpt>
      <trkpt lat="44.80083" lon="6.92315">
        <ele>1897.6</ele>
        <time>2024-12-08T13:59:00Z</time>
      </trkpt>
      <trkpt lat="44.80083" lon="6.92315">
        <ele>1897.6</ele>
        <time>2024-12-08T13:59:07Z</time>
      </trkpt>
      <trkpt lat="44.80083" lon="6.92315">
        <ele>1897.6</ele>
        <time>2024-12-08T13:59:15Z</time>
      </trkpt>
      <trkpt lat="44.80083" lon="6.92315">
        <ele>1897.6</ele>
        <time>2024-12-08T13:59:21Z</time>
      </trkpt>
      <trkpt lat="44.80083" lon="6.92315">
        <ele>1897.6</ele>
        <time>2024-12-08T13:59:28Z</time>
      </trkpt>
      <trkpt lat="44.80082" lon="6.92268">
        <ele>1903.3</ele>
        <time>2024-12-08T13:59:34Z</time>
      </trkpt>
      <trkpt lat="44.80083" lon="6.92262">
        <ele>1904.1</ele>
        <time>2024-12-08T13:59:41Z</time>
      </trkpt>
      <trkpt lat="44.80083" lon="6.92252">
        <ele>1905.3</ele>
        <time>2024-12-08T13:59:48Z</time>
      </trkpt>
      <trkpt lat="44.80083" lon="6.92249">
        <ele>1905.7</ele>
        <time>2024-12-08T13:59:53Z</time>
      </trkpt>
      <trkpt lat="44.80082" lon="6.92241">
        <ele>1906.6</ele>
        <time>2024-12-08T14:00:00Z</time>
      </trkpt>
      <trkpt lat="44.80082" lon="6.92234">
        <ele>1907.4</ele>
        <time>2024-12-08T14:00:07Z</time>
      </trkpt>
      <trkpt lat="44.8008" lon="6.92224">
        <ele>1908.7</ele>
        <time>2024-12-08T14:00:15Z</time>
      </trkpt>
      <trkpt lat="44.8008" lon="6.92217">
        <ele>1909.4</ele>
        <time>2024-12-08T14:00:22Z</time>
      </trkpt>
      <trkpt lat="44.8008" lon="6.92213">
        <ele>1909.9</ele>
        <time>2024-12-08T14:00:26Z</time>
      </trkpt>
      <trkpt lat="44.80077" lon="6.92205">
        <ele>1910.9</ele>
        <time>2024-12-08T14:00:34Z</time>
      </trkpt>
      <trkpt lat="44.80078" lon="6.92197">
        <ele>1911.8</ele>
        <time>2024-12-08T14:00:42Z</time>
      </trkpt>
      <trkpt lat="44.80079" lon="6.9219">
        <ele>1912.7</ele>
        <time>2024-12-08T14:00:48Z</time>
      </trkpt>
      <trkpt lat="44.8008" lon="6.92182">
        <ele>1913.6</ele>
        <time>2024-12-08T14:00:56Z</time>
      </trkpt>
      <trkpt lat="44.80079" lon="6.92181">
        <ele>1913.8</ele>
        <time>2024-12-08T14:00:58Z</time>
      </trkpt>
      <trkpt lat="44.80078" lon="6.92178">
        <ele>1914.2</ele>
        <time>2024-12-08T14:01:01Z</time>
      </trkpt>
      <trkpt lat="44.80077" lon="6.92174">
        <ele>1914.7</ele>
        <time>2024-12-08T14:01:04Z</time>
      </trkpt>
      <trkpt lat="44.80076" lon="6.92163">
        <ele>1916.1</ele>
        <time>2024-12-08T14:01:14Z</time>
      </trkpt>
      <trkpt lat="44.80076" lon="6.9216">
        <ele>1916.3</ele>
        <time>2024-12-08T14:01:15Z</time>
      </trkpt>
      <trkpt lat="44.80073" lon="6.92157">
        <ele>1917</ele>
        <time>2024-12-08T14:01:22Z</time>
      </trkpt>
      <trkpt lat="44.80075" lon="6.92143">
        <ele>1918.7</ele>
        <time>2024-12-08T14:01:34Z</time>
      </trkpt>
      <trkpt lat="44.80075" lon="6.92143">
        <ele>1918.7</ele>
        <time>2024-12-08T14:01:43Z</time>
      </trkpt>
      <trkpt lat="44.80075" lon="6.92143">
        <ele>1918.7</ele>
        <time>2024-12-08T14:01:51Z</time>
      </trkpt>
      <trkpt lat="44.80083" lon="6.92113">
        <ele>1922.6</ele>
        <time>2024-12-08T14:01:58Z</time>
      </trkpt>
      <trkpt lat="44.80083" lon="6.92113">
        <ele>1922.6</ele>
        <time>2024-12-08T14:02:05Z</time>
      </trkpt>
      <trkpt lat="44.80083" lon="6.92113">
        <ele>1922.6</ele>
        <time>2024-12-08T14:02:12Z</time>
      </trkpt>
      <trkpt lat="44.80087" lon="6.92086">
        <ele>1925.8</ele>
        <time>2024-12-08T14:02:21Z</time>
      </trkpt>
      <trkpt lat="44.80087" lon="6.92086">
        <ele>1925.8</ele>
        <time>2024-12-08T14:02:29Z</time>
      </trkpt>
      <trkpt lat="44.80087" lon="6.92086">
        <ele>1925.8</ele>
        <time>2024-12-08T14:02:37Z</time>
      </trkpt>
      <trkpt lat="44.80088" lon="6.92064">
        <ele>1928.2</ele>
        <time>2024-12-08T14:02:42Z</time>
      </trkpt>
      <trkpt lat="44.80089" lon="6.92062">
        <ele>1928.5</ele>
        <time>2024-12-08T14:02:48Z</time>
      </trkpt>
      <trkpt lat="44.80089" lon="6.92053">
        <ele>1929.5</ele>
        <time>2024-12-08T14:02:53Z</time>
      </trkpt>
      <trkpt lat="44.8009" lon="6.92048">
        <ele>1930.1</ele>
        <time>2024-12-08T14:02:58Z</time>
      </trkpt>
      <trkpt lat="44.8009" lon="6.92046">
        <ele>1930.3</ele>
        <time>2024-12-08T14:03:02Z</time>
      </trkpt>
      <trkpt lat="44.8009" lon="6.9204">
        <ele>1930.9</ele>
        <time>2024-12-08T14:03:11Z</time>
      </trkpt>
      <trkpt lat="44.80091" lon="6.92025">
        <ele>1932.6</ele>
        <time>2024-12-08T14:03:19Z</time>
      </trkpt>
      <trkpt lat="44.80092" lon="6.92017">
        <ele>1933.4</ele>
        <time>2024-12-08T14:03:26Z</time>
      </trkpt>
      <trkpt lat="44.80092" lon="6.92011">
        <ele>1934</ele>
        <time>2024-12-08T14:03:31Z</time>
      </trkpt>
      <trkpt lat="44.80093" lon="6.92">
        <ele>1935</ele>
        <time>2024-12-08T14:03:38Z</time>
      </trkpt>
      <trkpt lat="44.80094" lon="6.91991">
        <ele>1935.9</ele>
        <time>2024-12-08T14:03:46Z</time>
      </trkpt>
      <trkpt lat="44.80097" lon="6.9198">
        <ele>1936.9</ele>
        <time>2024-12-08T14:03:54Z</time>
      </trkpt>
      <trkpt lat="44.80098" lon="6.91976">
        <ele>1937.3</ele>
        <time>2024-12-08T14:04:01Z</time>
      </trkpt>
      <trkpt lat="44.801" lon="6.91967">
        <ele>1938.2</ele>
        <time>2024-12-08T14:04:06Z</time>
      </trkpt>
      <trkpt lat="44.80103" lon="6.91957">
        <ele>1939.3</ele>
        <time>2024-12-08T14:04:14Z</time>
      </trkpt>
      <trkpt lat="44.80105" lon="6.91949">
        <ele>1940.2</ele>
        <time>2024-12-08T14:04:21Z</time>
      </trkpt>
      <trkpt lat="44.80107" lon="6.91942">
        <ele>1941</ele>
        <time>2024-12-08T14:04:28Z</time>
      </trkpt>
      <trkpt lat="44.80109" lon="6.91933">
        <ele>1942.1</ele>
        <time>2024-12-08T14:04:37Z</time>
      </trkpt>
      <trkpt lat="44.80109" lon="6.91933">
        <ele>1942.1</ele>
        <time>2024-12-08T14:04:45Z</time>
      </trkpt>
      <trkpt lat="44.8011" lon="6.91923">
        <ele>1943.4</ele>
        <time>2024-12-08T14:04:50Z</time>
      </trkpt>
      <trkpt lat="44.8011" lon="6.91923">
        <ele>1943.4</ele>
        <time>2024-12-08T14:04:57Z</time>
      </trkpt>
      <trkpt lat="44.8011" lon="6.91909">
        <ele>1944.9</ele>
        <time>2024-12-08T14:05:03Z</time>
      </trkpt>
      <trkpt lat="44.80112" lon="6.91898">
        <ele>1945.7</ele>
        <time>2024-12-08T14:05:10Z</time>
      </trkpt>
      <trkpt lat="44.80114" lon="6.9189">
        <ele>1946.4</ele>
        <time>2024-12-08T14:05:16Z</time>
      </trkpt>
      <trkpt lat="44.80118" lon="6.91878">
        <ele>1947</ele>
        <time>2024-12-08T14:05:23Z</time>
      </trkpt>
      <trkpt lat="44.80118" lon="6.91876">
        <ele>1947.1</ele>
        <time>2024-12-08T14:05:24Z</time>
      </trkpt>
      <trkpt lat="44.80119" lon="6.91875">
        <ele>1947.2</ele>
        <time>2024-12-08T14:05:25Z</time>
      </trkpt>
      <trkpt lat="44.8012" lon="6.91871">
        <ele>1947.3</ele>
        <time>2024-12-08T14:05:28Z</time>
      </trkpt>
      <trkpt lat="44.80123" lon="6.91863">
        <ele>1947.7</ele>
        <time>2024-12-08T14:05:34Z</time>
      </trkpt>
      <trkpt lat="44.80125" lon="6.91856">
        <ele>1948</ele>
        <time>2024-12-08T14:05:40Z</time>
      </trkpt>
      <trkpt lat="44.80125" lon="6.91854">
        <ele>1948.1</ele>
        <time>2024-12-08T14:05:41Z</time>
      </trkpt>
      <trkpt lat="44.80126" lon="6.91853">
        <ele>1948.1</ele>
        <time>2024-12-08T14:05:42Z</time>
      </trkpt>
      <trkpt lat="44.80127" lon="6.91848">
        <ele>1948.3</ele>
        <time>2024-12-08T14:05:44Z</time>
      </trkpt>
      <trkpt lat="44.80128" lon="6.91845">
        <ele>1948.5</ele>
        <time>2024-12-08T14:05:46Z</time>
      </trkpt>
      <trkpt lat="44.8013" lon="6.9184">
        <ele>1948.7</ele>
        <time>2024-12-08T14:05:49Z</time>
      </trkpt>
      <trkpt lat="44.8013" lon="6.91838">
        <ele>1948.8</ele>
        <time>2024-12-08T14:05:50Z</time>
      </trkpt>
      <trkpt lat="44.80132" lon="6.91831">
        <ele>1949.1</ele>
        <time>2024-12-08T14:05:54Z</time>
      </trkpt>
      <trkpt lat="44.80135" lon="6.91822">
        <ele>1949.4</ele>
        <time>2024-12-08T14:06:01Z</time>
      </trkpt>
      <trkpt lat="44.8014" lon="6.91807">
        <ele>1950</ele>
        <time>2024-12-08T14:06:09Z</time>
      </trkpt>
      <trkpt lat="44.80141" lon="6.91803">
        <ele>1950.2</ele>
        <time>2024-12-08T14:06:15Z</time>
      </trkpt>
      <trkpt lat="44.80146" lon="6.91788">
        <ele>1950.7</ele>
        <time>2024-12-08T14:06:24Z</time>
      </trkpt>
      <trkpt lat="44.80149" lon="6.91778">
        <ele>1951</ele>
        <time>2024-12-08T14:06:32Z</time>
      </trkpt>
      <trkpt lat="44.80152" lon="6.91768">
        <ele>1951.3</ele>
        <time>2024-12-08T14:06:39Z</time>
      </trkpt>
      <trkpt lat="44.80156" lon="6.91755">
        <ele>1951.8</ele>
        <time>2024-12-08T14:06:49Z</time>
      </trkpt>
      <trkpt lat="44.80159" lon="6.91744">
        <ele>1952.2</ele>
        <time>2024-12-08T14:06:57Z</time>
      </trkpt>
      <trkpt lat="44.8016" lon="6.91734">
        <ele>1952.6</ele>
        <time>2024-12-08T14:07:04Z</time>
      </trkpt>
      <trkpt lat="44.80161" lon="6.91724">
        <ele>1952.9</ele>
        <time>2024-12-08T14:07:12Z</time>
      </trkpt>
      <trkpt lat="44.80162" lon="6.91715">
        <ele>1953.2</ele>
        <time>2024-12-08T14:07:20Z</time>
      </trkpt>
      <trkpt lat="44.80163" lon="6.91704">
        <ele>1953.6</ele>
        <time>2024-12-08T14:07:28Z</time>
      </trkpt>
      <trkpt lat="44.80163" lon="6.91695">
        <ele>1953.9</ele>
        <time>2024-12-08T14:07:35Z</time>
      </trkpt>
      <trkpt lat="44.80164" lon="6.91687">
        <ele>1954.3</ele>
        <time>2024-12-08T14:07:41Z</time>
      </trkpt>
      <trkpt lat="44.80164" lon="6.9168">
        <ele>1954.6</ele>
        <time>2024-12-08T14:07:47Z</time>
      </trkpt>
      <trkpt lat="44.80164" lon="6.91673">
        <ele>1955</ele>
        <time>2024-12-08T14:07:52Z</time>
      </trkpt>
      <trkpt lat="44.80164" lon="6.91666">
        <ele>1955.3</ele>
        <time>2024-12-08T14:07:58Z</time>
      </trkpt>
      <trkpt lat="44.80163" lon="6.91659">
        <ele>1955.6</ele>
        <time>2024-12-08T14:08:05Z</time>
      </trkpt>
      <trkpt lat="44.80162" lon="6.9165">
        <ele>1956.1</ele>
        <time>2024-12-08T14:08:10Z</time>
      </trkpt>
      <trkpt lat="44.80161" lon="6.91645">
        <ele>1956.3</ele>
        <time>2024-12-08T14:08:14Z</time>
      </trkpt>
      <trkpt lat="44.8016" lon="6.91641">
        <ele>1956.5</ele>
        <time>2024-12-08T14:08:20Z</time>
      </trkpt>
      <trkpt lat="44.8016" lon="6.91641">
        <ele>1956.5</ele>
        <time>2024-12-08T14:08:24Z</time>
      </trkpt>
      <trkpt lat="44.80154" lon="6.91633">
        <ele>1957.1</ele>
        <time>2024-12-08T14:08:26Z</time>
      </trkpt>
      <trkpt lat="44.80152" lon="6.9163">
        <ele>1957.4</ele>
        <time>2024-12-08T14:08:32Z</time>
      </trkpt>
      <trkpt lat="44.80148" lon="6.91625">
        <ele>1957.7</ele>
        <time>2024-12-08T14:08:38Z</time>
      </trkpt>
      <trkpt lat="44.80148" lon="6.91625">
        <ele>1957.7</ele>
        <time>2024-12-08T14:08:46Z</time>
      </trkpt>
      <trkpt lat="44.80148" lon="6.91625">
        <ele>1957.7</ele>
        <time>2024-12-08T14:08:55Z</time>
      </trkpt>
      <trkpt lat="44.80147" lon="6.91607">
        <ele>1958.5</ele>
        <time>2024-12-08T14:09:00Z</time>
      </trkpt>
      <trkpt lat="44.80147" lon="6.91624">
        <ele>1959.2</ele>
        <time>2024-12-08T14:09:06Z</time>
      </trkpt>
      <trkpt lat="44.80147" lon="6.91624">
        <ele>1959.2</ele>
        <time>2024-12-08T14:09:13Z</time>
      </trkpt>
      <trkpt lat="44.80147" lon="6.91624">
        <ele>1959.2</ele>
        <time>2024-12-08T14:09:19Z</time>
      </trkpt>
      <trkpt lat="44.80147" lon="6.91624">
        <ele>1959.2</ele>
        <time>2024-12-08T14:09:25Z</time>
      </trkpt>
      <trkpt lat="44.80147" lon="6.91604">
        <ele>1960.3</ele>
        <time>2024-12-08T14:09:31Z</time>
      </trkpt>
      <trkpt lat="44.80158" lon="6.91562">
        <ele>1963.9</ele>
        <time>2024-12-08T14:09:37Z</time>
      </trkpt>
      <trkpt lat="44.80158" lon="6.91562">
        <ele>1963.9</ele>
        <time>2024-12-08T14:09:44Z</time>
      </trkpt>
      <trkpt lat="44.80157" lon="6.91566">
        <ele>1964.3</ele>
        <time>2024-12-08T14:09:48Z</time>
      </trkpt>
      <trkpt lat="44.80157" lon="6.91566">
        <ele>1964.3</ele>
        <time>2024-12-08T14:09:53Z</time>
      </trkpt>
      <trkpt lat="44.80159" lon="6.91555">
        <ele>1965.1</ele>
        <time>2024-12-08T14:09:59Z</time>
      </trkpt>
      <trkpt lat="44.80159" lon="6.91551">
        <ele>1965.3</ele>
        <time>2024-12-08T14:10:05Z</time>
      </trkpt>
      <trkpt lat="44.80159" lon="6.91544">
        <ele>1965.8</ele>
        <time>2024-12-08T14:10:10Z</time>
      </trkpt>
      <trkpt lat="44.80159" lon="6.91542">
        <ele>1966</ele>
        <time>2024-12-08T14:10:15Z</time>
      </trkpt>
      <trkpt lat="44.8016" lon="6.91532">
        <ele>1966.6</ele>
        <time>2024-12-08T14:10:21Z</time>
      </trkpt>
      <trkpt lat="44.8016" lon="6.91528">
        <ele>1966.8</ele>
        <time>2024-12-08T14:10:26Z</time>
      </trkpt>
      <trkpt lat="44.80161" lon="6.91523">
        <ele>1967.2</ele>
        <time>2024-12-08T14:10:30Z</time>
      </trkpt>
      <trkpt lat="44.80161" lon="6.91522">
        <ele>1967.3</ele>
        <time>2024-12-08T14:10:31Z</time>
      </trkpt>
      <trkpt lat="44.80161" lon="6.91519">
        <ele>1967.5</ele>
        <time>2024-12-08T14:10:37Z</time>
      </trkpt>
      <trkpt lat="44.80161" lon="6.9151">
        <ele>1968.1</ele>
        <time>2024-12-08T14:10:42Z</time>
      </trkpt>
      <trkpt lat="44.80161" lon="6.91508">
        <ele>1968.2</ele>
        <time>2024-12-08T14:10:46Z</time>
      </trkpt>
      <trkpt lat="44.80162" lon="6.91502">
        <ele>1968.7</ele>
        <time>2024-12-08T14:10:50Z</time>
      </trkpt>
      <trkpt lat="44.80162" lon="6.91499">
        <ele>1968.9</ele>
        <time>2024-12-08T14:10:51Z</time>
      </trkpt>
      <trkpt lat="44.80162" lon="6.91499">
        <ele>1968.9</ele>
        <time>2024-12-08T14:10:54Z</time>
      </trkpt>
      <trkpt lat="44.80162" lon="6.91499">
        <ele>1968.9</ele>
        <time>2024-12-08T14:10:57Z</time>
      </trkpt>
      <trkpt lat="44.80163" lon="6.9149">
        <ele>1969.6</ele>
        <time>2024-12-08T14:11:02Z</time>
      </trkpt>
      <trkpt lat="44.80163" lon="6.91487">
        <ele>1969.8</ele>
        <time>2024-12-08T14:11:06Z</time>
      </trkpt>
      <trkpt lat="44.80163" lon="6.91483">
        <ele>1970</ele>
        <time>2024-12-08T14:11:10Z</time>
      </trkpt>
      <trkpt lat="44.80163" lon="6.91474">
        <ele>1970.6</ele>
        <time>2024-12-08T14:11:15Z</time>
      </trkpt>
      <trkpt lat="44.80165" lon="6.91456">
        <ele>1971.7</ele>
        <time>2024-12-08T14:11:20Z</time>
      </trkpt>
      <trkpt lat="44.80164" lon="6.91461">
        <ele>1972</ele>
        <time>2024-12-08T14:11:25Z</time>
      </trkpt>
      <trkpt lat="44.80164" lon="6.91456">
        <ele>1972.2</ele>
        <time>2024-12-08T14:11:30Z</time>
      </trkpt>
      <trkpt lat="44.80164" lon="6.91454">
        <ele>1972.4</ele>
        <time>2024-12-08T14:11:31Z</time>
      </trkpt>
      <trkpt lat="44.80161" lon="6.91449">
        <ele>1972.7</ele>
        <time>2024-12-08T14:11:36Z</time>
      </trkpt>
      <trkpt lat="44.8016" lon="6.91447">
        <ele>1972.8</ele>
        <time>2024-12-08T14:11:43Z</time>
      </trkpt>
      <trkpt lat="44.80156" lon="6.91439">
        <ele>1973.2</ele>
        <time>2024-12-08T14:11:48Z</time>
      </trkpt>
      <trkpt lat="44.80154" lon="6.91436">
        <ele>1973.4</ele>
        <time>2024-12-08T14:11:52Z</time>
      </trkpt>
      <trkpt lat="44.80152" lon="6.91431">
        <ele>1973.6</ele>
        <time>2024-12-08T14:12:00Z</time>
      </trkpt>
      <trkpt lat="44.8015" lon="6.9142">
        <ele>1974.1</ele>
        <time>2024-12-08T14:12:06Z</time>
      </trkpt>
      <trkpt lat="44.8015" lon="6.91418">
        <ele>1974.1</ele>
        <time>2024-12-08T14:12:10Z</time>
      </trkpt>
      <trkpt lat="44.80149" lon="6.91412">
        <ele>1974.4</ele>
        <time>2024-12-08T14:12:14Z</time>
      </trkpt>
      <trkpt lat="44.80148" lon="6.91403">
        <ele>1974.9</ele>
        <time>2024-12-08T14:12:20Z</time>
      </trkpt>
      <trkpt lat="44.80148" lon="6.91397">
        <ele>1975.2</ele>
        <time>2024-12-08T14:12:26Z</time>
      </trkpt>
      <trkpt lat="44.80146" lon="6.91388">
        <ele>1975.8</ele>
        <time>2024-12-08T14:12:32Z</time>
      </trkpt>
      <trkpt lat="44.80146" lon="6.91383">
        <ele>1976</ele>
        <time>2024-12-08T14:12:36Z</time>
      </trkpt>
      <trkpt lat="44.80145" lon="6.91377">
        <ele>1976.4</ele>
        <time>2024-12-08T14:12:42Z</time>
      </trkpt>
      <trkpt lat="44.80144" lon="6.91369">
        <ele>1976.9</ele>
        <time>2024-12-08T14:12:48Z</time>
      </trkpt>
      <trkpt lat="44.80143" lon="6.91362">
        <ele>1977.4</ele>
        <time>2024-12-08T14:12:54Z</time>
      </trkpt>
      <trkpt lat="44.80143" lon="6.91362">
        <ele>1977.4</ele>
        <time>2024-12-08T14:12:59Z</time>
      </trkpt>
      <trkpt lat="44.80141" lon="6.91348">
        <ele>1978.4</ele>
        <time>2024-12-08T14:13:07Z</time>
      </trkpt>
      <trkpt lat="44.80141" lon="6.91343">
        <ele>1978.8</ele>
        <time>2024-12-08T14:13:12Z</time>
      </trkpt>
      <trkpt lat="44.80141" lon="6.91338">
        <ele>1979.2</ele>
        <time>2024-12-08T14:13:18Z</time>
      </trkpt>
      <trkpt lat="44.80141" lon="6.91338">
        <ele>1979.2</ele>
        <time>2024-12-08T14:13:24Z</time>
      </trkpt>
      <trkpt lat="44.80141" lon="6.91327">
        <ele>1980</ele>
        <time>2024-12-08T14:13:30Z</time>
      </trkpt>
      <trkpt lat="44.80141" lon="6.91327">
        <ele>1980</ele>
        <time>2024-12-08T14:13:36Z</time>
      </trkpt>
      <trkpt lat="44.80141" lon="6.91313">
        <ele>1981.1</ele>
        <time>2024-12-08T14:13:41Z</time>
      </trkpt>
      <trkpt lat="44.80141" lon="6.91307">
        <ele>1981.5</ele>
        <time>2024-12-08T14:13:47Z</time>
      </trkpt>
      <trkpt lat="44.80141" lon="6.91301">
        <ele>1982</ele>
        <time>2024-12-08T14:13:55Z</time>
      </trkpt>
      <trkpt lat="44.80141" lon="6.91301">
        <ele>1982</ele>
        <time>2024-12-08T14:14:01Z</time>
      </trkpt>
      <trkpt lat="44.80141" lon="6.91288">
        <ele>1982.9</ele>
        <time>2024-12-08T14:14:06Z</time>
      </trkpt>
      <trkpt lat="44.80141" lon="6.91282">
        <ele>1983.3</ele>
        <time>2024-12-08T14:14:13Z</time>
      </trkpt>
      <trkpt lat="44.80141" lon="6.91277">
        <ele>1983.7</ele>
        <time>2024-12-08T14:14:18Z</time>
      </trkpt>
      <trkpt lat="44.80141" lon="6.91277">
        <ele>1983.7</ele>
        <time>2024-12-08T14:14:22Z</time>
      </trkpt>
      <trkpt lat="44.80141" lon="6.91269">
        <ele>1984.2</ele>
        <time>2024-12-08T14:14:28Z</time>
      </trkpt>
      <trkpt lat="44.80141" lon="6.91264">
        <ele>1984.6</ele>
        <time>2024-12-08T14:14:34Z</time>
      </trkpt>
      <trkpt lat="44.80141" lon="6.91257">
        <ele>1985</ele>
        <time>2024-12-08T14:14:37Z</time>
      </trkpt>
      <trkpt lat="44.80141" lon="6.91257">
        <ele>1985</ele>
        <time>2024-12-08T14:14:39Z</time>
      </trkpt>
      <trkpt lat="44.80141" lon="6.91253">
        <ele>1985.3</ele>
        <time>2024-12-08T14:14:42Z</time>
      </trkpt>
      <trkpt lat="44.80141" lon="6.91252">
        <ele>1985.4</ele>
        <time>2024-12-08T14:14:43Z</time>
      </trkpt>
      <trkpt lat="44.80141" lon="6.91247">
        <ele>1985.6</ele>
        <time>2024-12-08T14:14:48Z</time>
      </trkpt>
      <trkpt lat="44.80141" lon="6.91242">
        <ele>1986</ele>
        <time>2024-12-08T14:14:53Z</time>
      </trkpt>
      <trkpt lat="44.80141" lon="6.91238">
        <ele>1986.2</ele>
        <time>2024-12-08T14:14:58Z</time>
      </trkpt>
      <trkpt lat="44.80141" lon="6.91235">
        <ele>1986.4</ele>
        <time>2024-12-08T14:15:03Z</time>
      </trkpt>
      <trkpt lat="44.80141" lon="6.91231">
        <ele>1986.6</ele>
        <time>2024-12-08T14:15:08Z</time>
      </trkpt>
      <trkpt lat="44.80141" lon="6.91224">
        <ele>1987</ele>
        <time>2024-12-08T14:15:13Z</time>
      </trkpt>
      <trkpt lat="44.80141" lon="6.91214">
        <ele>1987.6</ele>
        <time>2024-12-08T14:15:18Z</time>
      </trkpt>
      <trkpt lat="44.80141" lon="6.9121">
        <ele>1987.8</ele>
        <time>2024-12-08T14:15:26Z</time>
      </trkpt>
      <trkpt lat="44.80141" lon="6.9121">
        <ele>1987.8</ele>
        <time>2024-12-08T14:15:33Z</time>
      </trkpt>
      <trkpt lat="44.80141" lon="6.9121">
        <ele>1987.8</ele>
        <time>2024-12-08T14:15:34Z</time>
      </trkpt>
      <trkpt lat="44.80141" lon="6.9121">
        <ele>1987.8</ele>
        <time>2024-12-08T14:15:37Z</time>
      </trkpt>
      <trkpt lat="44.80141" lon="6.91197">
        <ele>1988.5</ele>
        <time>2024-12-08T14:15:40Z</time>
      </trkpt>
      <trkpt lat="44.80142" lon="6.91196">
        <ele>1988.6</ele>
        <time>2024-12-08T14:15:41Z</time>
      </trkpt>
      <trkpt lat="44.80142" lon="6.91191">
        <ele>1988.9</ele>
        <time>2024-12-08T14:15:46Z</time>
      </trkpt>
      <trkpt lat="44.80143" lon="6.91187">
        <ele>1989.1</ele>
        <time>2024-12-08T14:15:51Z</time>
      </trkpt>
      <trkpt lat="44.80143" lon="6.91183">
        <ele>1989.3</ele>
        <time>2024-12-08T14:15:55Z</time>
      </trkpt>
      <trkpt lat="44.80144" lon="6.91176">
        <ele>1989.7</ele>
        <time>2024-12-08T14:16:00Z</time>
      </trkpt>
      <trkpt lat="44.80144" lon="6.91175">
        <ele>1989.8</ele>
        <time>2024-12-08T14:16:05Z</time>
      </trkpt>
      <trkpt lat="44.80146" lon="6.91166">
        <ele>1990.3</ele>
        <time>2024-12-08T14:16:10Z</time>
      </trkpt>
      <trkpt lat="44.80146" lon="6.91166">
        <ele>1990.3</ele>
        <time>2024-12-08T14:16:11Z</time>
      </trkpt>
      <trkpt lat="44.80146" lon="6.91164">
        <ele>1990.5</ele>
        <time>2024-12-08T14:16:13Z</time>
      </trkpt>
      <trkpt lat="44.80146" lon="6.91159">
        <ele>1990.8</ele>
        <time>2024-12-08T14:16:18Z</time>
      </trkpt>
      <trkpt lat="44.80147" lon="6.91152">
        <ele>1991.3</ele>
        <time>2024-12-08T14:16:25Z</time>
      </trkpt>
      <trkpt lat="44.80148" lon="6.91146">
        <ele>1991.7</ele>
        <time>2024-12-08T14:16:31Z</time>
      </trkpt>
      <trkpt lat="44.80149" lon="6.91141">
        <ele>1992.1</ele>
        <time>2024-12-08T14:16:38Z</time>
      </trkpt>
      <trkpt lat="44.80152" lon="6.91138">
        <ele>1992.5</ele>
        <time>2024-12-08T14:16:42Z</time>
      </trkpt>
      <trkpt lat="44.80149" lon="6.91138">
        <ele>1992.8</ele>
        <time>2024-12-08T14:16:50Z</time>
      </trkpt>
      <trkpt lat="44.8015" lon="6.9113">
        <ele>1993.4</ele>
        <time>2024-12-08T14:16:56Z</time>
      </trkpt>
      <trkpt lat="44.8015" lon="6.9113">
        <ele>1993.4</ele>
        <time>2024-12-08T14:17:03Z</time>
      </trkpt>
      <trkpt lat="44.80153" lon="6.91111">
        <ele>1994.8</ele>
        <time>2024-12-08T14:17:10Z</time>
      </trkpt>
      <trkpt lat="44.80154" lon="6.91106">
        <ele>1995.2</ele>
        <time>2024-12-08T14:17:18Z</time>
      </trkpt>
      <trkpt lat="44.80155" lon="6.91098">
        <ele>1995.7</ele>
        <time>2024-12-08T14:17:24Z</time>
      </trkpt>
      <trkpt lat="44.80159" lon="6.91091">
        <ele>1996.3</ele>
        <time>2024-12-08T14:17:31Z</time>
      </trkpt>
      <trkpt lat="44.80156" lon="6.91088">
        <ele>1996.7</ele>
        <time>2024-12-08T14:17:37Z</time>
      </trkpt>
      <trkpt lat="44.80157" lon="6.91077">
        <ele>1997.3</ele>
        <time>2024-12-08T14:17:44Z</time>
      </trkpt>
      <trkpt lat="44.80155" lon="6.91068">
        <ele>1997.8</ele>
        <time>2024-12-08T14:17:53Z</time>
      </trkpt>
      <trkpt lat="44.80155" lon="6.91064">
        <ele>1997.9</ele>
        <time>2024-12-08T14:17:59Z</time>
      </trkpt>
      <trkpt lat="44.80155" lon="6.91064">
        <ele>1998</ele>
        <time>2024-12-08T14:18:08Z</time>
      </trkpt>
      <trkpt lat="44.80155" lon="6.91064">
        <ele>1998</ele>
        <time>2024-12-08T14:18:14Z</time>
      </trkpt>
      <trkpt lat="44.80155" lon="6.91063">
        <ele>1998</ele>
        <time>2024-12-08T14:18:24Z</time>
      </trkpt>
      <trkpt lat="44.8015" lon="6.91053">
        <ele>1998.7</ele>
        <time>2024-12-08T14:18:30Z</time>
      </trkpt>
      <trkpt lat="44.8015" lon="6.91053">
        <ele>1998.7</ele>
        <time>2024-12-08T14:18:36Z</time>
      </trkpt>
      <trkpt lat="44.8015" lon="6.91049">
        <ele>1999</ele>
        <time>2024-12-08T14:18:41Z</time>
      </trkpt>
      <trkpt lat="44.8015" lon="6.91049">
        <ele>1999</ele>
        <time>2024-12-08T14:18:48Z</time>
      </trkpt>
      <trkpt lat="44.80155" lon="6.91032">
        <ele>2000.6</ele>
        <time>2024-12-08T14:18:55Z</time>
      </trkpt>
      <trkpt lat="44.80155" lon="6.91026">
        <ele>2001.1</ele>
        <time>2024-12-08T14:19:01Z</time>
      </trkpt>
      <trkpt lat="44.80156" lon="6.91021">
        <ele>2001.5</ele>
        <time>2024-12-08T14:19:07Z</time>
      </trkpt>
      <trkpt lat="44.80154" lon="6.91013">
        <ele>2002.3</ele>
        <time>2024-12-08T14:19:14Z</time>
      </trkpt>
      <trkpt lat="44.80151" lon="6.91009">
        <ele>2002.8</ele>
        <time>2024-12-08T14:19:20Z</time>
      </trkpt>
      <trkpt lat="44.80157" lon="6.90999">
        <ele>2004</ele>
        <time>2024-12-08T14:19:27Z</time>
      </trkpt>
      <trkpt lat="44.80152" lon="6.90998">
        <ele>2004.8</ele>
        <time>2024-12-08T14:19:33Z</time>
      </trkpt>
      <trkpt lat="44.80157" lon="6.90989">
        <ele>2006</ele>
        <time>2024-12-08T14:19:39Z</time>
      </trkpt>
      <trkpt lat="44.80156" lon="6.9098">
        <ele>2006.9</ele>
        <time>2024-12-08T14:19:46Z</time>
      </trkpt>
      <trkpt lat="44.80157" lon="6.90975">
        <ele>2007.4</ele>
        <time>2024-12-08T14:19:52Z</time>
      </trkpt>
      <trkpt lat="44.80156" lon="6.9097">
        <ele>2008.1</ele>
        <time>2024-12-08T14:19:58Z</time>
      </trkpt>
      <trkpt lat="44.80157" lon="6.90966">
        <ele>2008.4</ele>
        <time>2024-12-08T14:20:04Z</time>
      </trkpt>
      <trkpt lat="44.80158" lon="6.9096">
        <ele>2009.2</ele>
        <time>2024-12-08T14:20:12Z</time>
      </trkpt>
      <trkpt lat="44.80157" lon="6.90952">
        <ele>2010</ele>
        <time>2024-12-08T14:20:20Z</time>
      </trkpt>
      <trkpt lat="44.80159" lon="6.90947">
        <ele>2010.7</ele>
        <time>2024-12-08T14:20:26Z</time>
      </trkpt>
      <trkpt lat="44.8016" lon="6.90941">
        <ele>2011.4</ele>
        <time>2024-12-08T14:20:33Z</time>
      </trkpt>
      <trkpt lat="44.80162" lon="6.90936">
        <ele>2012</ele>
        <time>2024-12-08T14:20:42Z</time>
      </trkpt>
      <trkpt lat="44.80162" lon="6.90936">
        <ele>2012</ele>
        <time>2024-12-08T14:20:52Z</time>
      </trkpt>
      <trkpt lat="44.80164" lon="6.90931">
        <ele>2012.7</ele>
        <time>2024-12-08T14:21:00Z</time>
      </trkpt>
      <trkpt lat="44.80164" lon="6.90924">
        <ele>2013.3</ele>
        <time>2024-12-08T14:21:08Z</time>
      </trkpt>
      <trkpt lat="44.80166" lon="6.90918">
        <ele>2014</ele>
        <time>2024-12-08T14:21:17Z</time>
      </trkpt>
      <trkpt lat="44.80166" lon="6.90914">
        <ele>2014.5</ele>
        <time>2024-12-08T14:21:23Z</time>
      </trkpt>
      <trkpt lat="44.80167" lon="6.90909">
        <ele>2015</ele>
        <time>2024-12-08T14:21:29Z</time>
      </trkpt>
      <trkpt lat="44.80168" lon="6.90904">
        <ele>2015.4</ele>
        <time>2024-12-08T14:21:35Z</time>
      </trkpt>
      <trkpt lat="44.80163" lon="6.90902">
        <ele>2016.2</ele>
        <time>2024-12-08T14:21:40Z</time>
      </trkpt>
      <trkpt lat="44.80164" lon="6.90897">
        <ele>2016.7</ele>
        <time>2024-12-08T14:21:46Z</time>
      </trkpt>
      <trkpt lat="44.80164" lon="6.90894">
        <ele>2016.9</ele>
        <time>2024-12-08T14:21:51Z</time>
      </trkpt>
      <trkpt lat="44.80165" lon="6.90886">
        <ele>2017.8</ele>
        <time>2024-12-08T14:21:57Z</time>
      </trkpt>
      <trkpt lat="44.80165" lon="6.90886">
        <ele>2017.8</ele>
        <time>2024-12-08T14:22:03Z</time>
      </trkpt>
      <trkpt lat="44.80167" lon="6.90873">
        <ele>2019.2</ele>
        <time>2024-12-08T14:22:09Z</time>
      </trkpt>
      <trkpt lat="44.80167" lon="6.90873">
        <ele>2019.2</ele>
        <time>2024-12-08T14:22:15Z</time>
      </trkpt>
      <trkpt lat="44.80167" lon="6.90873">
        <ele>2019.2</ele>
        <time>2024-12-08T14:22:22Z</time>
      </trkpt>
      <trkpt lat="44.80167" lon="6.90873">
        <ele>2019.2</ele>
        <time>2024-12-08T14:22:28Z</time>
      </trkpt>
      <trkpt lat="44.8017" lon="6.90853">
        <ele>2021.2</ele>
        <time>2024-12-08T14:22:34Z</time>
      </trkpt>
      <trkpt lat="44.8017" lon="6.90849">
        <ele>2021.7</ele>
        <time>2024-12-08T14:22:38Z</time>
      </trkpt>
      <trkpt lat="44.8017" lon="6.90849">
        <ele>2021.7</ele>
        <time>2024-12-08T14:22:45Z</time>
      </trkpt>
      <trkpt lat="44.8017" lon="6.90849">
        <ele>2021.7</ele>
        <time>2024-12-08T14:22:53Z</time>
      </trkpt>
      <trkpt lat="44.80174" lon="6.90826">
        <ele>2024.1</ele>
        <time>2024-12-08T14:23:00Z</time>
      </trkpt>
      <trkpt lat="44.80174" lon="6.90826">
        <ele>2024.1</ele>
        <time>2024-12-08T14:23:06Z</time>
      </trkpt>
      <trkpt lat="44.80174" lon="6.90826">
        <ele>2024.1</ele>
        <time>2024-12-08T14:23:14Z</time>
      </trkpt>
      <trkpt lat="44.80174" lon="6.90826">
        <ele>2024.1</ele>
        <time>2024-12-08T14:23:21Z</time>
      </trkpt>
      <trkpt lat="44.80174" lon="6.90826">
        <ele>2024.1</ele>
        <time>2024-12-08T14:23:27Z</time>
      </trkpt>
      <trkpt lat="44.80174" lon="6.90826">
        <ele>2024.1</ele>
        <time>2024-12-08T14:23:35Z</time>
      </trkpt>
      <trkpt lat="44.80182" lon="6.90806">
        <ele>2026.6</ele>
        <time>2024-12-08T14:23:42Z</time>
      </trkpt>
      <trkpt lat="44.80182" lon="6.90806">
        <ele>2026.6</ele>
        <time>2024-12-08T14:23:50Z</time>
      </trkpt>
      <trkpt lat="44.80182" lon="6.90806">
        <ele>2026.6</ele>
        <time>2024-12-08T14:23:58Z</time>
      </trkpt>
      <trkpt lat="44.80177" lon="6.90768">
        <ele>2030.1</ele>
        <time>2024-12-08T14:24:03Z</time>
      </trkpt>
      <trkpt lat="44.80173" lon="6.9077">
        <ele>2030.6</ele>
        <time>2024-12-08T14:24:04Z</time>
      </trkpt>
      <trkpt lat="44.80173" lon="6.90763">
        <ele>2031.2</ele>
        <time>2024-12-08T14:24:09Z</time>
      </trkpt>
      <trkpt lat="44.80172" lon="6.90757">
        <ele>2031.8</ele>
        <time>2024-12-08T14:24:14Z</time>
      </trkpt>
      <trkpt lat="44.80171" lon="6.90749">
        <ele>2032.6</ele>
        <time>2024-12-08T14:24:20Z</time>
      </trkpt>
      <trkpt lat="44.8017" lon="6.9074">
        <ele>2033.3</ele>
        <time>2024-12-08T14:24:27Z</time>
      </trkpt>
      <trkpt lat="44.80168" lon="6.9073">
        <ele>2034.3</ele>
        <time>2024-12-08T14:24:34Z</time>
      </trkpt>
      <trkpt lat="44.80168" lon="6.90726">
        <ele>2034.6</ele>
        <time>2024-12-08T14:24:40Z</time>
      </trkpt>
      <trkpt lat="44.80167" lon="6.90717">
        <ele>2035.4</ele>
        <time>2024-12-08T14:24:46Z</time>
      </trkpt>
      <trkpt lat="44.80166" lon="6.90712">
        <ele>2035.8</ele>
        <time>2024-12-08T14:24:52Z</time>
      </trkpt>
      <trkpt lat="44.80165" lon="6.90704">
        <ele>2036.5</ele>
        <time>2024-12-08T14:24:58Z</time>
      </trkpt>
      <trkpt lat="44.80164" lon="6.90697">
        <ele>2037.1</ele>
        <time>2024-12-08T14:25:03Z</time>
      </trkpt>
      <trkpt lat="44.80163" lon="6.90692">
        <ele>2037.6</ele>
        <time>2024-12-08T14:25:11Z</time>
      </trkpt>
      <trkpt lat="44.80162" lon="6.90681">
        <ele>2038.6</ele>
        <time>2024-12-08T14:25:18Z</time>
      </trkpt>
      <trkpt lat="44.80162" lon="6.90679">
        <ele>2038.7</ele>
        <time>2024-12-08T14:25:25Z</time>
      </trkpt>
      <trkpt lat="44.8016" lon="6.90666">
        <ele>2040</ele>
        <time>2024-12-08T14:25:32Z</time>
      </trkpt>
      <trkpt lat="44.80159" lon="6.90658">
        <ele>2040.7</ele>
        <time>2024-12-08T14:25:39Z</time>
      </trkpt>
      <trkpt lat="44.80159" lon="6.90654">
        <ele>2041</ele>
        <time>2024-12-08T14:25:45Z</time>
      </trkpt>
      <trkpt lat="44.80159" lon="6.90651">
        <ele>2041.3</ele>
        <time>2024-12-08T14:25:51Z</time>
      </trkpt>
      <trkpt lat="44.80158" lon="6.90647">
        <ele>2041.7</ele>
        <time>2024-12-08T14:25:56Z</time>
      </trkpt>
      <trkpt lat="44.80158" lon="6.90644">
        <ele>2042</ele>
        <time>2024-12-08T14:26:01Z</time>
      </trkpt>
      <trkpt lat="44.80158" lon="6.9064">
        <ele>2042.3</ele>
        <time>2024-12-08T14:26:02Z</time>
      </trkpt>
      <trkpt lat="44.80158" lon="6.90639">
        <ele>2042.5</ele>
        <time>2024-12-08T14:26:06Z</time>
      </trkpt>
      <trkpt lat="44.80157" lon="6.90631">
        <ele>2043.2</ele>
        <time>2024-12-08T14:26:10Z</time>
      </trkpt>
      <trkpt lat="44.80157" lon="6.90622">
        <ele>2043.9</ele>
        <time>2024-12-08T14:26:16Z</time>
      </trkpt>
      <trkpt lat="44.80157" lon="6.9062">
        <ele>2044.2</ele>
        <time>2024-12-08T14:26:21Z</time>
      </trkpt>
      <trkpt lat="44.80157" lon="6.90608">
        <ele>2045.2</ele>
        <time>2024-12-08T14:26:29Z</time>
      </trkpt>
      <trkpt lat="44.80156" lon="6.90601">
        <ele>2045.8</ele>
        <time>2024-12-08T14:26:35Z</time>
      </trkpt>
      <trkpt lat="44.80156" lon="6.90592">
        <ele>2046.5</ele>
        <time>2024-12-08T14:26:43Z</time>
      </trkpt>
      <trkpt lat="44.80156" lon="6.9059">
        <ele>2046.7</ele>
        <time>2024-12-08T14:26:45Z</time>
      </trkpt>
      <trkpt lat="44.80156" lon="6.90586">
        <ele>2046.9</ele>
        <time>2024-12-08T14:26:48Z</time>
      </trkpt>
      <trkpt lat="44.80157" lon="6.90579">
        <ele>2047.5</ele>
        <time>2024-12-08T14:26:54Z</time>
      </trkpt>
      <trkpt lat="44.80157" lon="6.90578">
        <ele>2047.6</ele>
        <time>2024-12-08T14:26:59Z</time>
      </trkpt>
      <trkpt lat="44.80158" lon="6.90565">
        <ele>2048.5</ele>
        <time>2024-12-08T14:27:07Z</time>
      </trkpt>
      <trkpt lat="44.80158" lon="6.90564">
        <ele>2048.5</ele>
        <time>2024-12-08T14:27:13Z</time>
      </trkpt>
      <trkpt lat="44.80158" lon="6.90564">
        <ele>2048.5</ele>
        <time>2024-12-08T14:27:26Z</time>
      </trkpt>
      <trkpt lat="44.80158" lon="6.90564">
        <ele>2048.5</ele>
        <time>2024-12-08T14:27:44Z</time>
      </trkpt>
      <trkpt lat="44.80158" lon="6.90564">
        <ele>2048.5</ele>
        <time>2024-12-08T14:27:50Z</time>
      </trkpt>
      <trkpt lat="44.80159" lon="6.90546">
        <ele>2049.8</ele>
        <time>2024-12-08T14:27:55Z</time>
      </trkpt>
      <trkpt lat="44.80159" lon="6.90546">
        <ele>2049.8</ele>
        <time>2024-12-08T14:27:56Z</time>
      </trkpt>
      <trkpt lat="44.80159" lon="6.90546">
        <ele>2049.8</ele>
        <time>2024-12-08T14:27:59Z</time>
      </trkpt>
      <trkpt lat="44.80159" lon="6.90546">
        <ele>2049.8</ele>
        <time>2024-12-08T14:28:04Z</time>
      </trkpt>
      <trkpt lat="44.8016" lon="6.90529">
        <ele>2050.9</ele>
        <time>2024-12-08T14:28:10Z</time>
      </trkpt>
      <trkpt lat="44.80161" lon="6.90522">
        <ele>2051.3</ele>
        <time>2024-12-08T14:28:16Z</time>
      </trkpt>
      <trkpt lat="44.80162" lon="6.90514">
        <ele>2051.8</ele>
        <time>2024-12-08T14:28:23Z</time>
      </trkpt>
      <trkpt lat="44.80162" lon="6.90512">
        <ele>2051.9</ele>
        <time>2024-12-08T14:28:30Z</time>
      </trkpt>
      <trkpt lat="44.80162" lon="6.90512">
        <ele>2051.9</ele>
        <time>2024-12-08T14:28:36Z</time>
      </trkpt>
      <trkpt lat="44.80162" lon="6.90512">
        <ele>2051.9</ele>
        <time>2024-12-08T14:28:42Z</time>
      </trkpt>
      <trkpt lat="44.80165" lon="6.9049">
        <ele>2052.9</ele>
        <time>2024-12-08T14:28:49Z</time>
      </trkpt>
      <trkpt lat="44.80165" lon="6.9049">
        <ele>2052.9</ele>
        <time>2024-12-08T14:28:58Z</time>
      </trkpt>
      <trkpt lat="44.80169" lon="6.90469">
        <ele>2053.8</ele>
        <time>2024-12-08T14:29:08Z</time>
      </trkpt>
      <trkpt lat="44.8017" lon="6.90462">
        <ele>2054.1</ele>
        <time>2024-12-08T14:29:13Z</time>
      </trkpt>
      <trkpt lat="44.8017" lon="6.90462">
        <ele>2054.1</ele>
        <time>2024-12-08T14:29:20Z</time>
      </trkpt>
      <trkpt lat="44.80173" lon="6.90448">
        <ele>2054.5</ele>
        <time>2024-12-08T14:29:27Z</time>
      </trkpt>
      <trkpt lat="44.80174" lon="6.90443">
        <ele>2054.7</ele>
        <time>2024-12-08T14:29:33Z</time>
      </trkpt>
      <trkpt lat="44.80175" lon="6.90437">
        <ele>2054.9</ele>
        <time>2024-12-08T14:29:41Z</time>
      </trkpt>
      <trkpt lat="44.80179" lon="6.90419">
        <ele>2055.6</ele>
        <time>2024-12-08T14:29:49Z</time>
      </trkpt>
      <trkpt lat="44.80179" lon="6.90419">
        <ele>2055.6</ele>
        <time>2024-12-08T14:29:55Z</time>
      </trkpt>
      <trkpt lat="44.80179" lon="6.90419">
        <ele>2055.6</ele>
        <time>2024-12-08T14:30:10Z</time>
      </trkpt>
      <trkpt lat="44.80179" lon="6.90419">
        <ele>2055.6</ele>
        <time>2024-12-08T14:30:23Z</time>
      </trkpt>
      <trkpt lat="44.80181" lon="6.90414">
        <ele>2055.8</ele>
        <time>2024-12-08T14:30:30Z</time>
      </trkpt>
      <trkpt lat="44.80185" lon="6.90405">
        <ele>2056.3</ele>
        <time>2024-12-08T14:30:36Z</time>
      </trkpt>
      <trkpt lat="44.8019" lon="6.90396">
        <ele>2056.8</ele>
        <time>2024-12-08T14:30:43Z</time>
      </trkpt>
      <trkpt lat="44.80192" lon="6.90392">
        <ele>2057</ele>
        <time>2024-12-08T14:30:49Z</time>
      </trkpt>
      <trkpt lat="44.80192" lon="6.90392">
        <ele>2057</ele>
        <time>2024-12-08T14:30:55Z</time>
      </trkpt>
      <trkpt lat="44.80196" lon="6.90383">
        <ele>2057.5</ele>
        <time>2024-12-08T14:31:01Z</time>
      </trkpt>
      <trkpt lat="44.80196" lon="6.90383">
        <ele>2057.5</ele>
        <time>2024-12-08T14:31:09Z</time>
      </trkpt>
      <trkpt lat="44.80204" lon="6.90366">
        <ele>2058.3</ele>
        <time>2024-12-08T14:31:14Z</time>
      </trkpt>
      <trkpt lat="44.80207" lon="6.90359">
        <ele>2058.7</ele>
        <time>2024-12-08T14:31:20Z</time>
      </trkpt>
      <trkpt lat="44.80209" lon="6.90356">
        <ele>2058.9</ele>
        <time>2024-12-08T14:31:27Z</time>
      </trkpt>
      <trkpt lat="44.80209" lon="6.90356">
        <ele>2058.9</ele>
        <time>2024-12-08T14:31:35Z</time>
      </trkpt>
      <trkpt lat="44.80216" lon="6.90348">
        <ele>2059.4</ele>
        <time>2024-12-08T14:31:41Z</time>
      </trkpt>
      <trkpt lat="44.80218" lon="6.90346">
        <ele>2059.5</ele>
        <time>2024-12-08T14:31:47Z</time>
      </trkpt>
      <trkpt lat="44.80221" lon="6.90342">
        <ele>2059.7</ele>
        <time>2024-12-08T14:31:52Z</time>
      </trkpt>
      <trkpt lat="44.80223" lon="6.9034">
        <ele>2059.8</ele>
        <time>2024-12-08T14:31:57Z</time>
      </trkpt>
      <trkpt lat="44.8023" lon="6.90336">
        <ele>2060.1</ele>
        <time>2024-12-08T14:32:03Z</time>
      </trkpt>
      <trkpt lat="44.80235" lon="6.90334">
        <ele>2060.3</ele>
        <time>2024-12-08T14:32:09Z</time>
      </trkpt>
      <trkpt lat="44.80237" lon="6.90333">
        <ele>2060.4</ele>
        <time>2024-12-08T14:32:15Z</time>
      </trkpt>
      <trkpt lat="44.80239" lon="6.90332">
        <ele>2060.5</ele>
        <time>2024-12-08T14:32:16Z</time>
      </trkpt>
      <trkpt lat="44.80243" lon="6.90331">
        <ele>2060.7</ele>
        <time>2024-12-08T14:32:20Z</time>
      </trkpt>
      <trkpt lat="44.80245" lon="6.9033">
        <ele>2060.8</ele>
        <time>2024-12-08T14:32:25Z</time>
      </trkpt>
      <trkpt lat="44.80245" lon="6.9033">
        <ele>2060.8</ele>
        <time>2024-12-08T14:32:30Z</time>
      </trkpt>
      <trkpt lat="44.80252" lon="6.90327">
        <ele>2061</ele>
        <time>2024-12-08T14:32:36Z</time>
      </trkpt>
      <trkpt lat="44.80252" lon="6.90327">
        <ele>2061</ele>
        <time>2024-12-08T14:32:44Z</time>
      </trkpt>
      <trkpt lat="44.80252" lon="6.90327">
        <ele>2061</ele>
        <time>2024-12-08T14:32:50Z</time>
      </trkpt>
      <trkpt lat="44.80252" lon="6.90327">
        <ele>2061</ele>
        <time>2024-12-08T14:32:56Z</time>
      </trkpt>
      <trkpt lat="44.80252" lon="6.90327">
        <ele>2061</ele>
        <time>2024-12-08T14:33:04Z</time>
      </trkpt>
      <trkpt lat="44.80252" lon="6.90327">
        <ele>2061</ele>
        <time>2024-12-08T14:33:09Z</time>
      </trkpt>
      <trkpt lat="44.80252" lon="6.90327">
        <ele>2061</ele>
        <time>2024-12-08T14:33:16Z</time>
      </trkpt>
      <trkpt lat="44.80252" lon="6.90327">
        <ele>2061</ele>
        <time>2024-12-08T14:33:23Z</time>
      </trkpt>
      <trkpt lat="44.80252" lon="6.90327">
        <ele>2061</ele>
        <time>2024-12-08T14:33:29Z</time>
      </trkpt>
      <trkpt lat="44.80252" lon="6.90327">
        <ele>2061</ele>
        <time>2024-12-08T14:33:34Z</time>
      </trkpt>
      <trkpt lat="44.80252" lon="6.90327">
        <ele>2061</ele>
        <time>2024-12-08T14:33:40Z</time>
      </trkpt>
      <trkpt lat="44.80252" lon="6.90327">
        <ele>2061</ele>
        <time>2024-12-08T14:33:47Z</time>
      </trkpt>
      <trkpt lat="44.80252" lon="6.90327">
        <ele>2061</ele>
        <time>2024-12-08T14:33:52Z</time>
      </trkpt>
      <trkpt lat="44.80252" lon="6.90327">
        <ele>2061</ele>
        <time>2024-12-08T14:33:58Z</time>
      </trkpt>
      <trkpt lat="44.80252" lon="6.90327">
        <ele>2061</ele>
        <time>2024-12-08T14:34:05Z</time>
      </trkpt>
      <trkpt lat="44.8029" lon="6.90319">
        <ele>2063.4</ele>
        <time>2024-12-08T14:34:11Z</time>
      </trkpt>
      <trkpt lat="44.8029" lon="6.90319">
        <ele>2063.4</ele>
        <time>2024-12-08T14:34:19Z</time>
      </trkpt>
      <trkpt lat="44.8029" lon="6.90319">
        <ele>2063.4</ele>
        <time>2024-12-08T14:34:35Z</time>
      </trkpt>
      <trkpt lat="44.8029" lon="6.90319">
        <ele>2063.4</ele>
        <time>2024-12-08T14:34:46Z</time>
      </trkpt>
      <trkpt lat="44.8029" lon="6.90319">
        <ele>2063.4</ele>
        <time>2024-12-08T14:34:56Z</time>
      </trkpt>
      <trkpt lat="44.8029" lon="6.90319">
        <ele>2063.4</ele>
        <time>2024-12-08T14:35:02Z</time>
      </trkpt>
      <trkpt lat="44.8029" lon="6.90319">
        <ele>2063.4</ele>
        <time>2024-12-08T14:35:08Z</time>
      </trkpt>
      <trkpt lat="44.80267" lon="6.90321">
        <ele>2061.6</ele>
        <time>2024-12-08T14:35:14Z</time>
      </trkpt>
      <trkpt lat="44.80267" lon="6.90321">
        <ele>2061.6</ele>
        <time>2024-12-08T14:35:20Z</time>
      </trkpt>
      <trkpt lat="44.80267" lon="6.90321">
        <ele>2061.6</ele>
        <time>2024-12-08T14:35:27Z</time>
      </trkpt>
      <trkpt lat="44.80267" lon="6.90321">
        <ele>2061.6</ele>
        <time>2024-12-08T14:35:32Z</time>
      </trkpt>
      <trkpt lat="44.80257" lon="6.90325">
        <ele>2061.2</ele>
        <time>2024-12-08T14:35:38Z</time>
      </trkpt>
      <trkpt lat="44.80252" lon="6.90327">
        <ele>2061</ele>
        <time>2024-12-08T14:35:43Z</time>
      </trkpt>
      <trkpt lat="44.80249" lon="6.90328">
        <ele>2060.9</ele>
        <time>2024-12-08T14:35:48Z</time>
      </trkpt>
      <trkpt lat="44.80242" lon="6.90331">
        <ele>2060.7</ele>
        <time>2024-12-08T14:35:54Z</time>
      </trkpt>
      <trkpt lat="44.8024" lon="6.90332">
        <ele>2060.6</ele>
        <time>2024-12-08T14:35:56Z</time>
      </trkpt>
      <trkpt lat="44.80243" lon="6.90344">
        <ele>2060.2</ele>
        <time>2024-12-08T14:35:59Z</time>
      </trkpt>
      <trkpt lat="44.80238" lon="6.90343">
        <ele>2060</ele>
        <time>2024-12-08T14:36:04Z</time>
      </trkpt>
      <trkpt lat="44.80231" lon="6.90336">
        <ele>2059.6</ele>
        <time>2024-12-08T14:36:11Z</time>
      </trkpt>
      <trkpt lat="44.80231" lon="6.90336">
        <ele>2059.6</ele>
        <time>2024-12-08T14:36:17Z</time>
      </trkpt>
      <trkpt lat="44.80231" lon="6.90336">
        <ele>2059.6</ele>
        <time>2024-12-08T14:36:23Z</time>
      </trkpt>
      <trkpt lat="44.8022" lon="6.90344">
        <ele>2059</ele>
        <time>2024-12-08T14:36:29Z</time>
      </trkpt>
      <trkpt lat="44.80216" lon="6.90348">
        <ele>2058.7</ele>
        <time>2024-12-08T14:36:30Z</time>
      </trkpt>
      <trkpt lat="44.80215" lon="6.90349">
        <ele>2058.6</ele>
        <time>2024-12-08T14:36:34Z</time>
      </trkpt>
      <trkpt lat="44.8021" lon="6.90355">
        <ele>2058.2</ele>
        <time>2024-12-08T14:36:40Z</time>
      </trkpt>
      <trkpt lat="44.80207" lon="6.90359">
        <ele>2058</ele>
        <time>2024-12-08T14:36:46Z</time>
      </trkpt>
      <trkpt lat="44.80203" lon="6.90368">
        <ele>2057.5</ele>
        <time>2024-12-08T14:36:53Z</time>
      </trkpt>
      <trkpt lat="44.802" lon="6.90375">
        <ele>2057.1</ele>
        <time>2024-12-08T14:36:59Z</time>
      </trkpt>
      <trkpt lat="44.80199" lon="6.90376">
        <ele>2057.1</ele>
        <time>2024-12-08T14:37:00Z</time>
      </trkpt>
      <trkpt lat="44.80195" lon="6.90385">
        <ele>2056.6</ele>
        <time>2024-12-08T14:37:06Z</time>
      </trkpt>
      <trkpt lat="44.80191" lon="6.90394">
        <ele>2056.2</ele>
        <time>2024-12-08T14:37:12Z</time>
      </trkpt>
      <trkpt lat="44.80187" lon="6.90401">
        <ele>2055.8</ele>
        <time>2024-12-08T14:37:17Z</time>
      </trkpt>
      <trkpt lat="44.80183" lon="6.9041">
        <ele>2055.4</ele>
        <time>2024-12-08T14:37:25Z</time>
      </trkpt>
      <trkpt lat="44.80179" lon="6.90419">
        <ele>2055</ele>
        <time>2024-12-08T14:37:32Z</time>
      </trkpt>
      <trkpt lat="44.80177" lon="6.90426">
        <ele>2054.8</ele>
        <time>2024-12-08T14:37:38Z</time>
      </trkpt>
      <trkpt lat="44.80177" lon="6.90426">
        <ele>2054.8</ele>
        <time>2024-12-08T14:37:58Z</time>
      </trkpt>
      <trkpt lat="44.80176" lon="6.9043">
        <ele>2054.6</ele>
        <time>2024-12-08T14:38:05Z</time>
      </trkpt>
      <trkpt lat="44.80176" lon="6.90432">
        <ele>2054.6</ele>
        <time>2024-12-08T14:38:10Z</time>
      </trkpt>
      <trkpt lat="44.80176" lon="6.90432">
        <ele>2054.6</ele>
        <time>2024-12-08T14:38:11Z</time>
      </trkpt>
      <trkpt lat="44.80174" lon="6.9044">
        <ele>2054.3</ele>
        <time>2024-12-08T14:38:14Z</time>
      </trkpt>
      <trkpt lat="44.80172" lon="6.90453">
        <ele>2053.9</ele>
        <time>2024-12-08T14:38:22Z</time>
      </trkpt>
      <trkpt lat="44.80169" lon="6.90465">
        <ele>2053.4</ele>
        <time>2024-12-08T14:38:30Z</time>
      </trkpt>
      <trkpt lat="44.80168" lon="6.90473">
        <ele>2053</ele>
        <time>2024-12-08T14:38:36Z</time>
      </trkpt>
      <trkpt lat="44.80167" lon="6.90475">
        <ele>2053</ele>
        <time>2024-12-08T14:38:37Z</time>
      </trkpt>
      <trkpt lat="44.80166" lon="6.90483">
        <ele>2052.6</ele>
        <time>2024-12-08T14:38:42Z</time>
      </trkpt>
      <trkpt lat="44.80166" lon="6.90484">
        <ele>2052.6</ele>
        <time>2024-12-08T14:38:43Z</time>
      </trkpt>
      <trkpt lat="44.80165" lon="6.90489">
        <ele>2052.3</ele>
        <time>2024-12-08T14:38:47Z</time>
      </trkpt>
      <trkpt lat="44.80164" lon="6.90495">
        <ele>2052</ele>
        <time>2024-12-08T14:38:51Z</time>
      </trkpt>
      <trkpt lat="44.80162" lon="6.90502">
        <ele>2051.7</ele>
        <time>2024-12-08T14:38:56Z</time>
      </trkpt>
      <trkpt lat="44.80162" lon="6.90503">
        <ele>2051.6</ele>
        <time>2024-12-08T14:38:57Z</time>
      </trkpt>
      <trkpt lat="44.80161" lon="6.90515">
        <ele>2051</ele>
        <time>2024-12-08T14:39:04Z</time>
      </trkpt>
      <trkpt lat="44.80161" lon="6.90518">
        <ele>2050.8</ele>
        <time>2024-12-08T14:39:06Z</time>
      </trkpt>
      <trkpt lat="44.80161" lon="6.90522">
        <ele>2050.5</ele>
        <time>2024-12-08T14:39:08Z</time>
      </trkpt>
      <trkpt lat="44.8016" lon="6.90528">
        <ele>2050.1</ele>
        <time>2024-12-08T14:39:14Z</time>
      </trkpt>
      <trkpt lat="44.8016" lon="6.90536">
        <ele>2049.6</ele>
        <time>2024-12-08T14:39:20Z</time>
      </trkpt>
      <trkpt lat="44.80159" lon="6.90546">
        <ele>2048.9</ele>
        <time>2024-12-08T14:39:26Z</time>
      </trkpt>
      <trkpt lat="44.80159" lon="6.90554">
        <ele>2048.4</ele>
        <time>2024-12-08T14:39:32Z</time>
      </trkpt>
      <trkpt lat="44.80158" lon="6.90555">
        <ele>2048.3</ele>
        <time>2024-12-08T14:39:33Z</time>
      </trkpt>
      <trkpt lat="44.80158" lon="6.90565">
        <ele>2047.6</ele>
        <time>2024-12-08T14:39:39Z</time>
      </trkpt>
      <trkpt lat="44.80158" lon="6.90567">
        <ele>2047.5</ele>
        <time>2024-12-08T14:39:40Z</time>
      </trkpt>
      <trkpt lat="44.80157" lon="6.9057">
        <ele>2047.2</ele>
        <time>2024-12-08T14:39:42Z</time>
      </trkpt>
      <trkpt lat="44.80157" lon="6.90573">
        <ele>2047</ele>
        <time>2024-12-08T14:39:43Z</time>
      </trkpt>
      <trkpt lat="44.80157" lon="6.90577">
        <ele>2046.7</ele>
        <time>2024-12-08T14:39:45Z</time>
      </trkpt>
      <trkpt lat="44.80156" lon="6.90582">
        <ele>2046.3</ele>
        <time>2024-12-08T14:39:48Z</time>
      </trkpt>
      <trkpt lat="44.80156" lon="6.90584">
        <ele>2046.2</ele>
        <time>2024-12-08T14:39:49Z</time>
      </trkpt>
      <trkpt lat="44.80156" lon="6.90589">
        <ele>2045.8</ele>
        <time>2024-12-08T14:39:52Z</time>
      </trkpt>
      <trkpt lat="44.80156" lon="6.90593">
        <ele>2045.5</ele>
        <time>2024-12-08T14:39:54Z</time>
      </trkpt>
      <trkpt lat="44.80156" lon="6.90598">
        <ele>2045</ele>
        <time>2024-12-08T14:39:57Z</time>
      </trkpt>
      <trkpt lat="44.80156" lon="6.90602">
        <ele>2044.8</ele>
        <time>2024-12-08T14:39:59Z</time>
      </trkpt>
      <trkpt lat="44.80157" lon="6.90606">
        <ele>2044.4</ele>
        <time>2024-12-08T14:40:01Z</time>
      </trkpt>
      <trkpt lat="44.80157" lon="6.9062">
        <ele>2043.1</ele>
        <time>2024-12-08T14:40:07Z</time>
      </trkpt>
      <trkpt lat="44.80158" lon="6.90633">
        <ele>2042</ele>
        <time>2024-12-08T14:40:13Z</time>
      </trkpt>
      <trkpt lat="44.80158" lon="6.90644">
        <ele>2041</ele>
        <time>2024-12-08T14:40:19Z</time>
      </trkpt>
      <trkpt lat="44.80158" lon="6.90652">
        <ele>2040.3</ele>
        <time>2024-12-08T14:40:24Z</time>
      </trkpt>
      <trkpt lat="44.80158" lon="6.90654">
        <ele>2040.1</ele>
        <time>2024-12-08T14:40:25Z</time>
      </trkpt>
      <trkpt lat="44.80159" lon="6.90659">
        <ele>2039.6</ele>
        <time>2024-12-08T14:40:28Z</time>
      </trkpt>
      <trkpt lat="44.8016" lon="6.90662">
        <ele>2039.4</ele>
        <time>2024-12-08T14:40:30Z</time>
      </trkpt>
      <trkpt lat="44.80161" lon="6.90672">
        <ele>2038.5</ele>
        <time>2024-12-08T14:40:37Z</time>
      </trkpt>
      <trkpt lat="44.80162" lon="6.90682">
        <ele>2037.6</ele>
        <time>2024-12-08T14:40:43Z</time>
      </trkpt>
      <trkpt lat="44.80164" lon="6.90695">
        <ele>2036.5</ele>
        <time>2024-12-08T14:40:50Z</time>
      </trkpt>
      <trkpt lat="44.80164" lon="6.90701">
        <ele>2036</ele>
        <time>2024-12-08T14:40:55Z</time>
      </trkpt>
      <trkpt lat="44.80164" lon="6.90701">
        <ele>2036</ele>
        <time>2024-12-08T14:41:01Z</time>
      </trkpt>
      <trkpt lat="44.80166" lon="6.90715">
        <ele>2034.8</ele>
        <time>2024-12-08T14:41:07Z</time>
      </trkpt>
      <trkpt lat="44.80167" lon="6.90723">
        <ele>2034.1</ele>
        <time>2024-12-08T14:41:13Z</time>
      </trkpt>
      <trkpt lat="44.80169" lon="6.90734">
        <ele>2033.2</ele>
        <time>2024-12-08T14:41:19Z</time>
      </trkpt>
      <trkpt lat="44.80169" lon="6.90735">
        <ele>2033.1</ele>
        <time>2024-12-08T14:41:20Z</time>
      </trkpt>
      <trkpt lat="44.8017" lon="6.90741">
        <ele>2032.5</ele>
        <time>2024-12-08T14:41:23Z</time>
      </trkpt>
      <trkpt lat="44.80171" lon="6.90749">
        <ele>2031.8</ele>
        <time>2024-12-08T14:41:28Z</time>
      </trkpt>
      <trkpt lat="44.80171" lon="6.90753">
        <ele>2031.5</ele>
        <time>2024-12-08T14:41:31Z</time>
      </trkpt>
      <trkpt lat="44.80172" lon="6.90757">
        <ele>2031.1</ele>
        <time>2024-12-08T14:41:33Z</time>
      </trkpt>
      <trkpt lat="44.80173" lon="6.90764">
        <ele>2030.5</ele>
        <time>2024-12-08T14:41:37Z</time>
      </trkpt>
      <trkpt lat="44.80173" lon="6.9077">
        <ele>2030</ele>
        <time>2024-12-08T14:41:40Z</time>
      </trkpt>
      <trkpt lat="44.80175" lon="6.90779">
        <ele>2029.2</ele>
        <time>2024-12-08T14:41:46Z</time>
      </trkpt>
      <trkpt lat="44.80176" lon="6.90787">
        <ele>2028.5</ele>
        <time>2024-12-08T14:41:53Z</time>
      </trkpt>
      <trkpt lat="44.8018" lon="6.90799">
        <ele>2027.3</ele>
        <time>2024-12-08T14:42:01Z</time>
      </trkpt>
      <trkpt lat="44.80181" lon="6.90804">
        <ele>2026.9</ele>
        <time>2024-12-08T14:42:07Z</time>
      </trkpt>
      <trkpt lat="44.80178" lon="6.90815">
        <ele>2025.5</ele>
        <time>2024-12-08T14:42:13Z</time>
      </trkpt>
      <trkpt lat="44.80176" lon="6.90821">
        <ele>2024.7</ele>
        <time>2024-12-08T14:42:18Z</time>
      </trkpt>
      <trkpt lat="44.80173" lon="6.90827">
        <ele>2023.9</ele>
        <time>2024-12-08T14:42:25Z</time>
      </trkpt>
      <trkpt lat="44.80173" lon="6.90831">
        <ele>2023.4</ele>
        <time>2024-12-08T14:42:27Z</time>
      </trkpt>
      <trkpt lat="44.80172" lon="6.90835">
        <ele>2023</ele>
        <time>2024-12-08T14:42:31Z</time>
      </trkpt>
      <trkpt lat="44.80171" lon="6.90844">
        <ele>2022</ele>
        <time>2024-12-08T14:42:37Z</time>
      </trkpt>
      <trkpt lat="44.8017" lon="6.90853">
        <ele>2021</ele>
        <time>2024-12-08T14:42:44Z</time>
      </trkpt>
      <trkpt lat="44.80169" lon="6.90861">
        <ele>2020.1</ele>
        <time>2024-12-08T14:42:50Z</time>
      </trkpt>
      <trkpt lat="44.80167" lon="6.90871">
        <ele>2019.1</ele>
        <time>2024-12-08T14:42:56Z</time>
      </trkpt>
      <trkpt lat="44.80166" lon="6.90877">
        <ele>2018.4</ele>
        <time>2024-12-08T14:43:01Z</time>
      </trkpt>
      <trkpt lat="44.80165" lon="6.90889">
        <ele>2017.1</ele>
        <time>2024-12-08T14:43:08Z</time>
      </trkpt>
      <trkpt lat="44.80164" lon="6.90895">
        <ele>2016.4</ele>
        <time>2024-12-08T14:43:15Z</time>
      </trkpt>
      <trkpt lat="44.80163" lon="6.909">
        <ele>2015.9</ele>
        <time>2024-12-08T14:43:20Z</time>
      </trkpt>
      <trkpt lat="44.80162" lon="6.90908">
        <ele>2015</ele>
        <time>2024-12-08T14:43:25Z</time>
      </trkpt>
      <trkpt lat="44.80161" lon="6.90917">
        <ele>2014</ele>
        <time>2024-12-08T14:43:32Z</time>
      </trkpt>
      <trkpt lat="44.8016" lon="6.90926">
        <ele>2013.1</ele>
        <time>2024-12-08T14:43:37Z</time>
      </trkpt>
      <trkpt lat="44.80159" lon="6.90928">
        <ele>2012.9</ele>
        <time>2024-12-08T14:43:44Z</time>
      </trkpt>
      <trkpt lat="44.80159" lon="6.90934">
        <ele>2012.2</ele>
        <time>2024-12-08T14:43:51Z</time>
      </trkpt>
      <trkpt lat="44.80154" lon="6.90946">
        <ele>2010.5</ele>
        <time>2024-12-08T14:43:59Z</time>
      </trkpt>
      <trkpt lat="44.80153" lon="6.90957">
        <ele>2009.1</ele>
        <time>2024-12-08T14:44:06Z</time>
      </trkpt>
      <trkpt lat="44.80153" lon="6.90964">
        <ele>2008.3</ele>
        <time>2024-12-08T14:44:13Z</time>
      </trkpt>
      <trkpt lat="44.80153" lon="6.90972">
        <ele>2007.2</ele>
        <time>2024-12-08T14:44:18Z</time>
      </trkpt>
      <trkpt lat="44.80152" lon="6.90982">
        <ele>2006.1</ele>
        <time>2024-12-08T14:44:24Z</time>
      </trkpt>
      <trkpt lat="44.80152" lon="6.90992">
        <ele>2004.9</ele>
        <time>2024-12-08T14:44:30Z</time>
      </trkpt>
      <trkpt lat="44.80151" lon="6.91004">
        <ele>2003.5</ele>
        <time>2024-12-08T14:44:38Z</time>
      </trkpt>
      <trkpt lat="44.80151" lon="6.91016">
        <ele>2002.3</ele>
        <time>2024-12-08T14:44:44Z</time>
      </trkpt>
      <trkpt lat="44.8015" lon="6.9103">
        <ele>2000.9</ele>
        <time>2024-12-08T14:44:51Z</time>
      </trkpt>
      <trkpt lat="44.8015" lon="6.91046">
        <ele>1999.3</ele>
        <time>2024-12-08T14:45:00Z</time>
      </trkpt>
      <trkpt lat="44.8015" lon="6.91053">
        <ele>1998.7</ele>
        <time>2024-12-08T14:45:06Z</time>
      </trkpt>
      <trkpt lat="44.8015" lon="6.91053">
        <ele>1998.7</ele>
        <time>2024-12-08T14:45:13Z</time>
      </trkpt>
      <trkpt lat="44.8015" lon="6.91053">
        <ele>1998.7</ele>
        <time>2024-12-08T14:45:24Z</time>
      </trkpt>
      <trkpt lat="44.8015" lon="6.91053">
        <ele>1998.7</ele>
        <time>2024-12-08T14:45:29Z</time>
      </trkpt>
      <trkpt lat="44.80151" lon="6.91061">
        <ele>1998.2</ele>
        <time>2024-12-08T14:45:34Z</time>
      </trkpt>
      <trkpt lat="44.80151" lon="6.91061">
        <ele>1998.2</ele>
        <time>2024-12-08T14:45:44Z</time>
      </trkpt>
      <trkpt lat="44.80152" lon="6.91063">
        <ele>1998.1</ele>
        <time>2024-12-08T14:45:49Z</time>
      </trkpt>
      <trkpt lat="44.80153" lon="6.91073">
        <ele>1997.6</ele>
        <time>2024-12-08T14:45:55Z</time>
      </trkpt>
      <trkpt lat="44.80154" lon="6.91074">
        <ele>1997.5</ele>
        <time>2024-12-08T14:45:56Z</time>
      </trkpt>
      <trkpt lat="44.80154" lon="6.91079">
        <ele>1997.3</ele>
        <time>2024-12-08T14:45:59Z</time>
      </trkpt>
      <trkpt lat="44.80156" lon="6.91091">
        <ele>1996.5</ele>
        <time>2024-12-08T14:46:07Z</time>
      </trkpt>
      <trkpt lat="44.80155" lon="6.91095">
        <ele>1996.2</ele>
        <time>2024-12-08T14:46:10Z</time>
      </trkpt>
      <trkpt lat="44.80155" lon="6.91098">
        <ele>1996</ele>
        <time>2024-12-08T14:46:12Z</time>
      </trkpt>
      <trkpt lat="44.80154" lon="6.91099">
        <ele>1995.9</ele>
        <time>2024-12-08T14:46:13Z</time>
      </trkpt>
      <trkpt lat="44.80153" lon="6.91108">
        <ele>1995.3</ele>
        <time>2024-12-08T14:46:17Z</time>
      </trkpt>
      <trkpt lat="44.80153" lon="6.91111">
        <ele>1995</ele>
        <time>2024-12-08T14:46:19Z</time>
      </trkpt>
      <trkpt lat="44.80152" lon="6.91116">
        <ele>1994.7</ele>
        <time>2024-12-08T14:46:22Z</time>
      </trkpt>
      <trkpt lat="44.80152" lon="6.91119">
        <ele>1994.4</ele>
        <time>2024-12-08T14:46:24Z</time>
      </trkpt>
      <trkpt lat="44.80152" lon="6.9112">
        <ele>1994.3</ele>
        <time>2024-12-08T14:46:25Z</time>
      </trkpt>
      <trkpt lat="44.8015" lon="6.9113">
        <ele>1993.5</ele>
        <time>2024-12-08T14:46:30Z</time>
      </trkpt>
      <trkpt lat="44.80149" lon="6.91137">
        <ele>1993</ele>
        <time>2024-12-08T14:46:36Z</time>
      </trkpt>
      <trkpt lat="44.80148" lon="6.91145">
        <ele>1992.3</ele>
        <time>2024-12-08T14:46:43Z</time>
      </trkpt>
      <trkpt lat="44.80147" lon="6.91154">
        <ele>1991.6</ele>
        <time>2024-12-08T14:46:49Z</time>
      </trkpt>
      <trkpt lat="44.80146" lon="6.91163">
        <ele>1990.9</ele>
        <time>2024-12-08T14:46:55Z</time>
      </trkpt>
      <trkpt lat="44.80145" lon="6.91169">
        <ele>1990.5</ele>
        <time>2024-12-08T14:47:01Z</time>
      </trkpt>
      <trkpt lat="44.80145" lon="6.91174">
        <ele>1990.2</ele>
        <time>2024-12-08T14:47:06Z</time>
      </trkpt>
      <trkpt lat="44.80145" lon="6.91174">
        <ele>1990.2</ele>
        <time>2024-12-08T14:47:15Z</time>
      </trkpt>
      <trkpt lat="44.80142" lon="6.91191">
        <ele>1989.1</ele>
        <time>2024-12-08T14:47:23Z</time>
      </trkpt>
      <trkpt lat="44.80141" lon="6.912">
        <ele>1988.6</ele>
        <time>2024-12-08T14:47:29Z</time>
      </trkpt>
      <trkpt lat="44.80141" lon="6.9121">
        <ele>1988</ele>
        <time>2024-12-08T14:47:36Z</time>
      </trkpt>
      <trkpt lat="44.80141" lon="6.91218">
        <ele>1987.5</ele>
        <time>2024-12-08T14:47:41Z</time>
      </trkpt>
      <trkpt lat="44.80141" lon="6.9122">
        <ele>1987.4</ele>
        <time>2024-12-08T14:47:42Z</time>
      </trkpt>
      <trkpt lat="44.80141" lon="6.91229">
        <ele>1986.8</ele>
        <time>2024-12-08T14:47:47Z</time>
      </trkpt>
      <trkpt lat="44.80141" lon="6.91242">
        <ele>1986</ele>
        <time>2024-12-08T14:47:55Z</time>
      </trkpt>
      <trkpt lat="44.80141" lon="6.91258">
        <ele>1984.9</ele>
        <time>2024-12-08T14:48:02Z</time>
      </trkpt>
      <trkpt lat="44.80141" lon="6.9127">
        <ele>1984</ele>
        <time>2024-12-08T14:48:09Z</time>
      </trkpt>
      <trkpt lat="44.80141" lon="6.91276">
        <ele>1983.6</ele>
        <time>2024-12-08T14:48:16Z</time>
      </trkpt>
      <trkpt lat="44.80141" lon="6.91291">
        <ele>1982.5</ele>
        <time>2024-12-08T14:48:22Z</time>
      </trkpt>
      <trkpt lat="44.80141" lon="6.91303">
        <ele>1981.6</ele>
        <time>2024-12-08T14:48:28Z</time>
      </trkpt>
      <trkpt lat="44.80141" lon="6.91305">
        <ele>1981.4</ele>
        <time>2024-12-08T14:48:29Z</time>
      </trkpt>
      <trkpt lat="44.80141" lon="6.91311">
        <ele>1980.9</ele>
        <time>2024-12-08T14:48:31Z</time>
      </trkpt>
      <trkpt lat="44.80142" lon="6.91321">
        <ele>1980.1</ele>
        <time>2024-12-08T14:48:33Z</time>
      </trkpt>
      <trkpt lat="44.80141" lon="6.91327">
        <ele>1979.6</ele>
        <time>2024-12-08T14:48:38Z</time>
      </trkpt>
      <trkpt lat="44.80141" lon="6.91343">
        <ele>1978.2</ele>
        <time>2024-12-08T14:48:44Z</time>
      </trkpt>
      <trkpt lat="44.80142" lon="6.9135">
        <ele>1977.7</ele>
        <time>2024-12-08T14:48:45Z</time>
      </trkpt>
      <trkpt lat="44.80142" lon="6.91356">
        <ele>1977.2</ele>
        <time>2024-12-08T14:48:48Z</time>
      </trkpt>
      <trkpt lat="44.80144" lon="6.9137">
        <ele>1976.3</ele>
        <time>2024-12-08T14:48:54Z</time>
      </trkpt>
      <trkpt lat="44.80145" lon="6.91378">
        <ele>1975.8</ele>
        <time>2024-12-08T14:49:00Z</time>
      </trkpt>
      <trkpt lat="44.80147" lon="6.91392">
        <ele>1974.9</ele>
        <time>2024-12-08T14:49:06Z</time>
      </trkpt>
      <trkpt lat="44.80147" lon="6.91395">
        <ele>1974.7</ele>
        <time>2024-12-08T14:49:08Z</time>
      </trkpt>
      <trkpt lat="44.80148" lon="6.91402">
        <ele>1974.4</ele>
        <time>2024-12-08T14:49:13Z</time>
      </trkpt>
      <trkpt lat="44.80149" lon="6.9141">
        <ele>1974</ele>
        <time>2024-12-08T14:49:16Z</time>
      </trkpt>
      <trkpt lat="44.8015" lon="6.91415">
        <ele>1973.8</ele>
        <time>2024-12-08T14:49:20Z</time>
      </trkpt>
      <trkpt lat="44.80151" lon="6.91427">
        <ele>1973.2</ele>
        <time>2024-12-08T14:49:27Z</time>
      </trkpt>
      <trkpt lat="44.80155" lon="6.91437">
        <ele>1972.7</ele>
        <time>2024-12-08T14:49:32Z</time>
      </trkpt>
      <trkpt lat="44.8016" lon="6.91448">
        <ele>1972</ele>
        <time>2024-12-08T14:49:37Z</time>
      </trkpt>
      <trkpt lat="44.80161" lon="6.91449">
        <ele>1971.9</ele>
        <time>2024-12-08T14:49:38Z</time>
      </trkpt>
      <trkpt lat="44.80164" lon="6.91455">
        <ele>1971.5</ele>
        <time>2024-12-08T14:49:41Z</time>
      </trkpt>
      <trkpt lat="44.80164" lon="6.91456">
        <ele>1971.4</ele>
        <time>2024-12-08T14:49:42Z</time>
      </trkpt>
      <trkpt lat="44.80164" lon="6.91459">
        <ele>1971.2</ele>
        <time>2024-12-08T14:49:43Z</time>
      </trkpt>
      <trkpt lat="44.80164" lon="6.91465">
        <ele>1970.8</ele>
        <time>2024-12-08T14:49:46Z</time>
      </trkpt>
      <trkpt lat="44.80164" lon="6.91467">
        <ele>1970.7</ele>
        <time>2024-12-08T14:49:47Z</time>
      </trkpt>
      <trkpt lat="44.80163" lon="6.91478">
        <ele>1969.8</ele>
        <time>2024-12-08T14:49:53Z</time>
      </trkpt>
      <trkpt lat="44.80162" lon="6.91498">
        <ele>1968.3</ele>
        <time>2024-12-08T14:50:02Z</time>
      </trkpt>
      <trkpt lat="44.80161" lon="6.91514">
        <ele>1967</ele>
        <time>2024-12-08T14:50:09Z</time>
      </trkpt>
      <trkpt lat="44.8016" lon="6.91527">
        <ele>1966.2</ele>
        <time>2024-12-08T14:50:14Z</time>
      </trkpt>
      <trkpt lat="44.80159" lon="6.91541">
        <ele>1965.2</ele>
        <time>2024-12-08T14:50:20Z</time>
      </trkpt>
      <trkpt lat="44.80159" lon="6.91543">
        <ele>1965</ele>
        <time>2024-12-08T14:50:21Z</time>
      </trkpt>
      <trkpt lat="44.80159" lon="6.91549">
        <ele>1964.5</ele>
        <time>2024-12-08T14:50:24Z</time>
      </trkpt>
      <trkpt lat="44.80159" lon="6.91552">
        <ele>1964.3</ele>
        <time>2024-12-08T14:50:25Z</time>
      </trkpt>
      <trkpt lat="44.80158" lon="6.91563">
        <ele>1963.4</ele>
        <time>2024-12-08T14:50:30Z</time>
      </trkpt>
      <trkpt lat="44.80157" lon="6.91565">
        <ele>1963.2</ele>
        <time>2024-12-08T14:50:31Z</time>
      </trkpt>
      <trkpt lat="44.80156" lon="6.91571">
        <ele>1962.7</ele>
        <time>2024-12-08T14:50:34Z</time>
      </trkpt>
      <trkpt lat="44.80154" lon="6.91577">
        <ele>1962.1</ele>
        <time>2024-12-08T14:50:38Z</time>
      </trkpt>
      <trkpt lat="44.80153" lon="6.91581">
        <ele>1961.7</ele>
        <time>2024-12-08T14:50:40Z</time>
      </trkpt>
      <trkpt lat="44.80151" lon="6.9159">
        <ele>1960.9</ele>
        <time>2024-12-08T14:50:45Z</time>
      </trkpt>
      <trkpt lat="44.80149" lon="6.91598">
        <ele>1960.2</ele>
        <time>2024-12-08T14:50:50Z</time>
      </trkpt>
      <trkpt lat="44.80147" lon="6.91609">
        <ele>1959.5</ele>
        <time>2024-12-08T14:50:56Z</time>
      </trkpt>
      <trkpt lat="44.80147" lon="6.91615">
        <ele>1959.2</ele>
        <time>2024-12-08T14:50:59Z</time>
      </trkpt>
      <trkpt lat="44.80147" lon="6.91619">
        <ele>1959</ele>
        <time>2024-12-08T14:51:01Z</time>
      </trkpt>
      <trkpt lat="44.80147" lon="6.91623">
        <ele>1958.8</ele>
        <time>2024-12-08T14:51:03Z</time>
      </trkpt>
      <trkpt lat="44.80151" lon="6.91629">
        <ele>1958.5</ele>
        <time>2024-12-08T14:51:07Z</time>
      </trkpt>
      <trkpt lat="44.8016" lon="6.91641">
        <ele>1957.7</ele>
        <time>2024-12-08T14:51:15Z</time>
      </trkpt>
      <trkpt lat="44.80162" lon="6.91651">
        <ele>1957.1</ele>
        <time>2024-12-08T14:51:21Z</time>
      </trkpt>
      <trkpt lat="44.80162" lon="6.91652">
        <ele>1957.1</ele>
        <time>2024-12-08T14:51:23Z</time>
      </trkpt>
      <trkpt lat="44.80163" lon="6.91657">
        <ele>1956.7</ele>
        <time>2024-12-08T14:51:25Z</time>
      </trkpt>
      <trkpt lat="44.80163" lon="6.91659">
        <ele>1956.7</ele>
        <time>2024-12-08T14:51:26Z</time>
      </trkpt>
      <trkpt lat="44.80165" lon="6.9167">
        <ele>1956</ele>
        <time>2024-12-08T14:51:32Z</time>
      </trkpt>
      <trkpt lat="44.80164" lon="6.91683">
        <ele>1955.3</ele>
        <time>2024-12-08T14:51:39Z</time>
      </trkpt>
      <trkpt lat="44.80163" lon="6.91696">
        <ele>1954.7</ele>
        <time>2024-12-08T14:51:46Z</time>
      </trkpt>
      <trkpt lat="44.80163" lon="6.91706">
        <ele>1954.2</ele>
        <time>2024-12-08T14:51:52Z</time>
      </trkpt>
      <trkpt lat="44.80161" lon="6.91718">
        <ele>1953.7</ele>
        <time>2024-12-08T14:51:59Z</time>
      </trkpt>
      <trkpt lat="44.8016" lon="6.9173">
        <ele>1953.2</ele>
        <time>2024-12-08T14:52:05Z</time>
      </trkpt>
      <trkpt lat="44.80159" lon="6.91738">
        <ele>1952.9</ele>
        <time>2024-12-08T14:52:10Z</time>
      </trkpt>
      <trkpt lat="44.80157" lon="6.91751">
        <ele>1952.4</ele>
        <time>2024-12-08T14:52:17Z</time>
      </trkpt>
      <trkpt lat="44.80154" lon="6.91763">
        <ele>1952</ele>
        <time>2024-12-08T14:52:24Z</time>
      </trkpt>
      <trkpt lat="44.80151" lon="6.91773">
        <ele>1951.5</ele>
        <time>2024-12-08T14:52:30Z</time>
      </trkpt>
      <trkpt lat="44.80147" lon="6.91783">
        <ele>1951.2</ele>
        <time>2024-12-08T14:52:36Z</time>
      </trkpt>
      <trkpt lat="44.80145" lon="6.9179">
        <ele>1950.9</ele>
        <time>2024-12-08T14:52:41Z</time>
      </trkpt>
      <trkpt lat="44.80142" lon="6.918">
        <ele>1950.6</ele>
        <time>2024-12-08T14:52:47Z</time>
      </trkpt>
      <trkpt lat="44.80139" lon="6.91811">
        <ele>1950.2</ele>
        <time>2024-12-08T14:52:54Z</time>
      </trkpt>
      <trkpt lat="44.80135" lon="6.91824">
        <ele>1949.7</ele>
        <time>2024-12-08T14:53:01Z</time>
      </trkpt>
      <trkpt lat="44.80131" lon="6.91834">
        <ele>1949.2</ele>
        <time>2024-12-08T14:53:07Z</time>
      </trkpt>
      <trkpt lat="44.80128" lon="6.91844">
        <ele>1948.8</ele>
        <time>2024-12-08T14:53:13Z</time>
      </trkpt>
      <trkpt lat="44.80125" lon="6.91854">
        <ele>1948.3</ele>
        <time>2024-12-08T14:53:19Z</time>
      </trkpt>
      <trkpt lat="44.80122" lon="6.91864">
        <ele>1947.9</ele>
        <time>2024-12-08T14:53:25Z</time>
      </trkpt>
      <trkpt lat="44.8012" lon="6.91871">
        <ele>1947.5</ele>
        <time>2024-12-08T14:53:30Z</time>
      </trkpt>
      <trkpt lat="44.8012" lon="6.91873">
        <ele>1947.5</ele>
        <time>2024-12-08T14:53:31Z</time>
      </trkpt>
      <trkpt lat="44.80118" lon="6.91879">
        <ele>1947.1</ele>
        <time>2024-12-08T14:53:35Z</time>
      </trkpt>
      <trkpt lat="44.80114" lon="6.9189">
        <ele>1946.5</ele>
        <time>2024-12-08T14:53:42Z</time>
      </trkpt>
      <trkpt lat="44.80111" lon="6.91903">
        <ele>1945.6</ele>
        <time>2024-12-08T14:53:49Z</time>
      </trkpt>
      <trkpt lat="44.8011" lon="6.91912">
        <ele>1944.8</ele>
        <time>2024-12-08T14:53:55Z</time>
      </trkpt>
      <trkpt lat="44.8011" lon="6.91922">
        <ele>1943.9</ele>
        <time>2024-12-08T14:54:01Z</time>
      </trkpt>
      <trkpt lat="44.80109" lon="6.91932">
        <ele>1942.6</ele>
        <time>2024-12-08T14:54:08Z</time>
      </trkpt>
      <trkpt lat="44.80105" lon="6.91949">
        <ele>1940.5</ele>
        <time>2024-12-08T14:54:16Z</time>
      </trkpt>
      <trkpt lat="44.80105" lon="6.91951">
        <ele>1940.2</ele>
        <time>2024-12-08T14:54:17Z</time>
      </trkpt>
      <trkpt lat="44.80102" lon="6.91959">
        <ele>1939.3</ele>
        <time>2024-12-08T14:54:21Z</time>
      </trkpt>
      <trkpt lat="44.80101" lon="6.91965">
        <ele>1938.6</ele>
        <time>2024-12-08T14:54:24Z</time>
      </trkpt>
      <trkpt lat="44.80098" lon="6.91974">
        <ele>1937.8</ele>
        <time>2024-12-08T14:54:28Z</time>
      </trkpt>
      <trkpt lat="44.80095" lon="6.91985">
        <ele>1936.6</ele>
        <time>2024-12-08T14:54:34Z</time>
      </trkpt>
      <trkpt lat="44.80093" lon="6.91998">
        <ele>1935.3</ele>
        <time>2024-12-08T14:54:40Z</time>
      </trkpt>
      <trkpt lat="44.80093" lon="6.92008">
        <ele>1934.4</ele>
        <time>2024-12-08T14:54:45Z</time>
      </trkpt>
      <trkpt lat="44.80092" lon="6.9201">
        <ele>1934.2</ele>
        <time>2024-12-08T14:54:46Z</time>
      </trkpt>
      <trkpt lat="44.80092" lon="6.92021">
        <ele>1933.1</ele>
        <time>2024-12-08T14:54:51Z</time>
      </trkpt>
      <trkpt lat="44.80091" lon="6.92023">
        <ele>1932.9</ele>
        <time>2024-12-08T14:54:52Z</time>
      </trkpt>
      <trkpt lat="44.8009" lon="6.92038">
        <ele>1931.2</ele>
        <time>2024-12-08T14:54:58Z</time>
      </trkpt>
      <trkpt lat="44.8009" lon="6.9204">
        <ele>1931</ele>
        <time>2024-12-08T14:55:03Z</time>
      </trkpt>
      <trkpt lat="44.8009" lon="6.9204">
        <ele>1931</ele>
        <time>2024-12-08T14:55:15Z</time>
      </trkpt>
      <trkpt lat="44.80089" lon="6.92052">
        <ele>1929.7</ele>
        <time>2024-12-08T14:55:21Z</time>
      </trkpt>
      <trkpt lat="44.80088" lon="6.92063">
        <ele>1928.4</ele>
        <time>2024-12-08T14:55:27Z</time>
      </trkpt>
      <trkpt lat="44.80088" lon="6.92071">
        <ele>1927.5</ele>
        <time>2024-12-08T14:55:32Z</time>
      </trkpt>
      <trkpt lat="44.80087" lon="6.92082">
        <ele>1926.2</ele>
        <time>2024-12-08T14:55:38Z</time>
      </trkpt>
      <trkpt lat="44.80086" lon="6.92091">
        <ele>1925.2</ele>
        <time>2024-12-08T14:55:44Z</time>
      </trkpt>
      <trkpt lat="44.80086" lon="6.92102">
        <ele>1923.9</ele>
        <time>2024-12-08T14:55:50Z</time>
      </trkpt>
      <trkpt lat="44.80083" lon="6.92115">
        <ele>1922.3</ele>
        <time>2024-12-08T14:55:56Z</time>
      </trkpt>
      <trkpt lat="44.8008" lon="6.92126">
        <ele>1920.9</ele>
        <time>2024-12-08T14:56:02Z</time>
      </trkpt>
      <trkpt lat="44.80076" lon="6.92138">
        <ele>1919.3</ele>
        <time>2024-12-08T14:56:09Z</time>
      </trkpt>
      <trkpt lat="44.80073" lon="6.92151">
        <ele>1917.6</ele>
        <time>2024-12-08T14:56:16Z</time>
      </trkpt>
      <trkpt lat="44.80073" lon="6.92164">
        <ele>1915.9</ele>
        <time>2024-12-08T14:56:23Z</time>
      </trkpt>
      <trkpt lat="44.80074" lon="6.92173">
        <ele>1914.7</ele>
        <time>2024-12-08T14:56:28Z</time>
      </trkpt>
      <trkpt lat="44.80074" lon="6.92176">
        <ele>1914.4</ele>
        <time>2024-12-08T14:56:29Z</time>
      </trkpt>
      <trkpt lat="44.80075" lon="6.92182">
        <ele>1913.7</ele>
        <time>2024-12-08T14:56:32Z</time>
      </trkpt>
      <trkpt lat="44.80075" lon="6.92188">
        <ele>1913</ele>
        <time>2024-12-08T14:56:35Z</time>
      </trkpt>
      <trkpt lat="44.80076" lon="6.92193">
        <ele>1912.4</ele>
        <time>2024-12-08T14:56:38Z</time>
      </trkpt>
      <trkpt lat="44.80076" lon="6.92194">
        <ele>1912.2</ele>
        <time>2024-12-08T14:56:39Z</time>
      </trkpt>
      <trkpt lat="44.80077" lon="6.92211">
        <ele>1910.2</ele>
        <time>2024-12-08T14:56:48Z</time>
      </trkpt>
      <trkpt lat="44.80078" lon="6.92217">
        <ele>1909.5</ele>
        <time>2024-12-08T14:56:51Z</time>
      </trkpt>
      <trkpt lat="44.80078" lon="6.92221">
        <ele>1909</ele>
        <time>2024-12-08T14:56:53Z</time>
      </trkpt>
      <trkpt lat="44.8008" lon="6.92234">
        <ele>1907.5</ele>
        <time>2024-12-08T14:56:59Z</time>
      </trkpt>
      <trkpt lat="44.80081" lon="6.92253">
        <ele>1905.2</ele>
        <time>2024-12-08T14:57:07Z</time>
      </trkpt>
      <trkpt lat="44.8008" lon="6.9226">
        <ele>1904.4</ele>
        <time>2024-12-08T14:57:12Z</time>
      </trkpt>
      <trkpt lat="44.80079" lon="6.92274">
        <ele>1902.5</ele>
        <time>2024-12-08T14:57:19Z</time>
      </trkpt>
      <trkpt lat="44.80077" lon="6.92289">
        <ele>1900.6</ele>
        <time>2024-12-08T14:57:27Z</time>
      </trkpt>
      <trkpt lat="44.80079" lon="6.92301">
        <ele>1899</ele>
        <time>2024-12-08T14:57:33Z</time>
      </trkpt>
      <trkpt lat="44.80079" lon="6.92303">
        <ele>1898.8</ele>
        <time>2024-12-08T14:57:34Z</time>
      </trkpt>
      <trkpt lat="44.80084" lon="6.92316">
        <ele>1897.2</ele>
        <time>2024-12-08T14:57:41Z</time>
      </trkpt>
      <trkpt lat="44.8009" lon="6.92319">
        <ele>1896.5</ele>
        <time>2024-12-08T14:57:47Z</time>
      </trkpt>
      <trkpt lat="44.80097" lon="6.92324">
        <ele>1895.5</ele>
        <time>2024-12-08T14:57:54Z</time>
      </trkpt>
      <trkpt lat="44.801" lon="6.92326">
        <ele>1895.1</ele>
        <time>2024-12-08T14:57:57Z</time>
      </trkpt>
      <trkpt lat="44.80104" lon="6.92329">
        <ele>1894.6</ele>
        <time>2024-12-08T14:58:01Z</time>
      </trkpt>
      <trkpt lat="44.80113" lon="6.92335">
        <ele>1893.4</ele>
        <time>2024-12-08T14:58:09Z</time>
      </trkpt>
      <trkpt lat="44.8012" lon="6.92339">
        <ele>1892.5</ele>
        <time>2024-12-08T14:58:15Z</time>
      </trkpt>
      <trkpt lat="44.80122" lon="6.9234">
        <ele>1892.2</ele>
        <time>2024-12-08T14:58:17Z</time>
      </trkpt>
      <trkpt lat="44.80128" lon="6.92342">
        <ele>1891.3</ele>
        <time>2024-12-08T14:58:21Z</time>
      </trkpt>
      <trkpt lat="44.80135" lon="6.92346">
        <ele>1890.1</ele>
        <time>2024-12-08T14:58:26Z</time>
      </trkpt>
      <trkpt lat="44.80137" lon="6.9235">
        <ele>1889.5</ele>
        <time>2024-12-08T14:58:30Z</time>
      </trkpt>
      <trkpt lat="44.80139" lon="6.92353">
        <ele>1889.1</ele>
        <time>2024-12-08T14:58:35Z</time>
      </trkpt>
      <trkpt lat="44.80139" lon="6.92353">
        <ele>1889.1</ele>
        <time>2024-12-08T14:58:36Z</time>
      </trkpt>
      <trkpt lat="44.80128" lon="6.92362">
        <ele>1886.9</ele>
        <time>2024-12-08T14:58:43Z</time>
      </trkpt>
      <trkpt lat="44.8012" lon="6.92361">
        <ele>1885.6</ele>
        <time>2024-12-08T14:58:49Z</time>
      </trkpt>
      <trkpt lat="44.80111" lon="6.92361">
        <ele>1883.9</ele>
        <time>2024-12-08T14:58:57Z</time>
      </trkpt>
      <trkpt lat="44.80104" lon="6.9236">
        <ele>1882.7</ele>
        <time>2024-12-08T14:59:03Z</time>
      </trkpt>
      <trkpt lat="44.80102" lon="6.9236">
        <ele>1882.5</ele>
        <time>2024-12-08T14:59:04Z</time>
      </trkpt>
      <trkpt lat="44.80091" lon="6.92358">
        <ele>1880.5</ele>
        <time>2024-12-08T14:59:12Z</time>
      </trkpt>
      <trkpt lat="44.80084" lon="6.92355">
        <ele>1879.3</ele>
        <time>2024-12-08T14:59:17Z</time>
      </trkpt>
      <trkpt lat="44.80082" lon="6.92355">
        <ele>1879.1</ele>
        <time>2024-12-08T14:59:18Z</time>
      </trkpt>
      <trkpt lat="44.80075" lon="6.92351">
        <ele>1877.8</ele>
        <time>2024-12-08T14:59:23Z</time>
      </trkpt>
      <trkpt lat="44.80066" lon="6.92347">
        <ele>1876</ele>
        <time>2024-12-08T14:59:30Z</time>
      </trkpt>
      <trkpt lat="44.80057" lon="6.92343">
        <ele>1874.3</ele>
        <time>2024-12-08T14:59:39Z</time>
      </trkpt>
      <trkpt lat="44.80053" lon="6.92341">
        <ele>1873.5</ele>
        <time>2024-12-08T14:59:42Z</time>
      </trkpt>
      <trkpt lat="44.80049" lon="6.92338">
        <ele>1872.7</ele>
        <time>2024-12-08T14:59:46Z</time>
      </trkpt>
      <trkpt lat="44.8004" lon="6.92329">
        <ele>1871</ele>
        <time>2024-12-08T14:59:53Z</time>
      </trkpt>
      <trkpt lat="44.80031" lon="6.92319">
        <ele>1869.1</ele>
        <time>2024-12-08T15:00:01Z</time>
      </trkpt>
      <trkpt lat="44.80026" lon="6.92314">
        <ele>1868.1</ele>
        <time>2024-12-08T15:00:09Z</time>
      </trkpt>
      <trkpt lat="44.80015" lon="6.92303">
        <ele>1866.3</ele>
        <time>2024-12-08T15:00:16Z</time>
      </trkpt>
      <trkpt lat="44.8001" lon="6.92289">
        <ele>1864.7</ele>
        <time>2024-12-08T15:00:24Z</time>
      </trkpt>
      <trkpt lat="44.80008" lon="6.92272">
        <ele>1863</ele>
        <time>2024-12-08T15:00:33Z</time>
      </trkpt>
      <trkpt lat="44.80008" lon="6.92258">
        <ele>1861.4</ele>
        <time>2024-12-08T15:00:40Z</time>
      </trkpt>
      <trkpt lat="44.80008" lon="6.92256">
        <ele>1861.2</ele>
        <time>2024-12-08T15:00:41Z</time>
      </trkpt>
      <trkpt lat="44.80008" lon="6.92253">
        <ele>1860.9</ele>
        <time>2024-12-08T15:00:43Z</time>
      </trkpt>
      <trkpt lat="44.80008" lon="6.9225">
        <ele>1860.5</ele>
        <time>2024-12-08T15:00:45Z</time>
      </trkpt>
      <trkpt lat="44.80005" lon="6.92238">
        <ele>1859.1</ele>
        <time>2024-12-08T15:00:52Z</time>
      </trkpt>
      <trkpt lat="44.80001" lon="6.92226">
        <ele>1857.5</ele>
        <time>2024-12-08T15:01:00Z</time>
      </trkpt>
      <trkpt lat="44.79996" lon="6.9221">
        <ele>1855.3</ele>
        <time>2024-12-08T15:01:10Z</time>
      </trkpt>
      <trkpt lat="44.79993" lon="6.922">
        <ele>1853.9</ele>
        <time>2024-12-08T15:01:17Z</time>
      </trkpt>
      <trkpt lat="44.79991" lon="6.92191">
        <ele>1852.7</ele>
        <time>2024-12-08T15:01:23Z</time>
      </trkpt>
      <trkpt lat="44.79988" lon="6.9218">
        <ele>1851.3</ele>
        <time>2024-12-08T15:01:29Z</time>
      </trkpt>
      <trkpt lat="44.79985" lon="6.92165">
        <ele>1849.6</ele>
        <time>2024-12-08T15:01:37Z</time>
      </trkpt>
      <trkpt lat="44.79982" lon="6.92151">
        <ele>1848.1</ele>
        <time>2024-12-08T15:01:44Z</time>
      </trkpt>
      <trkpt lat="44.79978" lon="6.92133">
        <ele>1846.2</ele>
        <time>2024-12-08T15:01:53Z</time>
      </trkpt>
      <trkpt lat="44.79975" lon="6.9212">
        <ele>1844.6</ele>
        <time>2024-12-08T15:02:01Z</time>
      </trkpt>
      <trkpt lat="44.7997" lon="6.92107">
        <ele>1843.2</ele>
        <time>2024-12-08T15:02:08Z</time>
      </trkpt>
      <trkpt lat="44.79964" lon="6.9209">
        <ele>1841.5</ele>
        <time>2024-12-08T15:02:17Z</time>
      </trkpt>
      <trkpt lat="44.79963" lon="6.92086">
        <ele>1841.2</ele>
        <time>2024-12-08T15:02:23Z</time>
      </trkpt>
      <trkpt lat="44.79961" lon="6.92079">
        <ele>1840.6</ele>
        <time>2024-12-08T15:02:31Z</time>
      </trkpt>
      <trkpt lat="44.79965" lon="6.92066">
        <ele>1839.7</ele>
        <time>2024-12-08T15:02:39Z</time>
      </trkpt>
      <trkpt lat="44.79969" lon="6.92054">
        <ele>1838.8</ele>
        <time>2024-12-08T15:02:46Z</time>
      </trkpt>
      <trkpt lat="44.79971" lon="6.9204">
        <ele>1837.6</ele>
        <time>2024-12-08T15:02:53Z</time>
      </trkpt>
      <trkpt lat="44.7997" lon="6.92035">
        <ele>1837.2</ele>
        <time>2024-12-08T15:02:57Z</time>
      </trkpt>
      <trkpt lat="44.7997" lon="6.92032">
        <ele>1836.8</ele>
        <time>2024-12-08T15:02:59Z</time>
      </trkpt>
      <trkpt lat="44.79969" lon="6.92027">
        <ele>1836.4</ele>
        <time>2024-12-08T15:03:03Z</time>
      </trkpt>
      <trkpt lat="44.79969" lon="6.92027">
        <ele>1836.4</ele>
        <time>2024-12-08T15:03:08Z</time>
      </trkpt>
      <trkpt lat="44.79965" lon="6.92028">
        <ele>1835.8</ele>
        <time>2024-12-08T15:03:13Z</time>
      </trkpt>
      <trkpt lat="44.79964" lon="6.92028">
        <ele>1835.7</ele>
        <time>2024-12-08T15:03:14Z</time>
      </trkpt>
      <trkpt lat="44.79959" lon="6.92037">
        <ele>1834.5</ele>
        <time>2024-12-08T15:03:20Z</time>
      </trkpt>
      <trkpt lat="44.79957" lon="6.92045">
        <ele>1833.7</ele>
        <time>2024-12-08T15:03:25Z</time>
      </trkpt>
      <trkpt lat="44.79956" lon="6.92049">
        <ele>1833.3</ele>
        <time>2024-12-08T15:03:28Z</time>
      </trkpt>
      <trkpt lat="44.79953" lon="6.92061">
        <ele>1832.2</ele>
        <time>2024-12-08T15:03:34Z</time>
      </trkpt>
      <trkpt lat="44.79951" lon="6.92071">
        <ele>1831.3</ele>
        <time>2024-12-08T15:03:39Z</time>
      </trkpt>
      <trkpt lat="44.7995" lon="6.92076">
        <ele>1830.8</ele>
        <time>2024-12-08T15:03:42Z</time>
      </trkpt>
      <trkpt lat="44.79948" lon="6.92085">
        <ele>1829.9</ele>
        <time>2024-12-08T15:03:47Z</time>
      </trkpt>
      <trkpt lat="44.79945" lon="6.92099">
        <ele>1828.5</ele>
        <time>2024-12-08T15:03:54Z</time>
      </trkpt>
      <trkpt lat="44.79943" lon="6.92107">
        <ele>1827.7</ele>
        <time>2024-12-08T15:03:59Z</time>
      </trkpt>
      <trkpt lat="44.79939" lon="6.92118">
        <ele>1826.4</ele>
        <time>2024-12-08T15:04:05Z</time>
      </trkpt>
      <trkpt lat="44.79934" lon="6.92129">
        <ele>1824.8</ele>
        <time>2024-12-08T15:04:12Z</time>
      </trkpt>
      <trkpt lat="44.79929" lon="6.92142">
        <ele>1823</ele>
        <time>2024-12-08T15:04:19Z</time>
      </trkpt>
      <trkpt lat="44.79924" lon="6.92152">
        <ele>1821.5</ele>
        <time>2024-12-08T15:04:26Z</time>
      </trkpt>
      <trkpt lat="44.7992" lon="6.92161">
        <ele>1820.3</ele>
        <time>2024-12-08T15:04:32Z</time>
      </trkpt>
      <trkpt lat="44.79919" lon="6.92164">
        <ele>1819.9</ele>
        <time>2024-12-08T15:04:34Z</time>
      </trkpt>
      <trkpt lat="44.79917" lon="6.92168">
        <ele>1819.4</ele>
        <time>2024-12-08T15:04:36Z</time>
      </trkpt>
      <trkpt lat="44.79916" lon="6.92172">
        <ele>1819</ele>
        <time>2024-12-08T15:04:38Z</time>
      </trkpt>
      <trkpt lat="44.79913" lon="6.92183">
        <ele>1817.7</ele>
        <time>2024-12-08T15:04:45Z</time>
      </trkpt>
      <trkpt lat="44.79909" lon="6.92198">
        <ele>1816.1</ele>
        <time>2024-12-08T15:04:53Z</time>
      </trkpt>
      <trkpt lat="44.79908" lon="6.92201">
        <ele>1815.8</ele>
        <time>2024-12-08T15:04:55Z</time>
      </trkpt>
      <trkpt lat="44.79907" lon="6.92208">
        <ele>1815.2</ele>
        <time>2024-12-08T15:05:00Z</time>
      </trkpt>
      <trkpt lat="44.79908" lon="6.92216">
        <ele>1814.6</ele>
        <time>2024-12-08T15:05:07Z</time>
      </trkpt>
      <trkpt lat="44.79909" lon="6.92223">
        <ele>1814</ele>
        <time>2024-12-08T15:05:13Z</time>
      </trkpt>
      <trkpt lat="44.7991" lon="6.92226">
        <ele>1813.7</ele>
        <time>2024-12-08T15:05:15Z</time>
      </trkpt>
      <trkpt lat="44.79911" lon="6.92235">
        <ele>1813.1</ele>
        <time>2024-12-08T15:05:20Z</time>
      </trkpt>
      <trkpt lat="44.79912" lon="6.9225">
        <ele>1812.1</ele>
        <time>2024-12-08T15:05:28Z</time>
      </trkpt>
      <trkpt lat="44.79914" lon="6.92259">
        <ele>1811.4</ele>
        <time>2024-12-08T15:05:36Z</time>
      </trkpt>
      <trkpt lat="44.79914" lon="6.92259">
        <ele>1811.4</ele>
        <time>2024-12-08T15:05:42Z</time>
      </trkpt>
      <trkpt lat="44.79894" lon="6.92259">
        <ele>1809.7</ele>
        <time>2024-12-08T15:05:48Z</time>
      </trkpt>
      <trkpt lat="44.79894" lon="6.92256">
        <ele>1809.5</ele>
        <time>2024-12-08T15:05:51Z</time>
      </trkpt>
      <trkpt lat="44.79894" lon="6.92255">
        <ele>1809.4</ele>
        <time>2024-12-08T15:05:54Z</time>
      </trkpt>
      <trkpt lat="44.79894" lon="6.92255">
        <ele>1809.4</ele>
        <time>2024-12-08T15:05:59Z</time>
      </trkpt>
      <trkpt lat="44.79892" lon="6.92247">
        <ele>1809.2</ele>
        <time>2024-12-08T15:06:05Z</time>
      </trkpt>
      <trkpt lat="44.7989" lon="6.92241">
        <ele>1809</ele>
        <time>2024-12-08T15:06:10Z</time>
      </trkpt>
      <trkpt lat="44.79887" lon="6.92232">
        <ele>1808.7</ele>
        <time>2024-12-08T15:06:16Z</time>
      </trkpt>
      <trkpt lat="44.79884" lon="6.9222">
        <ele>1808.4</ele>
        <time>2024-12-08T15:06:23Z</time>
      </trkpt>
      <trkpt lat="44.79879" lon="6.92205">
        <ele>1807.8</ele>
        <time>2024-12-08T15:06:32Z</time>
      </trkpt>
      <trkpt lat="44.79876" lon="6.92193">
        <ele>1807.3</ele>
        <time>2024-12-08T15:06:40Z</time>
      </trkpt>
      <trkpt lat="44.79874" lon="6.92178">
        <ele>1806.6</ele>
        <time>2024-12-08T15:06:48Z</time>
      </trkpt>
      <trkpt lat="44.79873" lon="6.92164">
        <ele>1805.7</ele>
        <time>2024-12-08T15:06:56Z</time>
      </trkpt>
      <trkpt lat="44.79872" lon="6.92151">
        <ele>1805</ele>
        <time>2024-12-08T15:07:03Z</time>
      </trkpt>
      <trkpt lat="44.79871" lon="6.9214">
        <ele>1804.3</ele>
        <time>2024-12-08T15:07:11Z</time>
      </trkpt>
      <trkpt lat="44.79872" lon="6.9212">
        <ele>1803.1</ele>
        <time>2024-12-08T15:07:21Z</time>
      </trkpt>
      <trkpt lat="44.79874" lon="6.92106">
        <ele>1802.3</ele>
        <time>2024-12-08T15:07:29Z</time>
      </trkpt>
      <trkpt lat="44.79875" lon="6.92092">
        <ele>1801.5</ele>
        <time>2024-12-08T15:07:37Z</time>
      </trkpt>
      <trkpt lat="44.79877" lon="6.92078">
        <ele>1800.5</ele>
        <time>2024-12-08T15:07:44Z</time>
      </trkpt>
      <trkpt lat="44.79879" lon="6.92062">
        <ele>1799.4</ele>
        <time>2024-12-08T15:07:52Z</time>
      </trkpt>
      <trkpt lat="44.79881" lon="6.92045">
        <ele>1797.9</ele>
        <time>2024-12-08T15:07:57Z</time>
      </trkpt>
      <trkpt lat="44.79884" lon="6.92026">
        <ele>1796.3</ele>
        <time>2024-12-08T15:08:04Z</time>
      </trkpt>
      <trkpt lat="44.79886" lon="6.92017">
        <ele>1795.6</ele>
        <time>2024-12-08T15:08:11Z</time>
      </trkpt>
      <trkpt lat="44.79886" lon="6.92017">
        <ele>1795.6</ele>
        <time>2024-12-08T15:08:17Z</time>
      </trkpt>
      <trkpt lat="44.79886" lon="6.92017">
        <ele>1795.6</ele>
        <time>2024-12-08T15:08:24Z</time>
      </trkpt>
      <trkpt lat="44.79886" lon="6.92013">
        <ele>1795.2</ele>
        <time>2024-12-08T15:08:31Z</time>
      </trkpt>
      <trkpt lat="44.79886" lon="6.92013">
        <ele>1795.2</ele>
        <time>2024-12-08T15:08:39Z</time>
      </trkpt>
      <trkpt lat="44.79886" lon="6.92013">
        <ele>1795.2</ele>
        <time>2024-12-08T15:08:49Z</time>
      </trkpt>
      <trkpt lat="44.79886" lon="6.92015">
        <ele>1795.1</ele>
        <time>2024-12-08T15:08:56Z</time>
      </trkpt>
      <trkpt lat="44.79886" lon="6.92015">
        <ele>1795.1</ele>
        <time>2024-12-08T15:09:01Z</time>
      </trkpt>
      <trkpt lat="44.79886" lon="6.92013">
        <ele>1794.9</ele>
        <time>2024-12-08T15:09:05Z</time>
      </trkpt>
      <trkpt lat="44.79886" lon="6.92012">
        <ele>1794.8</ele>
        <time>2024-12-08T15:09:10Z</time>
      </trkpt>
      <trkpt lat="44.79887" lon="6.92011">
        <ele>1794.7</ele>
        <time>2024-12-08T15:09:21Z</time>
      </trkpt>
      <trkpt lat="44.79886" lon="6.92012">
        <ele>1794.4</ele>
        <time>2024-12-08T15:09:27Z</time>
      </trkpt>
      <trkpt lat="44.79886" lon="6.92016">
        <ele>1794</ele>
        <time>2024-12-08T15:09:35Z</time>
      </trkpt>
      <trkpt lat="44.79885" lon="6.92022">
        <ele>1793</ele>
        <time>2024-12-08T15:09:42Z</time>
      </trkpt>
      <trkpt lat="44.79884" lon="6.92026">
        <ele>1792.6</ele>
        <time>2024-12-08T15:09:48Z</time>
      </trkpt>
      <trkpt lat="44.79883" lon="6.92035">
        <ele>1791.6</ele>
        <time>2024-12-08T15:09:54Z</time>
      </trkpt>
      <trkpt lat="44.79883" lon="6.92036">
        <ele>1791.4</ele>
        <time>2024-12-08T15:09:55Z</time>
      </trkpt>
      <trkpt lat="44.7987" lon="6.92037">
        <ele>1789.8</ele>
        <time>2024-12-08T15:09:59Z</time>
      </trkpt>
      <trkpt lat="44.79865" lon="6.92041">
        <ele>1789.1</ele>
        <time>2024-12-08T15:10:05Z</time>
      </trkpt>
      <trkpt lat="44.7988" lon="6.92054">
        <ele>1787.2</ele>
        <time>2024-12-08T15:10:12Z</time>
      </trkpt>
      <trkpt lat="44.79879" lon="6.92059">
        <ele>1786.7</ele>
        <time>2024-12-08T15:10:19Z</time>
      </trkpt>
      <trkpt lat="44.79878" lon="6.9207">
        <ele>1785.1</ele>
        <time>2024-12-08T15:10:26Z</time>
      </trkpt>
      <trkpt lat="44.79877" lon="6.92076">
        <ele>1784.1</ele>
        <time>2024-12-08T15:10:32Z</time>
      </trkpt>
      <trkpt lat="44.79877" lon="6.92076">
        <ele>1784.1</ele>
        <time>2024-12-08T15:10:42Z</time>
      </trkpt>
      <trkpt lat="44.79877" lon="6.92076">
        <ele>1784.1</ele>
        <time>2024-12-08T15:10:51Z</time>
      </trkpt>
      <trkpt lat="44.79877" lon="6.92076">
        <ele>1784.1</ele>
        <time>2024-12-08T15:10:59Z</time>
      </trkpt>
      <trkpt lat="44.79877" lon="6.92076">
        <ele>1784.1</ele>
        <time>2024-12-08T15:11:06Z</time>
      </trkpt>
      <trkpt lat="44.79877" lon="6.92076">
        <ele>1784.1</ele>
        <time>2024-12-08T15:11:16Z</time>
      </trkpt>
      <trkpt lat="44.79877" lon="6.92076">
        <ele>1784.1</ele>
        <time>2024-12-08T15:11:26Z</time>
      </trkpt>
      <trkpt lat="44.79877" lon="6.92076">
        <ele>1784.1</ele>
        <time>2024-12-08T15:11:37Z</time>
      </trkpt>
      <trkpt lat="44.79877" lon="6.92076">
        <ele>1784.1</ele>
        <time>2024-12-08T15:11:46Z</time>
      </trkpt>
      <trkpt lat="44.79877" lon="6.92076">
        <ele>1784.1</ele>
        <time>2024-12-08T15:11:54Z</time>
      </trkpt>
      <trkpt lat="44.79877" lon="6.92076">
        <ele>1784.1</ele>
        <time>2024-12-08T15:12:00Z</time>
      </trkpt>
      <trkpt lat="44.79877" lon="6.92076">
        <ele>1784.1</ele>
        <time>2024-12-08T15:12:08Z</time>
      </trkpt>
      <trkpt lat="44.79877" lon="6.92076">
        <ele>1784.1</ele>
        <time>2024-12-08T15:12:15Z</time>
      </trkpt>
      <trkpt lat="44.79877" lon="6.92076">
        <ele>1784.1</ele>
        <time>2024-12-08T15:12:23Z</time>
      </trkpt>
      <trkpt lat="44.79877" lon="6.92076">
        <ele>1784.1</ele>
        <time>2024-12-08T15:12:32Z</time>
      </trkpt>
      <trkpt lat="44.79877" lon="6.92076">
        <ele>1784.1</ele>
        <time>2024-12-08T15:12:40Z</time>
      </trkpt>
      <trkpt lat="44.79877" lon="6.92076">
        <ele>1784.1</ele>
        <time>2024-12-08T15:12:50Z</time>
      </trkpt>
      <trkpt lat="44.79877" lon="6.92076">
        <ele>1784.1</ele>
        <time>2024-12-08T15:12:59Z</time>
      </trkpt>
      <trkpt lat="44.79877" lon="6.92076">
        <ele>1784.1</ele>
        <time>2024-12-08T15:13:07Z</time>
      </trkpt>
      <trkpt lat="44.79877" lon="6.92076">
        <ele>1784.1</ele>
        <time>2024-12-08T15:13:14Z</time>
      </trkpt>
      <trkpt lat="44.79877" lon="6.92076">
        <ele>1784.1</ele>
        <time>2024-12-08T15:13:20Z</time>
      </trkpt>
      <trkpt lat="44.79877" lon="6.92076">
        <ele>1784.1</ele>
        <time>2024-12-08T15:13:31Z</time>
      </trkpt>
      <trkpt lat="44.79877" lon="6.92076">
        <ele>1784.1</ele>
        <time>2024-12-08T15:13:40Z</time>
      </trkpt>
      <trkpt lat="44.79877" lon="6.92076">
        <ele>1784.1</ele>
        <time>2024-12-08T15:13:45Z</time>
      </trkpt>
      <trkpt lat="44.79877" lon="6.92076">
        <ele>1784.1</ele>
        <time>2024-12-08T15:13:54Z</time>
      </trkpt>
      <trkpt lat="44.79877" lon="6.92076">
        <ele>1784.1</ele>
        <time>2024-12-08T15:14:05Z</time>
      </trkpt>
      <trkpt lat="44.79877" lon="6.92076">
        <ele>1784.1</ele>
        <time>2024-12-08T15:14:13Z</time>
      </trkpt>
      <trkpt lat="44.79877" lon="6.92076">
        <ele>1784.1</ele>
        <time>2024-12-08T15:14:22Z</time>
      </trkpt>
      <trkpt lat="44.79877" lon="6.92076">
        <ele>1784.1</ele>
        <time>2024-12-08T15:14:30Z</time>
      </trkpt>
      <trkpt lat="44.79877" lon="6.92076">
        <ele>1784.1</ele>
        <time>2024-12-08T15:14:37Z</time>
      </trkpt>
      <trkpt lat="44.79877" lon="6.92076">
        <ele>1784.1</ele>
        <time>2024-12-08T15:14:45Z</time>
      </trkpt>
      <trkpt lat="44.79877" lon="6.92076">
        <ele>1784.1</ele>
        <time>2024-12-08T15:14:54Z</time>
      </trkpt>
      <trkpt lat="44.79877" lon="6.92076">
        <ele>1784.1</ele>
        <time>2024-12-08T15:15:01Z</time>
      </trkpt>
      <trkpt lat="44.79768" lon="6.92097">
        <ele>1753</ele>
        <time>2024-12-08T15:15:06Z</time>
      </trkpt>
      <trkpt lat="44.79764" lon="6.92097">
        <ele>1752</ele>
        <time>2024-12-08T15:15:10Z</time>
      </trkpt>
      <trkpt lat="44.79758" lon="6.92101">
        <ele>1750.5</ele>
        <time>2024-12-08T15:15:17Z</time>
      </trkpt>
      <trkpt lat="44.79754" lon="6.92107">
        <ele>1749.2</ele>
        <time>2024-12-08T15:15:24Z</time>
      </trkpt>
      <trkpt lat="44.79748" lon="6.92117">
        <ele>1747.5</ele>
        <time>2024-12-08T15:15:31Z</time>
      </trkpt>
      <trkpt lat="44.79744" lon="6.92126">
        <ele>1746.2</ele>
        <time>2024-12-08T15:15:39Z</time>
      </trkpt>
      <trkpt lat="44.79736" lon="6.92132">
        <ele>1744.8</ele>
        <time>2024-12-08T15:15:47Z</time>
      </trkpt>
      <trkpt lat="44.79732" lon="6.92136">
        <ele>1743.8</ele>
        <time>2024-12-08T15:15:56Z</time>
      </trkpt>
      <trkpt lat="44.79731" lon="6.92131">
        <ele>1743.1</ele>
        <time>2024-12-08T15:16:02Z</time>
      </trkpt>
      <trkpt lat="44.79726" lon="6.92134">
        <ele>1742.1</ele>
        <time>2024-12-08T15:16:09Z</time>
      </trkpt>
      <trkpt lat="44.79724" lon="6.92139">
        <ele>1741</ele>
        <time>2024-12-08T15:16:18Z</time>
      </trkpt>
      <trkpt lat="44.79723" lon="6.92139">
        <ele>1741</ele>
        <time>2024-12-08T15:16:25Z</time>
      </trkpt>
      <trkpt lat="44.79724" lon="6.92133">
        <ele>1739.9</ele>
        <time>2024-12-08T15:16:30Z</time>
      </trkpt>
      <trkpt lat="44.79724" lon="6.92132">
        <ele>1739.7</ele>
        <time>2024-12-08T15:16:31Z</time>
      </trkpt>
      <trkpt lat="44.79727" lon="6.92125">
        <ele>1738.1</ele>
        <time>2024-12-08T15:16:37Z</time>
      </trkpt>
      <trkpt lat="44.79724" lon="6.92118">
        <ele>1736.9</ele>
        <time>2024-12-08T15:16:44Z</time>
      </trkpt>
      <trkpt lat="44.79717" lon="6.92123">
        <ele>1735</ele>
        <time>2024-12-08T15:16:54Z</time>
      </trkpt>
      <trkpt lat="44.79712" lon="6.9213">
        <ele>1733.4</ele>
        <time>2024-12-08T15:17:02Z</time>
      </trkpt>
      <trkpt lat="44.79709" lon="6.92133">
        <ele>1732.6</ele>
        <time>2024-12-08T15:17:11Z</time>
      </trkpt>
      <trkpt lat="44.79706" lon="6.92139">
        <ele>1731.6</ele>
        <time>2024-12-08T15:17:20Z</time>
      </trkpt>
      <trkpt lat="44.79705" lon="6.92152">
        <ele>1730</ele>
        <time>2024-12-08T15:17:27Z</time>
      </trkpt>
      <trkpt lat="44.79702" lon="6.92158">
        <ele>1729.1</ele>
        <time>2024-12-08T15:17:35Z</time>
      </trkpt>
      <trkpt lat="44.79702" lon="6.92156">
        <ele>1728.9</ele>
        <time>2024-12-08T15:17:41Z</time>
      </trkpt>
      <trkpt lat="44.79702" lon="6.92156">
        <ele>1728.8</ele>
        <time>2024-12-08T15:17:49Z</time>
      </trkpt>
      <trkpt lat="44.79702" lon="6.92154">
        <ele>1728.5</ele>
        <time>2024-12-08T15:17:59Z</time>
      </trkpt>
      <trkpt lat="44.79702" lon="6.9215">
        <ele>1727.9</ele>
        <time>2024-12-08T15:18:07Z</time>
      </trkpt>
      <trkpt lat="44.79701" lon="6.92146">
        <ele>1727.3</ele>
        <time>2024-12-08T15:18:15Z</time>
      </trkpt>
      <trkpt lat="44.79701" lon="6.92146">
        <ele>1727.3</ele>
        <time>2024-12-08T15:18:29Z</time>
      </trkpt>
      <trkpt lat="44.79701" lon="6.92146">
        <ele>1727.3</ele>
        <time>2024-12-08T15:18:42Z</time>
      </trkpt>
      <trkpt lat="44.79701" lon="6.92146">
        <ele>1727.3</ele>
        <time>2024-12-08T15:18:59Z</time>
      </trkpt>
      <trkpt lat="44.79701" lon="6.92146">
        <ele>1727.3</ele>
        <time>2024-12-08T15:19:15Z</time>
      </trkpt>
      <trkpt lat="44.79701" lon="6.92144">
        <ele>1726.8</ele>
        <time>2024-12-08T15:19:23Z</time>
      </trkpt>
      <trkpt lat="44.79701" lon="6.92144">
        <ele>1726.8</ele>
        <time>2024-12-08T15:19:33Z</time>
      </trkpt>
      <trkpt lat="44.79696" lon="6.92137">
        <ele>1724.7</ele>
        <time>2024-12-08T15:19:40Z</time>
      </trkpt>
      <trkpt lat="44.79691" lon="6.92136">
        <ele>1723</ele>
        <time>2024-12-08T15:19:48Z</time>
      </trkpt>
      <trkpt lat="44.79688" lon="6.92139">
        <ele>1721.6</ele>
        <time>2024-12-08T15:19:55Z</time>
      </trkpt>
      <trkpt lat="44.79687" lon="6.9214">
        <ele>1721.4</ele>
        <time>2024-12-08T15:20:04Z</time>
      </trkpt>
      <trkpt lat="44.79687" lon="6.9214">
        <ele>1721.4</ele>
        <time>2024-12-08T15:20:16Z</time>
      </trkpt>
      <trkpt lat="44.79687" lon="6.92139">
        <ele>1721.4</ele>
        <time>2024-12-08T15:20:37Z</time>
      </trkpt>
      <trkpt lat="44.79687" lon="6.92139">
        <ele>1721.4</ele>
        <time>2024-12-08T15:20:53Z</time>
      </trkpt>
      <trkpt lat="44.79685" lon="6.92143">
        <ele>1720.3</ele>
        <time>2024-12-08T15:21:02Z</time>
      </trkpt>
      <trkpt lat="44.79685" lon="6.9215">
        <ele>1718.8</ele>
        <time>2024-12-08T15:21:12Z</time>
      </trkpt>
      <trkpt lat="44.79682" lon="6.92144">
        <ele>1717.2</ele>
        <time>2024-12-08T15:21:19Z</time>
      </trkpt>
      <trkpt lat="44.79683" lon="6.92143">
        <ele>1716.9</ele>
        <time>2024-12-08T15:21:25Z</time>
      </trkpt>
      <trkpt lat="44.79683" lon="6.92142">
        <ele>1716.8</ele>
        <time>2024-12-08T15:21:34Z</time>
      </trkpt>
      <trkpt lat="44.79677" lon="6.92144">
        <ele>1715.2</ele>
        <time>2024-12-08T15:21:43Z</time>
      </trkpt>
      <trkpt lat="44.79675" lon="6.92148">
        <ele>1714.1</ele>
        <time>2024-12-08T15:21:52Z</time>
      </trkpt>
      <trkpt lat="44.79672" lon="6.92152">
        <ele>1713</ele>
        <time>2024-12-08T15:21:59Z</time>
      </trkpt>
      <trkpt lat="44.79671" lon="6.92147">
        <ele>1712</ele>
        <time>2024-12-08T15:22:07Z</time>
      </trkpt>
      <trkpt lat="44.79671" lon="6.92143">
        <ele>1711.3</ele>
        <time>2024-12-08T15:22:13Z</time>
      </trkpt>
      <trkpt lat="44.79669" lon="6.92139">
        <ele>1710.3</ele>
        <time>2024-12-08T15:22:19Z</time>
      </trkpt>
      <trkpt lat="44.79664" lon="6.92142">
        <ele>1708.9</ele>
        <time>2024-12-08T15:22:25Z</time>
      </trkpt>
      <trkpt lat="44.79661" lon="6.92152">
        <ele>1707.1</ele>
        <time>2024-12-08T15:22:32Z</time>
      </trkpt>
      <trkpt lat="44.79662" lon="6.92162">
        <ele>1705.2</ele>
        <time>2024-12-08T15:22:38Z</time>
      </trkpt>
      <trkpt lat="44.79663" lon="6.92163">
        <ele>1705.1</ele>
        <time>2024-12-08T15:22:39Z</time>
      </trkpt>
      <trkpt lat="44.79661" lon="6.92167">
        <ele>1704.4</ele>
        <time>2024-12-08T15:22:45Z</time>
      </trkpt>
      <trkpt lat="44.79661" lon="6.92167">
        <ele>1704.3</ele>
        <time>2024-12-08T15:22:52Z</time>
      </trkpt>
      <trkpt lat="44.79659" lon="6.92166">
        <ele>1703.8</ele>
        <time>2024-12-08T15:22:59Z</time>
      </trkpt>
      <trkpt lat="44.79658" lon="6.92163">
        <ele>1703.2</ele>
        <time>2024-12-08T15:23:06Z</time>
      </trkpt>
      <trkpt lat="44.79656" lon="6.92163">
        <ele>1702.7</ele>
        <time>2024-12-08T15:23:15Z</time>
      </trkpt>
      <trkpt lat="44.79652" lon="6.92168">
        <ele>1701.2</ele>
        <time>2024-12-08T15:23:23Z</time>
      </trkpt>
      <trkpt lat="44.79649" lon="6.92176">
        <ele>1699.4</ele>
        <time>2024-12-08T15:23:31Z</time>
      </trkpt>
      <trkpt lat="44.79648" lon="6.92182">
        <ele>1697.9</ele>
        <time>2024-12-08T15:23:38Z</time>
      </trkpt>
      <trkpt lat="44.7965" lon="6.92193">
        <ele>1695.4</ele>
        <time>2024-12-08T15:23:47Z</time>
      </trkpt>
      <trkpt lat="44.7965" lon="6.92193">
        <ele>1695.4</ele>
        <time>2024-12-08T15:23:55Z</time>
      </trkpt>
      <trkpt lat="44.79649" lon="6.92197">
        <ele>1694.4</ele>
        <time>2024-12-08T15:24:03Z</time>
      </trkpt>
      <trkpt lat="44.79648" lon="6.92199">
        <ele>1693.8</ele>
        <time>2024-12-08T15:24:10Z</time>
      </trkpt>
      <trkpt lat="44.79648" lon="6.92196">
        <ele>1693.1</ele>
        <time>2024-12-08T15:24:16Z</time>
      </trkpt>
      <trkpt lat="44.79646" lon="6.92193">
        <ele>1692.1</ele>
        <time>2024-12-08T15:24:22Z</time>
      </trkpt>
      <trkpt lat="44.79642" lon="6.922">
        <ele>1690</ele>
        <time>2024-12-08T15:24:29Z</time>
      </trkpt>
      <trkpt lat="44.79642" lon="6.92202">
        <ele>1689.5</ele>
        <time>2024-12-08T15:24:37Z</time>
      </trkpt>
      <trkpt lat="44.79642" lon="6.92202">
        <ele>1689.5</ele>
        <time>2024-12-08T15:24:48Z</time>
      </trkpt>
      <trkpt lat="44.79639" lon="6.9221">
        <ele>1687.7</ele>
        <time>2024-12-08T15:24:56Z</time>
      </trkpt>
      <trkpt lat="44.79636" lon="6.92214">
        <ele>1686.3</ele>
        <time>2024-12-08T15:25:03Z</time>
      </trkpt>
      <trkpt lat="44.79634" lon="6.92216">
        <ele>1685.5</ele>
        <time>2024-12-08T15:25:12Z</time>
      </trkpt>
      <trkpt lat="44.79633" lon="6.92215">
        <ele>1685.1</ele>
        <time>2024-12-08T15:25:20Z</time>
      </trkpt>
      <trkpt lat="44.79632" lon="6.92213">
        <ele>1684.6</ele>
        <time>2024-12-08T15:25:27Z</time>
      </trkpt>
      <trkpt lat="44.79631" lon="6.92206">
        <ele>1682.9</ele>
        <time>2024-12-08T15:25:36Z</time>
      </trkpt>
      <trkpt lat="44.7963" lon="6.92198">
        <ele>1681.1</ele>
        <time>2024-12-08T15:25:44Z</time>
      </trkpt>
      <trkpt lat="44.79627" lon="6.92193">
        <ele>1679.7</ele>
        <time>2024-12-08T15:25:51Z</time>
      </trkpt>
      <trkpt lat="44.79626" lon="6.92188">
        <ele>1678.6</ele>
        <time>2024-12-08T15:25:57Z</time>
      </trkpt>
      <trkpt lat="44.79623" lon="6.92184">
        <ele>1677.5</ele>
        <time>2024-12-08T15:26:04Z</time>
      </trkpt>
      <trkpt lat="44.79622" lon="6.92186">
        <ele>1677</ele>
        <time>2024-12-08T15:26:12Z</time>
      </trkpt>
      <trkpt lat="44.79619" lon="6.92194">
        <ele>1675.2</ele>
        <time>2024-12-08T15:26:21Z</time>
      </trkpt>
      <trkpt lat="44.79616" lon="6.92205">
        <ele>1673</ele>
        <time>2024-12-08T15:26:29Z</time>
      </trkpt>
      <trkpt lat="44.79613" lon="6.92213">
        <ele>1671.5</ele>
        <time>2024-12-08T15:26:36Z</time>
      </trkpt>
      <trkpt lat="44.79613" lon="6.9222">
        <ele>1670.4</ele>
        <time>2024-12-08T15:26:42Z</time>
      </trkpt>
      <trkpt lat="44.79611" lon="6.92226">
        <ele>1669.4</ele>
        <time>2024-12-08T15:26:49Z</time>
      </trkpt>
      <trkpt lat="44.79611" lon="6.92226">
        <ele>1669.4</ele>
        <time>2024-12-08T15:27:06Z</time>
      </trkpt>
      <trkpt lat="44.79611" lon="6.92226">
        <ele>1669.4</ele>
        <time>2024-12-08T15:27:20Z</time>
      </trkpt>
      <trkpt lat="44.79611" lon="6.92227">
        <ele>1669.2</ele>
        <time>2024-12-08T15:27:35Z</time>
      </trkpt>
      <trkpt lat="44.79608" lon="6.92233">
        <ele>1668</ele>
        <time>2024-12-08T15:27:41Z</time>
      </trkpt>
      <trkpt lat="44.79606" lon="6.92238">
        <ele>1667</ele>
        <time>2024-12-08T15:27:48Z</time>
      </trkpt>
      <trkpt lat="44.79598" lon="6.92237">
        <ele>1665.1</ele>
        <time>2024-12-08T15:27:54Z</time>
      </trkpt>
      <trkpt lat="44.79596" lon="6.92242">
        <ele>1664.2</ele>
        <time>2024-12-08T15:28:01Z</time>
      </trkpt>
      <trkpt lat="44.79594" lon="6.92249">
        <ele>1663</ele>
        <time>2024-12-08T15:28:09Z</time>
      </trkpt>
      <trkpt lat="44.79593" lon="6.92255">
        <ele>1662.2</ele>
        <time>2024-12-08T15:28:15Z</time>
      </trkpt>
      <trkpt lat="44.79592" lon="6.92257">
        <ele>1661.9</ele>
        <time>2024-12-08T15:28:21Z</time>
      </trkpt>
      <trkpt lat="44.79591" lon="6.9226">
        <ele>1661.4</ele>
        <time>2024-12-08T15:28:27Z</time>
      </trkpt>
      <trkpt lat="44.79589" lon="6.92262">
        <ele>1661.1</ele>
        <time>2024-12-08T15:28:28Z</time>
      </trkpt>
      <trkpt lat="44.79584" lon="6.92267">
        <ele>1660</ele>
        <time>2024-12-08T15:28:32Z</time>
      </trkpt>
      <trkpt lat="44.79582" lon="6.92266">
        <ele>1659.7</ele>
        <time>2024-12-08T15:28:33Z</time>
      </trkpt>
      <trkpt lat="44.79578" lon="6.92264">
        <ele>1659</ele>
        <time>2024-12-08T15:28:35Z</time>
      </trkpt>
      <trkpt lat="44.79574" lon="6.92263">
        <ele>1658.5</ele>
        <time>2024-12-08T15:28:37Z</time>
      </trkpt>
      <trkpt lat="44.79567" lon="6.92264">
        <ele>1657.6</ele>
        <time>2024-12-08T15:28:42Z</time>
      </trkpt>
      <trkpt lat="44.79562" lon="6.92271">
        <ele>1656.7</ele>
        <time>2024-12-08T15:28:49Z</time>
      </trkpt>
      <trkpt lat="44.79562" lon="6.92274">
        <ele>1656.4</ele>
        <time>2024-12-08T15:28:51Z</time>
      </trkpt>
      <trkpt lat="44.79563" lon="6.92283">
        <ele>1655.7</ele>
        <time>2024-12-08T15:28:56Z</time>
      </trkpt>
      <trkpt lat="44.79568" lon="6.92294">
        <ele>1654.6</ele>
        <time>2024-12-08T15:29:03Z</time>
      </trkpt>
      <trkpt lat="44.79575" lon="6.92304">
        <ele>1653.7</ele>
        <time>2024-12-08T15:29:10Z</time>
      </trkpt>
      <trkpt lat="44.79581" lon="6.92314">
        <ele>1652.9</ele>
        <time>2024-12-08T15:29:16Z</time>
      </trkpt>
      <trkpt lat="44.79581" lon="6.92315">
        <ele>1652.8</ele>
        <time>2024-12-08T15:29:17Z</time>
      </trkpt>
      <trkpt lat="44.79583" lon="6.92318">
        <ele>1652.6</ele>
        <time>2024-12-08T15:29:19Z</time>
      </trkpt>
      <trkpt lat="44.79585" lon="6.9232">
        <ele>1652.4</ele>
        <time>2024-12-08T15:29:20Z</time>
      </trkpt>
      <trkpt lat="44.79588" lon="6.92331">
        <ele>1651.7</ele>
        <time>2024-12-08T15:29:26Z</time>
      </trkpt>
      <trkpt lat="44.79589" lon="6.92333">
        <ele>1651.5</ele>
        <time>2024-12-08T15:29:27Z</time>
      </trkpt>
      <trkpt lat="44.79593" lon="6.92347">
        <ele>1650.5</ele>
        <time>2024-12-08T15:29:35Z</time>
      </trkpt>
      <trkpt lat="44.79597" lon="6.9236">
        <ele>1649.6</ele>
        <time>2024-12-08T15:29:42Z</time>
      </trkpt>
      <trkpt lat="44.796" lon="6.92371">
        <ele>1648.8</ele>
        <time>2024-12-08T15:29:49Z</time>
      </trkpt>
      <trkpt lat="44.79605" lon="6.92386">
        <ele>1648</ele>
        <time>2024-12-08T15:29:58Z</time>
      </trkpt>
      <trkpt lat="44.79609" lon="6.92401">
        <ele>1647.3</ele>
        <time>2024-12-08T15:30:07Z</time>
      </trkpt>
      <trkpt lat="44.79612" lon="6.92412">
        <ele>1646.9</ele>
        <time>2024-12-08T15:30:15Z</time>
      </trkpt>
      <trkpt lat="44.79617" lon="6.92427">
        <ele>1646.4</ele>
        <time>2024-12-08T15:30:23Z</time>
      </trkpt>
      <trkpt lat="44.79622" lon="6.92442">
        <ele>1645.8</ele>
        <time>2024-12-08T15:30:32Z</time>
      </trkpt>
      <trkpt lat="44.79627" lon="6.92456">
        <ele>1645.2</ele>
        <time>2024-12-08T15:30:41Z</time>
      </trkpt>
      <trkpt lat="44.79633" lon="6.92467">
        <ele>1644.5</ele>
        <time>2024-12-08T15:30:48Z</time>
      </trkpt>
      <trkpt lat="44.79638" lon="6.92477">
        <ele>1643.8</ele>
        <time>2024-12-08T15:30:56Z</time>
      </trkpt>
      <trkpt lat="44.79644" lon="6.92488">
        <ele>1642.8</ele>
        <time>2024-12-08T15:31:03Z</time>
      </trkpt>
      <trkpt lat="44.79649" lon="6.92498">
        <ele>1641.6</ele>
        <time>2024-12-08T15:31:11Z</time>
      </trkpt>
      <trkpt lat="44.79654" lon="6.92508">
        <ele>1640.4</ele>
        <time>2024-12-08T15:31:17Z</time>
      </trkpt>
      <trkpt lat="44.79661" lon="6.92521">
        <ele>1638.6</ele>
        <time>2024-12-08T15:31:27Z</time>
      </trkpt>
      <trkpt lat="44.79667" lon="6.92532">
        <ele>1637.1</ele>
        <time>2024-12-08T15:31:36Z</time>
      </trkpt>
      <trkpt lat="44.79672" lon="6.92541">
        <ele>1635.9</ele>
        <time>2024-12-08T15:31:43Z</time>
      </trkpt>
      <trkpt lat="44.79679" lon="6.92552">
        <ele>1634.3</ele>
        <time>2024-12-08T15:31:51Z</time>
      </trkpt>
      <trkpt lat="44.79686" lon="6.92564">
        <ele>1632.7</ele>
        <time>2024-12-08T15:31:58Z</time>
      </trkpt>
      <trkpt lat="44.79695" lon="6.92574">
        <ele>1631.2</ele>
        <time>2024-12-08T15:32:07Z</time>
      </trkpt>
      <trkpt lat="44.79704" lon="6.92582">
        <ele>1629.6</ele>
        <time>2024-12-08T15:32:15Z</time>
      </trkpt>
      <trkpt lat="44.79711" lon="6.92589">
        <ele>1628.3</ele>
        <time>2024-12-08T15:32:22Z</time>
      </trkpt>
      <trkpt lat="44.79719" lon="6.92597">
        <ele>1626.9</ele>
        <time>2024-12-08T15:32:30Z</time>
      </trkpt>
      <trkpt lat="44.79729" lon="6.92605">
        <ele>1625.4</ele>
        <time>2024-12-08T15:32:40Z</time>
      </trkpt>
      <trkpt lat="44.79738" lon="6.92614">
        <ele>1624.1</ele>
        <time>2024-12-08T15:32:47Z</time>
      </trkpt>
      <trkpt lat="44.79748" lon="6.92621">
        <ele>1623</ele>
        <time>2024-12-08T15:32:55Z</time>
      </trkpt>
      <trkpt lat="44.79757" lon="6.92629">
        <ele>1622</ele>
        <time>2024-12-08T15:33:03Z</time>
      </trkpt>
      <trkpt lat="44.79765" lon="6.92636">
        <ele>1621.1</ele>
        <time>2024-12-08T15:33:10Z</time>
      </trkpt>
      <trkpt lat="44.79774" lon="6.92643">
        <ele>1620.4</ele>
        <time>2024-12-08T15:33:17Z</time>
      </trkpt>
      <trkpt lat="44.79783" lon="6.9265">
        <ele>1619.8</ele>
        <time>2024-12-08T15:33:25Z</time>
      </trkpt>
      <trkpt lat="44.79791" lon="6.92656">
        <ele>1619.3</ele>
        <time>2024-12-08T15:33:31Z</time>
      </trkpt>
      <trkpt lat="44.79797" lon="6.92662">
        <ele>1618.8</ele>
        <time>2024-12-08T15:33:39Z</time>
      </trkpt>
      <trkpt lat="44.7981" lon="6.92672">
        <ele>1617.9</ele>
        <time>2024-12-08T15:33:49Z</time>
      </trkpt>
      <trkpt lat="44.79818" lon="6.92678">
        <ele>1617.4</ele>
        <time>2024-12-08T15:33:57Z</time>
      </trkpt>
      <trkpt lat="44.79828" lon="6.92687">
        <ele>1616.5</ele>
        <time>2024-12-08T15:34:05Z</time>
      </trkpt>
      <trkpt lat="44.79835" lon="6.92692">
        <ele>1615.9</ele>
        <time>2024-12-08T15:34:13Z</time>
      </trkpt>
      <trkpt lat="44.79842" lon="6.92698">
        <ele>1615.3</ele>
        <time>2024-12-08T15:34:20Z</time>
      </trkpt>
      <trkpt lat="44.79853" lon="6.9271">
        <ele>1614.1</ele>
        <time>2024-12-08T15:34:29Z</time>
      </trkpt>
      <trkpt lat="44.79859" lon="6.92715">
        <ele>1613.6</ele>
        <time>2024-12-08T15:34:34Z</time>
      </trkpt>
      <trkpt lat="44.79861" lon="6.92717">
        <ele>1613.4</ele>
        <time>2024-12-08T15:34:36Z</time>
      </trkpt>
      <trkpt lat="44.7987" lon="6.92726">
        <ele>1612.4</ele>
        <time>2024-12-08T15:34:45Z</time>
      </trkpt>
      <trkpt lat="44.79879" lon="6.92733">
        <ele>1611.5</ele>
        <time>2024-12-08T15:34:52Z</time>
      </trkpt>
      <trkpt lat="44.79884" lon="6.92737">
        <ele>1610.9</ele>
        <time>2024-12-08T15:34:57Z</time>
      </trkpt>
      <trkpt lat="44.79889" lon="6.92741">
        <ele>1610.4</ele>
        <time>2024-12-08T15:35:03Z</time>
      </trkpt>
      <trkpt lat="44.79898" lon="6.92748">
        <ele>1609.5</ele>
        <time>2024-12-08T15:35:10Z</time>
      </trkpt>
      <trkpt lat="44.79906" lon="6.92754">
        <ele>1608.7</ele>
        <time>2024-12-08T15:35:16Z</time>
      </trkpt>
      <trkpt lat="44.79907" lon="6.92755">
        <ele>1608.6</ele>
        <time>2024-12-08T15:35:17Z</time>
      </trkpt>
      <trkpt lat="44.7991" lon="6.92757">
        <ele>1608.3</ele>
        <time>2024-12-08T15:35:20Z</time>
      </trkpt>
      <trkpt lat="44.79914" lon="6.9276">
        <ele>1608</ele>
        <time>2024-12-08T15:35:23Z</time>
      </trkpt>
      <trkpt lat="44.79921" lon="6.92766">
        <ele>1607.2</ele>
        <time>2024-12-08T15:35:30Z</time>
      </trkpt>
      <trkpt lat="44.79929" lon="6.92771">
        <ele>1606.4</ele>
        <time>2024-12-08T15:35:37Z</time>
      </trkpt>
      <trkpt lat="44.79937" lon="6.92778">
        <ele>1605.7</ele>
        <time>2024-12-08T15:35:44Z</time>
      </trkpt>
      <trkpt lat="44.79945" lon="6.92784">
        <ele>1605</ele>
        <time>2024-12-08T15:35:51Z</time>
      </trkpt>
      <trkpt lat="44.79954" lon="6.92791">
        <ele>1604.2</ele>
        <time>2024-12-08T15:35:58Z</time>
      </trkpt>
      <trkpt lat="44.79958" lon="6.92794">
        <ele>1603.8</ele>
        <time>2024-12-08T15:36:01Z</time>
      </trkpt>
      <trkpt lat="44.79965" lon="6.92799">
        <ele>1603.2</ele>
        <time>2024-12-08T15:36:06Z</time>
      </trkpt>
      <trkpt lat="44.7997" lon="6.92803">
        <ele>1602.7</ele>
        <time>2024-12-08T15:36:12Z</time>
      </trkpt>
      <trkpt lat="44.79971" lon="6.92803">
        <ele>1602.6</ele>
        <time>2024-12-08T15:36:13Z</time>
      </trkpt>
      <trkpt lat="44.79976" lon="6.92815">
        <ele>1601.7</ele>
        <time>2024-12-08T15:36:21Z</time>
      </trkpt>
      <trkpt lat="44.79977" lon="6.92819">
        <ele>1601.4</ele>
        <time>2024-12-08T15:36:25Z</time>
      </trkpt>
      <trkpt lat="44.79978" lon="6.92821">
        <ele>1601.2</ele>
        <time>2024-12-08T15:36:27Z</time>
      </trkpt>
      <trkpt lat="44.79972" lon="6.92831">
        <ele>1600.2</ele>
        <time>2024-12-08T15:36:33Z</time>
      </trkpt>
      <trkpt lat="44.7997" lon="6.92832">
        <ele>1599.9</ele>
        <time>2024-12-08T15:36:35Z</time>
      </trkpt>
      <trkpt lat="44.79969" lon="6.92832">
        <ele>1599.7</ele>
        <time>2024-12-08T15:36:38Z</time>
      </trkpt>
      <trkpt lat="44.7996" lon="6.92836">
        <ele>1598.5</ele>
        <time>2024-12-08T15:36:45Z</time>
      </trkpt>
      <trkpt lat="44.79953" lon="6.92838">
        <ele>1597.7</ele>
        <time>2024-12-08T15:36:52Z</time>
      </trkpt>
      <trkpt lat="44.79952" lon="6.92839">
        <ele>1597.6</ele>
        <time>2024-12-08T15:36:53Z</time>
      </trkpt>
      <trkpt lat="44.79941" lon="6.92839">
        <ele>1596.6</ele>
        <time>2024-12-08T15:37:01Z</time>
      </trkpt>
      <trkpt lat="44.79932" lon="6.92836">
        <ele>1595.9</ele>
        <time>2024-12-08T15:37:08Z</time>
      </trkpt>
      <trkpt lat="44.79922" lon="6.92834">
        <ele>1595.2</ele>
        <time>2024-12-08T15:37:15Z</time>
      </trkpt>
      <trkpt lat="44.79913" lon="6.92831">
        <ele>1594.6</ele>
        <time>2024-12-08T15:37:24Z</time>
      </trkpt>
      <trkpt lat="44.79907" lon="6.9283">
        <ele>1594.1</ele>
        <time>2024-12-08T15:37:31Z</time>
      </trkpt>
      <trkpt lat="44.79897" lon="6.92827">
        <ele>1593.5</ele>
        <time>2024-12-08T15:37:40Z</time>
      </trkpt>
      <trkpt lat="44.79886" lon="6.92824">
        <ele>1592.8</ele>
        <time>2024-12-08T15:37:46Z</time>
      </trkpt>
      <trkpt lat="44.79882" lon="6.92823">
        <ele>1592.5</ele>
        <time>2024-12-08T15:37:48Z</time>
      </trkpt>
      <trkpt lat="44.79872" lon="6.92821">
        <ele>1591.9</ele>
        <time>2024-12-08T15:37:55Z</time>
      </trkpt>
      <trkpt lat="44.79862" lon="6.92818">
        <ele>1591.3</ele>
        <time>2024-12-08T15:38:02Z</time>
      </trkpt>
      <trkpt lat="44.79855" lon="6.92816">
        <ele>1590.9</ele>
        <time>2024-12-08T15:38:09Z</time>
      </trkpt>
      <trkpt lat="44.7985" lon="6.92815">
        <ele>1590.7</ele>
        <time>2024-12-08T15:38:14Z</time>
      </trkpt>
      <trkpt lat="44.79846" lon="6.92814">
        <ele>1590.5</ele>
        <time>2024-12-08T15:38:17Z</time>
      </trkpt>
      <trkpt lat="44.7984" lon="6.92812">
        <ele>1590.2</ele>
        <time>2024-12-08T15:38:24Z</time>
      </trkpt>
      <trkpt lat="44.79832" lon="6.92806">
        <ele>1589.8</ele>
        <time>2024-12-08T15:38:33Z</time>
      </trkpt>
      <trkpt lat="44.79824" lon="6.92801">
        <ele>1589.4</ele>
        <time>2024-12-08T15:38:40Z</time>
      </trkpt>
      <trkpt lat="44.79816" lon="6.92796">
        <ele>1589.1</ele>
        <time>2024-12-08T15:38:48Z</time>
      </trkpt>
      <trkpt lat="44.79809" lon="6.92791">
        <ele>1588.7</ele>
        <time>2024-12-08T15:38:55Z</time>
      </trkpt>
      <trkpt lat="44.79799" lon="6.92784">
        <ele>1588.3</ele>
        <time>2024-12-08T15:39:04Z</time>
      </trkpt>
      <trkpt lat="44.79791" lon="6.9278">
        <ele>1587.9</ele>
        <time>2024-12-08T15:39:12Z</time>
      </trkpt>
      <trkpt lat="44.79783" lon="6.92777">
        <ele>1587.2</ele>
        <time>2024-12-08T15:39:20Z</time>
      </trkpt>
      <trkpt lat="44.79772" lon="6.92775">
        <ele>1586.4</ele>
        <time>2024-12-08T15:39:27Z</time>
      </trkpt>
      <trkpt lat="44.79765" lon="6.92773">
        <ele>1585.7</ele>
        <time>2024-12-08T15:39:34Z</time>
      </trkpt>
      <trkpt lat="44.79754" lon="6.92773">
        <ele>1584.7</ele>
        <time>2024-12-08T15:39:42Z</time>
      </trkpt>
      <trkpt lat="44.79749" lon="6.92774">
        <ele>1584.3</ele>
        <time>2024-12-08T15:39:49Z</time>
      </trkpt>
      <trkpt lat="44.79743" lon="6.92775">
        <ele>1583.7</ele>
        <time>2024-12-08T15:39:56Z</time>
      </trkpt>
      <trkpt lat="44.79735" lon="6.92776">
        <ele>1583.1</ele>
        <time>2024-12-08T15:40:03Z</time>
      </trkpt>
      <trkpt lat="44.7973" lon="6.92776">
        <ele>1583</ele>
        <time>2024-12-08T15:40:10Z</time>
      </trkpt>
      <trkpt lat="44.79723" lon="6.92776">
        <ele>1582.3</ele>
        <time>2024-12-08T15:40:19Z</time>
      </trkpt>
      <trkpt lat="44.79717" lon="6.92779">
        <ele>1581.3</ele>
        <time>2024-12-08T15:40:26Z</time>
      </trkpt>
      <trkpt lat="44.79708" lon="6.92781">
        <ele>1579.8</ele>
        <time>2024-12-08T15:40:35Z</time>
      </trkpt>
      <trkpt lat="44.79699" lon="6.92784">
        <ele>1578.3</ele>
        <time>2024-12-08T15:40:41Z</time>
      </trkpt>
      <trkpt lat="44.7969" lon="6.92786">
        <ele>1576.8</ele>
        <time>2024-12-08T15:40:48Z</time>
      </trkpt>
      <trkpt lat="44.79682" lon="6.92788">
        <ele>1575.3</ele>
        <time>2024-12-08T15:40:56Z</time>
      </trkpt>
      <trkpt lat="44.79675" lon="6.9279">
        <ele>1574.1</ele>
        <time>2024-12-08T15:41:01Z</time>
      </trkpt>
      <trkpt lat="44.79675" lon="6.9279">
        <ele>1574</ele>
        <time>2024-12-08T15:41:02Z</time>
      </trkpt>
      <trkpt lat="44.79666" lon="6.92789">
        <ele>1572.4</ele>
        <time>2024-12-08T15:41:09Z</time>
      </trkpt>
      <trkpt lat="44.79666" lon="6.92789">
        <ele>1572.4</ele>
        <time>2024-12-08T15:41:15Z</time>
      </trkpt>
      <trkpt lat="44.79658" lon="6.92787">
        <ele>1571</ele>
        <time>2024-12-08T15:41:21Z</time>
      </trkpt>
      <trkpt lat="44.79651" lon="6.92786">
        <ele>1570</ele>
        <time>2024-12-08T15:41:29Z</time>
      </trkpt>
      <trkpt lat="44.7965" lon="6.92786">
        <ele>1569.7</ele>
        <time>2024-12-08T15:41:36Z</time>
      </trkpt>
      <trkpt lat="44.79641" lon="6.92783">
        <ele>1568.4</ele>
        <time>2024-12-08T15:41:43Z</time>
      </trkpt>
      <trkpt lat="44.79637" lon="6.92782">
        <ele>1567.9</ele>
        <time>2024-12-08T15:41:51Z</time>
      </trkpt>
      <trkpt lat="44.79637" lon="6.92782">
        <ele>1567.9</ele>
        <time>2024-12-08T15:41:59Z</time>
      </trkpt>
      <trkpt lat="44.79637" lon="6.92782">
        <ele>1567.9</ele>
        <time>2024-12-08T15:42:07Z</time>
      </trkpt>
      <trkpt lat="44.79637" lon="6.92782">
        <ele>1567.9</ele>
        <time>2024-12-08T15:42:14Z</time>
      </trkpt>
      <trkpt lat="44.79637" lon="6.92782">
        <ele>1567.9</ele>
        <time>2024-12-08T15:42:23Z</time>
      </trkpt>
      <trkpt lat="44.79637" lon="6.92782">
        <ele>1567.9</ele>
        <time>2024-12-08T15:42:30Z</time>
      </trkpt>
      <trkpt lat="44.7961" lon="6.92766">
        <ele>1563.4</ele>
        <time>2024-12-08T15:42:36Z</time>
      </trkpt>
      <trkpt lat="44.7961" lon="6.92766">
        <ele>1563.4</ele>
        <time>2024-12-08T15:42:44Z</time>
      </trkpt>
      <trkpt lat="44.79598" lon="6.92797">
        <ele>1561.5</ele>
        <time>2024-12-08T15:42:53Z</time>
      </trkpt>
      <trkpt lat="44.79598" lon="6.92797">
        <ele>1561.5</ele>
        <time>2024-12-08T15:42:59Z</time>
      </trkpt>
      <trkpt lat="44.79598" lon="6.92797">
        <ele>1561.5</ele>
        <time>2024-12-08T15:43:05Z</time>
      </trkpt>
      <trkpt lat="44.79587" lon="6.92828">
        <ele>1560.8</ele>
        <time>2024-12-08T15:43:12Z</time>
      </trkpt>
      <trkpt lat="44.79587" lon="6.92828">
        <ele>1560.8</ele>
        <time>2024-12-08T15:43:13Z</time>
      </trkpt>
      <trkpt lat="44.79583" lon="6.92823">
        <ele>1560.7</ele>
        <time>2024-12-08T15:43:17Z</time>
      </trkpt>
      <trkpt lat="44.7958" lon="6.9282">
        <ele>1560.6</ele>
        <time>2024-12-08T15:43:20Z</time>
      </trkpt>
      <trkpt lat="44.79574" lon="6.92814">
        <ele>1560.4</ele>
        <time>2024-12-08T15:43:27Z</time>
      </trkpt>
      <trkpt lat="44.7957" lon="6.9281">
        <ele>1560.3</ele>
        <time>2024-12-08T15:43:31Z</time>
      </trkpt>
      <trkpt lat="44.79567" lon="6.92807">
        <ele>1560.2</ele>
        <time>2024-12-08T15:43:34Z</time>
      </trkpt>
      <trkpt lat="44.7956" lon="6.92801">
        <ele>1559.9</ele>
        <time>2024-12-08T15:43:41Z</time>
      </trkpt>
      <trkpt lat="44.79553" lon="6.92793">
        <ele>1559.4</ele>
        <time>2024-12-08T15:43:49Z</time>
      </trkpt>
      <trkpt lat="44.79544" lon="6.92784">
        <ele>1558.9</ele>
        <time>2024-12-08T15:43:57Z</time>
      </trkpt>
      <trkpt lat="44.79538" lon="6.92778">
        <ele>1558.6</ele>
        <time>2024-12-08T15:44:04Z</time>
      </trkpt>
      <trkpt lat="44.7953" lon="6.9277">
        <ele>1558.1</ele>
        <time>2024-12-08T15:44:13Z</time>
      </trkpt>
      <trkpt lat="44.79519" lon="6.9276">
        <ele>1557.5</ele>
        <time>2024-12-08T15:44:23Z</time>
      </trkpt>
      <trkpt lat="44.79515" lon="6.92755">
        <ele>1557</ele>
        <time>2024-12-08T15:44:29Z</time>
      </trkpt>
      <trkpt lat="44.79515" lon="6.92755">
        <ele>1557</ele>
        <time>2024-12-08T15:44:37Z</time>
      </trkpt>
      <trkpt lat="44.79515" lon="6.92755">
        <ele>1557</ele>
        <time>2024-12-08T15:44:47Z</time>
      </trkpt>
      <trkpt lat="44.79515" lon="6.92755">
        <ele>1557</ele>
        <time>2024-12-08T15:44:49Z</time>
      </trkpt>
    </trkseg>
  </trk>
</gpx>